<?xml version="1.0" encoding="UTF-8" standalone="no" ?>
<gpx xmlns="http://www.topografix.com/GPX/1/1" xmlns:xsi="http://www.w3.org/2001/XMLSchema-instance" xsi:schemaLocation="http://www.topografix.com/GPX/1/1 http://www.topografix.com/GPX/1/1/gpx.xsd" version="1.1" creator="VisuGPX - https://www.visugpx.com">
  <metadata>
    <name>444_Circuit 94 km Les Herbiers_Les Herbiers édité par cth85.com</name>
    <desc><![CDATA[Circuit de 94 km passant par:
Les Herbiers
D23 Saint Paul en Pareds
les noyers, la croix bara,
Saint Mars la Réorthe
Châteaumur par nozillac
D64 Saint Amand sur Sèvre
D34 Mauléon
D759 Saint Aubin de Bobigné
D759 Nueil sur Argent
D33 Le Pin
D155 Combrand
Montravers
D149 La Pommeraie sur Sèvre
D27 Les Chateliers
D27 Les Epesses
D11 Les Herbiers]]></desc>
  </metadata>
  <trk>
    <name><![CDATA[444_Circuit 94 km Les Herbiers_Les Herbiers édité par cth85.com_1]]></name>
    <desc><![CDATA[]]></desc>
    <trkseg>
      <trkpt lat="46.86382" lon="-1.00563">
        <ele>119.2</ele>
        <time>2026-04-26T18:06:30.000Z</time>
      </trkpt>
      <trkpt lat="46.86368" lon="-1.0058">
        <ele>119.2</ele>
        <time>2026-04-26T18:06:33.056Z</time>
      </trkpt>
      <trkpt lat="46.86352" lon="-1.00597">
        <ele>119</ele>
        <time>2026-04-26T18:06:35.874Z</time>
      </trkpt>
      <trkpt lat="46.86326" lon="-1.00624">
        <ele>118.2</ele>
        <time>2026-04-26T18:06:39.972Z</time>
      </trkpt>
      <trkpt lat="46.86324" lon="-1.00626">
        <ele>118.2</ele>
        <time>2026-04-26T18:06:40.417Z</time>
      </trkpt>
      <trkpt lat="46.86316" lon="-1.00633">
        <ele>117.8</ele>
        <time>2026-04-26T18:06:41.404Z</time>
      </trkpt>
      <trkpt lat="46.86272" lon="-1.00663">
        <ele>117.4</ele>
        <time>2026-04-26T18:06:48.769Z</time>
      </trkpt>
      <trkpt lat="46.86236" lon="-1.0068">
        <ele>116.2</ele>
        <time>2026-04-26T18:06:53.366Z</time>
      </trkpt>
      <trkpt lat="46.86192" lon="-1.007">
        <ele>115.4</ele>
        <time>2026-04-26T18:06:59.730Z</time>
        <extensions>
          <visugpx:TrkExtension xmlns:visugpx="https://www.visugpx.com/editgpx/">
            <visugpx:node>1</visugpx:node>
            </visugpx:TrkExtension>
        </extensions>
      </trkpt>
      <trkpt lat="46.86183" lon="-1.00704">
        <ele>115.6</ele>
        <time>2026-04-26T18:07:01.556Z</time>
        <extensions>
          <visugpx:TrkExtension xmlns:visugpx="https://www.visugpx.com/editgpx/">
            <visugpx:node>2</visugpx:node>
            </visugpx:TrkExtension>
        </extensions>
      </trkpt>
      <trkpt lat="46.86182" lon="-1.00705">
        <ele>116</ele>
        <time>2026-04-26T18:07:02.530Z</time>
        <extensions>
          <visugpx:TrkExtension xmlns:visugpx="https://www.visugpx.com/editgpx/">
            <visugpx:node>3</visugpx:node>
            </visugpx:TrkExtension>
        </extensions>
      </trkpt>
      <trkpt lat="46.86138" lon="-1.00732">
        <ele>116</ele>
        <time>2026-04-26T18:07:10.215Z</time>
      </trkpt>
      <trkpt lat="46.86094" lon="-1.00769">
        <ele>115</ele>
        <time>2026-04-26T18:07:17.073Z</time>
      </trkpt>
      <trkpt lat="46.86055" lon="-1.00815">
        <ele>114</ele>
        <time>2026-04-26T18:07:23.828Z</time>
      </trkpt>
      <trkpt lat="46.86002" lon="-1.00886">
        <ele>112</ele>
        <time>2026-04-26T18:07:32.919Z</time>
      </trkpt>
      <trkpt lat="46.85962" lon="-1.0095">
        <ele>113</ele>
        <time>2026-04-26T18:07:44.230Z</time>
      </trkpt>
      <trkpt lat="46.85957" lon="-1.00972">
        <ele>113</ele>
        <time>2026-04-26T18:07:46.784Z</time>
      </trkpt>
      <trkpt lat="46.85956" lon="-1.00981">
        <ele>113</ele>
        <time>2026-04-26T18:07:47.788Z</time>
      </trkpt>
      <trkpt lat="46.85952" lon="-1.00985">
        <ele>113</ele>
        <time>2026-04-26T18:07:48.568Z</time>
      </trkpt>
      <trkpt lat="46.85949" lon="-1.00984">
        <ele>113</ele>
        <time>2026-04-26T18:07:49.064Z</time>
      </trkpt>
      <trkpt lat="46.85946" lon="-1.00979">
        <ele>113</ele>
        <time>2026-04-26T18:07:49.796Z</time>
      </trkpt>
      <trkpt lat="46.85931" lon="-1.00971">
        <ele>113</ele>
        <time>2026-04-26T18:07:52.368Z</time>
      </trkpt>
      <trkpt lat="46.85879" lon="-1.00946">
        <ele>113</ele>
        <time>2026-04-26T18:08:01.184Z</time>
      </trkpt>
      <trkpt lat="46.85855" lon="-1.0094">
        <ele>113</ele>
        <time>2026-04-26T18:08:05.106Z</time>
      </trkpt>
      <trkpt lat="46.85853" lon="-1.00942">
        <ele>113</ele>
        <time>2026-04-26T18:08:05.496Z</time>
      </trkpt>
      <trkpt lat="46.85847" lon="-1.0094">
        <ele>113</ele>
        <time>2026-04-26T18:08:06.487Z</time>
      </trkpt>
      <trkpt lat="46.85842" lon="-1.00935">
        <ele>113</ele>
        <time>2026-04-26T18:08:07.462Z</time>
      </trkpt>
      <trkpt lat="46.8584" lon="-1.00929">
        <ele>113</ele>
        <time>2026-04-26T18:08:08.198Z</time>
      </trkpt>
      <trkpt lat="46.8584" lon="-1.00918">
        <ele>113</ele>
        <time>2026-04-26T18:08:09.409Z</time>
      </trkpt>
      <trkpt lat="46.85689" lon="-1.0083">
        <ele>112</ele>
        <time>2026-04-26T18:08:34.130Z</time>
      </trkpt>
      <trkpt lat="46.85562" lon="-1.00711">
        <ele>108</ele>
        <time>2026-04-26T18:08:53.408Z</time>
      </trkpt>
      <trkpt lat="46.85483" lon="-1.00655">
        <ele>108</ele>
        <time>2026-04-26T18:09:07.547Z</time>
      </trkpt>
      <trkpt lat="46.85442" lon="-1.00633">
        <ele>108</ele>
        <time>2026-04-26T18:09:14.581Z</time>
      </trkpt>
      <trkpt lat="46.85347" lon="-1.00588">
        <ele>109</ele>
        <time>2026-04-26T18:09:32.327Z</time>
      </trkpt>
      <trkpt lat="46.85281" lon="-1.00571">
        <ele>110</ele>
        <time>2026-04-26T18:09:44.854Z</time>
      </trkpt>
      <trkpt lat="46.85104" lon="-1.00442">
        <ele>110</ele>
        <time>2026-04-26T18:10:16.707Z</time>
      </trkpt>
      <trkpt lat="46.85078" lon="-1.00417">
        <ele>111</ele>
        <time>2026-04-26T18:10:23.740Z</time>
      </trkpt>
      <trkpt lat="46.85054" lon="-1.0041">
        <ele>111</ele>
        <time>2026-04-26T18:10:27.682Z</time>
      </trkpt>
      <trkpt lat="46.85028" lon="-1.00398">
        <ele>112</ele>
        <time>2026-04-26T18:10:34.182Z</time>
      </trkpt>
      <trkpt lat="46.84991" lon="-1.00386">
        <ele>113</ele>
        <time>2026-04-26T18:10:42.203Z</time>
      </trkpt>
      <trkpt lat="46.84953" lon="-1.00379">
        <ele>113</ele>
        <time>2026-04-26T18:10:48.372Z</time>
      </trkpt>
      <trkpt lat="46.84906" lon="-1.00376">
        <ele>114</ele>
        <time>2026-04-26T18:10:57.781Z</time>
      </trkpt>
      <trkpt lat="46.84867" lon="-1.00377">
        <ele>115</ele>
        <time>2026-04-26T18:11:05.968Z</time>
      </trkpt>
      <trkpt lat="46.84833" lon="-1.00383">
        <ele>115</ele>
        <time>2026-04-26T18:11:11.484Z</time>
      </trkpt>
      <trkpt lat="46.84789" lon="-1.00396">
        <ele>116</ele>
        <time>2026-04-26T18:11:20.562Z</time>
      </trkpt>
      <trkpt lat="46.84786" lon="-1.00408">
        <ele>116</ele>
        <time>2026-04-26T18:11:21.969Z</time>
      </trkpt>
      <trkpt lat="46.8478" lon="-1.00418">
        <ele>116</ele>
        <time>2026-04-26T18:11:23.435Z</time>
      </trkpt>
      <trkpt lat="46.84767" lon="-1.00426">
        <ele>116</ele>
        <time>2026-04-26T18:11:25.706Z</time>
      </trkpt>
      <trkpt lat="46.84695" lon="-1.00451">
        <ele>114</ele>
        <time>2026-04-26T18:11:35.126Z</time>
      </trkpt>
      <trkpt lat="46.84623" lon="-1.00474">
        <ele>112</ele>
        <time>2026-04-26T18:11:44.499Z</time>
      </trkpt>
      <trkpt lat="46.84546" lon="-1.00484">
        <ele>111</ele>
        <time>2026-04-26T18:11:55.564Z</time>
      </trkpt>
      <trkpt lat="46.84523" lon="-1.00485">
        <ele>111</ele>
        <time>2026-04-26T18:11:59.270Z</time>
      </trkpt>
      <trkpt lat="46.84505" lon="-1.00498">
        <ele>111</ele>
        <time>2026-04-26T18:12:02.504Z</time>
      </trkpt>
      <trkpt lat="46.84503" lon="-1.00511">
        <ele>111</ele>
        <time>2026-04-26T18:12:03.972Z</time>
      </trkpt>
      <trkpt lat="46.84497" lon="-1.00515">
        <ele>111</ele>
        <time>2026-04-26T18:12:05.034Z</time>
      </trkpt>
      <trkpt lat="46.84486" lon="-1.00515">
        <ele>111</ele>
        <time>2026-04-26T18:12:06.805Z</time>
      </trkpt>
      <trkpt lat="46.84482" lon="-1.00513">
        <ele>111</ele>
        <time>2026-04-26T18:12:07.486Z</time>
      </trkpt>
      <trkpt lat="46.84444" lon="-1.00486">
        <ele>112</ele>
        <time>2026-04-26T18:12:16.162Z</time>
      </trkpt>
      <trkpt lat="46.84422" lon="-1.00477">
        <ele>113</ele>
        <time>2026-04-26T18:12:22.098Z</time>
      </trkpt>
      <trkpt lat="46.84319" lon="-1.00471">
        <ele>116</ele>
        <time>2026-04-26T18:12:44.598Z</time>
      </trkpt>
      <trkpt lat="46.84259" lon="-1.00464">
        <ele>117</ele>
        <time>2026-04-26T18:12:56.051Z</time>
      </trkpt>
      <trkpt lat="46.8409" lon="-1.00452">
        <ele>120</ele>
        <time>2026-04-26T18:13:28.630Z</time>
      </trkpt>
      <trkpt lat="46.83876" lon="-1.00437">
        <ele>125</ele>
        <time>2026-04-26T18:14:12.466Z</time>
      </trkpt>
      <trkpt lat="46.83876" lon="-1.00414">
        <ele>126</ele>
        <time>2026-04-26T18:14:17.744Z</time>
      </trkpt>
      <trkpt lat="46.83871" lon="-1.0041">
        <ele>126</ele>
        <time>2026-04-26T18:14:18.662Z</time>
      </trkpt>
      <trkpt lat="46.83857" lon="-1.00416">
        <ele>126</ele>
        <time>2026-04-26T18:14:21.012Z</time>
      </trkpt>
      <trkpt lat="46.83677" lon="-1.00402">
        <ele>130</ele>
        <time>2026-04-26T18:14:57.432Z</time>
      </trkpt>
      <trkpt lat="46.83613" lon="-1.00405">
        <ele>129</ele>
        <time>2026-04-26T18:15:06.387Z</time>
      </trkpt>
      <trkpt lat="46.83598" lon="-1.00395">
        <ele>129</ele>
        <time>2026-04-26T18:15:09.043Z</time>
      </trkpt>
      <trkpt lat="46.8356" lon="-1.0039">
        <ele>128</ele>
        <time>2026-04-26T18:15:13.931Z</time>
      </trkpt>
      <trkpt lat="46.83525" lon="-1.0039">
        <ele>127</ele>
        <time>2026-04-26T18:15:18.332Z</time>
      </trkpt>
      <trkpt lat="46.83516" lon="-1.00386">
        <ele>127</ele>
        <time>2026-04-26T18:15:19.847Z</time>
      </trkpt>
      <trkpt lat="46.83505" lon="-1.00388">
        <ele>127</ele>
        <time>2026-04-26T18:15:21.632Z</time>
      </trkpt>
      <trkpt lat="46.8351" lon="-1.00397">
        <ele>127</ele>
        <time>2026-04-26T18:15:22.910Z</time>
      </trkpt>
      <trkpt lat="46.83326" lon="-1.00376">
        <ele>126</ele>
        <time>2026-04-26T18:15:51.168Z</time>
      </trkpt>
      <trkpt lat="46.83001" lon="-1.00354">
        <ele>115</ele>
        <time>2026-04-26T18:16:30.457Z</time>
      </trkpt>
      <trkpt lat="46.82947" lon="-1.00344">
        <ele>113</ele>
        <time>2026-04-26T18:16:36.887Z</time>
      </trkpt>
      <trkpt lat="46.82898" lon="-1.00324">
        <ele>112</ele>
        <time>2026-04-26T18:16:43.764Z</time>
      </trkpt>
      <trkpt lat="46.82865" lon="-1.00303">
        <ele>111</ele>
        <time>2026-04-26T18:16:48.318Z</time>
      </trkpt>
      <trkpt lat="46.82826" lon="-1.00254">
        <ele>110</ele>
        <time>2026-04-26T18:16:55.281Z</time>
      </trkpt>
      <trkpt lat="46.82796" lon="-1.00194">
        <ele>109</ele>
        <time>2026-04-26T18:17:02.153Z</time>
      </trkpt>
      <trkpt lat="46.82771" lon="-1.00128">
        <ele>108</ele>
        <time>2026-04-26T18:17:09.146Z</time>
      </trkpt>
      <trkpt lat="46.82705" lon="-0.99918">
        <ele>104</ele>
        <time>2026-04-26T18:17:29.552Z</time>
      </trkpt>
      <trkpt lat="46.82655" lon="-0.99768">
        <ele>97</ele>
        <time>2026-04-26T18:17:40.955Z</time>
      </trkpt>
      <trkpt lat="46.82635" lon="-0.99715">
        <ele>95</ele>
        <time>2026-04-26T18:17:45.460Z</time>
      </trkpt>
      <trkpt lat="46.82622" lon="-0.9969">
        <ele>94</ele>
        <time>2026-04-26T18:17:47.826Z</time>
      </trkpt>
      <trkpt lat="46.82597" lon="-0.99662">
        <ele>92</ele>
        <time>2026-04-26T18:17:50.929Z</time>
      </trkpt>
      <trkpt lat="46.82582" lon="-0.99652">
        <ele>91</ele>
        <time>2026-04-26T18:17:52.583Z</time>
      </trkpt>
      <trkpt lat="46.82565" lon="-0.99644">
        <ele>92</ele>
        <time>2026-04-26T18:17:58.004Z</time>
      </trkpt>
      <trkpt lat="46.82499" lon="-0.99631">
        <ele>94</ele>
        <time>2026-04-26T18:18:12.695Z</time>
      </trkpt>
      <trkpt lat="46.82408" lon="-0.99618">
        <ele>99</ele>
        <time>2026-04-26T18:18:39.980Z</time>
      </trkpt>
      <trkpt lat="46.82377" lon="-0.996">
        <ele>101</ele>
        <time>2026-04-26T18:18:50.648Z</time>
      </trkpt>
      <trkpt lat="46.8235" lon="-0.99565">
        <ele>105</ele>
        <time>2026-04-26T18:19:12.707Z</time>
      </trkpt>
      <trkpt lat="46.82321" lon="-0.99495">
        <ele>109</ele>
        <time>2026-04-26T18:19:33.605Z</time>
      </trkpt>
      <trkpt lat="46.82303" lon="-0.99479">
        <ele>109</ele>
        <time>2026-04-26T18:19:36.999Z</time>
      </trkpt>
      <trkpt lat="46.82259" lon="-0.9945">
        <ele>110</ele>
        <time>2026-04-26T18:19:46.595Z</time>
      </trkpt>
      <trkpt lat="46.8226" lon="-0.99367">
        <ele>113</ele>
        <time>2026-04-26T18:20:03.141Z</time>
      </trkpt>
      <trkpt lat="46.82254" lon="-0.99322">
        <ele>114</ele>
        <time>2026-04-26T18:20:10.210Z</time>
      </trkpt>
      <trkpt lat="46.8224" lon="-0.99256">
        <ele>117</ele>
        <time>2026-04-26T18:20:26.051Z</time>
      </trkpt>
      <trkpt lat="46.82288" lon="-0.99106">
        <ele>118</ele>
        <time>2026-04-26T18:20:45.946Z</time>
      </trkpt>
      <trkpt lat="46.8235" lon="-0.98931">
        <ele>117</ele>
        <time>2026-04-26T18:21:06.220Z</time>
      </trkpt>
      <trkpt lat="46.8235" lon="-0.98932">
        <ele>117</ele>
        <time>2026-04-26T18:21:06.330Z</time>
      </trkpt>
      <trkpt lat="46.82377" lon="-0.98853">
        <ele>118</ele>
        <time>2026-04-26T18:21:17.819Z</time>
      </trkpt>
      <trkpt lat="46.82403" lon="-0.98746">
        <ele>117</ele>
        <time>2026-04-26T18:21:28.947Z</time>
      </trkpt>
      <trkpt lat="46.82396" lon="-0.98686">
        <ele>115</ele>
        <time>2026-04-26T18:21:33.486Z</time>
      </trkpt>
      <trkpt lat="46.82378" lon="-0.98621">
        <ele>114</ele>
        <time>2026-04-26T18:21:39.907Z</time>
      </trkpt>
      <trkpt lat="46.82351" lon="-0.98561">
        <ele>112</ele>
        <time>2026-04-26T18:21:45.546Z</time>
      </trkpt>
      <trkpt lat="46.82352" lon="-0.9854">
        <ele>111</ele>
        <time>2026-04-26T18:21:46.938Z</time>
      </trkpt>
      <trkpt lat="46.82377" lon="-0.9851">
        <ele>111</ele>
        <time>2026-04-26T18:21:52.148Z</time>
      </trkpt>
      <trkpt lat="46.82403" lon="-0.98422">
        <ele>112</ele>
        <time>2026-04-26T18:22:04.450Z</time>
      </trkpt>
      <trkpt lat="46.82403" lon="-0.98423">
        <ele>112</ele>
        <time>2026-04-26T18:22:04.560Z</time>
      </trkpt>
      <trkpt lat="46.82406" lon="-0.98411">
        <ele>112</ele>
        <time>2026-04-26T18:22:05.968Z</time>
      </trkpt>
      <trkpt lat="46.82511" lon="-0.98464">
        <ele>115</ele>
        <time>2026-04-26T18:22:29.645Z</time>
      </trkpt>
      <trkpt lat="46.82643" lon="-0.98475">
        <ele>118</ele>
        <time>2026-04-26T18:22:56.504Z</time>
      </trkpt>
      <trkpt lat="46.82694" lon="-0.98488">
        <ele>119</ele>
        <time>2026-04-26T18:23:06.643Z</time>
      </trkpt>
      <trkpt lat="46.82743" lon="-0.98477">
        <ele>120</ele>
        <time>2026-04-26T18:23:16.442Z</time>
      </trkpt>
      <trkpt lat="46.82769" lon="-0.98464">
        <ele>119</ele>
        <time>2026-04-26T18:23:19.697Z</time>
      </trkpt>
      <trkpt lat="46.82787" lon="-0.9845">
        <ele>119</ele>
        <time>2026-04-26T18:23:22.981Z</time>
      </trkpt>
      <trkpt lat="46.82799" lon="-0.98431">
        <ele>118</ele>
        <time>2026-04-26T18:23:24.802Z</time>
      </trkpt>
      <trkpt lat="46.82929" lon="-0.98206">
        <ele>119</ele>
        <time>2026-04-26T18:23:58.849Z</time>
      </trkpt>
      <trkpt lat="46.82984" lon="-0.98117">
        <ele>120</ele>
        <time>2026-04-26T18:24:13.757Z</time>
      </trkpt>
      <trkpt lat="46.83015" lon="-0.98069">
        <ele>119</ele>
        <time>2026-04-26T18:24:19.737Z</time>
      </trkpt>
      <trkpt lat="46.83036" lon="-0.98025">
        <ele>118</ele>
        <time>2026-04-26T18:24:24.401Z</time>
      </trkpt>
      <trkpt lat="46.83041" lon="-0.97992">
        <ele>118</ele>
        <time>2026-04-26T18:24:28.125Z</time>
      </trkpt>
      <trkpt lat="46.83038" lon="-0.97957">
        <ele>118</ele>
        <time>2026-04-26T18:24:32.012Z</time>
      </trkpt>
      <trkpt lat="46.8301" lon="-0.97803">
        <ele>117</ele>
        <time>2026-04-26T18:24:48.145Z</time>
      </trkpt>
      <trkpt lat="46.83" lon="-0.97744">
        <ele>116</ele>
        <time>2026-04-26T18:24:53.567Z</time>
      </trkpt>
      <trkpt lat="46.82993" lon="-0.9763">
        <ele>117</ele>
        <time>2026-04-26T18:25:07.881Z</time>
      </trkpt>
      <trkpt lat="46.83079" lon="-0.97277">
        <ele>121</ele>
        <time>2026-04-26T18:25:56.145Z</time>
      </trkpt>
      <trkpt lat="46.83259" lon="-0.97007">
        <ele>116</ele>
        <time>2026-04-26T18:26:31.084Z</time>
      </trkpt>
      <trkpt lat="46.83412" lon="-0.96875">
        <ele>106</ele>
        <time>2026-04-26T18:26:49.408Z</time>
      </trkpt>
      <trkpt lat="46.83598" lon="-0.96545">
        <ele>107</ele>
        <time>2026-04-26T18:27:38.093Z</time>
      </trkpt>
      <trkpt lat="46.8372" lon="-0.96261">
        <ele>111</ele>
        <time>2026-04-26T18:28:22.127Z</time>
      </trkpt>
      <trkpt lat="46.83847" lon="-0.9598">
        <ele>120</ele>
        <time>2026-04-26T18:29:18.647Z</time>
      </trkpt>
      <trkpt lat="46.83933" lon="-0.95812">
        <ele>124</ele>
        <time>2026-04-26T18:29:49.540Z</time>
      </trkpt>
      <trkpt lat="46.84049" lon="-0.95607">
        <ele>129</ele>
        <time>2026-04-26T18:30:28.534Z</time>
      </trkpt>
      <trkpt lat="46.84281" lon="-0.95322">
        <ele>137</ele>
        <time>2026-04-26T18:31:32.683Z</time>
      </trkpt>
      <trkpt lat="46.84366" lon="-0.95215">
        <ele>137</ele>
        <time>2026-04-26T18:31:50.749Z</time>
      </trkpt>
      <trkpt lat="46.84394" lon="-0.95174">
        <ele>136</ele>
        <time>2026-04-26T18:31:55.866Z</time>
      </trkpt>
      <trkpt lat="46.84477" lon="-0.94998">
        <ele>133</ele>
        <time>2026-04-26T18:32:15.489Z</time>
      </trkpt>
      <trkpt lat="46.84495" lon="-0.94968">
        <ele>132</ele>
        <time>2026-04-26T18:32:18.716Z</time>
      </trkpt>
      <trkpt lat="46.84516" lon="-0.94948">
        <ele>131</ele>
        <time>2026-04-26T18:32:21.608Z</time>
      </trkpt>
      <trkpt lat="46.84582" lon="-0.94942">
        <ele>129</ele>
        <time>2026-04-26T18:32:29.815Z</time>
      </trkpt>
      <trkpt lat="46.8467" lon="-0.95004">
        <ele>123</ele>
        <time>2026-04-26T18:32:39.566Z</time>
      </trkpt>
      <trkpt lat="46.84737" lon="-0.94996">
        <ele>117</ele>
        <time>2026-04-26T18:32:46.063Z</time>
      </trkpt>
      <trkpt lat="46.84812" lon="-0.94943">
        <ele>117</ele>
        <time>2026-04-26T18:32:59.479Z</time>
      </trkpt>
      <trkpt lat="46.84858" lon="-0.94894">
        <ele>120</ele>
        <time>2026-04-26T18:33:16.035Z</time>
      </trkpt>
      <trkpt lat="46.84968" lon="-0.94786">
        <ele>125</ele>
        <time>2026-04-26T18:33:48.025Z</time>
      </trkpt>
      <trkpt lat="46.85086" lon="-0.94736">
        <ele>129</ele>
        <time>2026-04-26T18:34:15.929Z</time>
      </trkpt>
      <trkpt lat="46.85139" lon="-0.9455">
        <ele>133</ele>
        <time>2026-04-26T18:34:45.981Z</time>
      </trkpt>
      <trkpt lat="46.8518" lon="-0.94302">
        <ele>141</ele>
        <time>2026-04-26T18:35:32.505Z</time>
      </trkpt>
      <trkpt lat="46.85188" lon="-0.94001">
        <ele>146</ele>
        <time>2026-04-26T18:36:15.091Z</time>
      </trkpt>
      <trkpt lat="46.85167" lon="-0.93779">
        <ele>154</ele>
        <time>2026-04-26T18:36:59.381Z</time>
      </trkpt>
      <trkpt lat="46.85125" lon="-0.93567">
        <ele>160</ele>
        <time>2026-04-26T18:37:36.720Z</time>
      </trkpt>
      <trkpt lat="46.85102" lon="-0.93453">
        <ele>161</ele>
        <time>2026-04-26T18:37:51.507Z</time>
      </trkpt>
      <trkpt lat="46.85072" lon="-0.93325">
        <ele>163</ele>
        <time>2026-04-26T18:38:10.086Z</time>
      </trkpt>
      <trkpt lat="46.85029" lon="-0.93166">
        <ele>169</ele>
        <time>2026-04-26T18:38:43.495Z</time>
      </trkpt>
      <trkpt lat="46.85043" lon="-0.93154">
        <ele>170</ele>
        <time>2026-04-26T18:38:48.800Z</time>
      </trkpt>
      <trkpt lat="46.85052" lon="-0.93156">
        <ele>170</ele>
        <time>2026-04-26T18:38:50.267Z</time>
      </trkpt>
      <trkpt lat="46.85093" lon="-0.93192">
        <ele>169</ele>
        <time>2026-04-26T18:38:56.664Z</time>
      </trkpt>
      <trkpt lat="46.85181" lon="-0.93222">
        <ele>166</ele>
        <time>2026-04-26T18:39:07.626Z</time>
      </trkpt>
      <trkpt lat="46.85207" lon="-0.93222">
        <ele>165</ele>
        <time>2026-04-26T18:39:10.659Z</time>
      </trkpt>
      <trkpt lat="46.85252" lon="-0.93203">
        <ele>164</ele>
        <time>2026-04-26T18:39:16.901Z</time>
      </trkpt>
      <trkpt lat="46.85372" lon="-0.93124">
        <ele>156</ele>
        <time>2026-04-26T18:39:30.090Z</time>
      </trkpt>
      <trkpt lat="46.85424" lon="-0.93076">
        <ele>155</ele>
        <time>2026-04-26T18:39:38.643Z</time>
      </trkpt>
      <trkpt lat="46.85505" lon="-0.9293">
        <ele>158</ele>
        <time>2026-04-26T18:40:04.948Z</time>
      </trkpt>
      <trkpt lat="46.85527" lon="-0.92904">
        <ele>157</ele>
        <time>2026-04-26T18:40:08.324Z</time>
      </trkpt>
      <trkpt lat="46.8559" lon="-0.92856">
        <ele>153</ele>
        <time>2026-04-26T18:40:15.650Z</time>
      </trkpt>
      <trkpt lat="46.85679" lon="-0.92825">
        <ele>147</ele>
        <time>2026-04-26T18:40:24.552Z</time>
      </trkpt>
      <trkpt lat="46.85707" lon="-0.9281">
        <ele>146</ele>
        <time>2026-04-26T18:40:28.160Z</time>
      </trkpt>
      <trkpt lat="46.85732" lon="-0.92789">
        <ele>145</ele>
        <time>2026-04-26T18:40:31.619Z</time>
      </trkpt>
      <trkpt lat="46.85777" lon="-0.92735">
        <ele>143</ele>
        <time>2026-04-26T18:40:38.620Z</time>
      </trkpt>
      <trkpt lat="46.85794" lon="-0.92721">
        <ele>143</ele>
        <time>2026-04-26T18:40:41.762Z</time>
      </trkpt>
      <trkpt lat="46.85807" lon="-0.9272">
        <ele>143</ele>
        <time>2026-04-26T18:40:43.859Z</time>
      </trkpt>
      <trkpt lat="46.85806" lon="-0.9272">
        <ele>143</ele>
        <time>2026-04-26T18:40:44.020Z</time>
      </trkpt>
      <trkpt lat="46.85834" lon="-0.92717">
        <ele>142</ele>
        <time>2026-04-26T18:40:47.364Z</time>
      </trkpt>
      <trkpt lat="46.85859" lon="-0.92722">
        <ele>140</ele>
        <time>2026-04-26T18:40:49.802Z</time>
      </trkpt>
      <trkpt lat="46.85952" lon="-0.92779">
        <ele>133</ele>
        <time>2026-04-26T18:40:59.547Z</time>
      </trkpt>
      <trkpt lat="46.85989" lon="-0.92774">
        <ele>132</ele>
        <time>2026-04-26T18:41:04.281Z</time>
      </trkpt>
      <trkpt lat="46.86032" lon="-0.92739">
        <ele>132</ele>
        <time>2026-04-26T18:41:12.207Z</time>
      </trkpt>
      <trkpt lat="46.86055" lon="-0.9269">
        <ele>134</ele>
        <time>2026-04-26T18:41:23.512Z</time>
      </trkpt>
      <trkpt lat="46.86079" lon="-0.92607">
        <ele>139</ele>
        <time>2026-04-26T18:41:49.760Z</time>
      </trkpt>
      <trkpt lat="46.86089" lon="-0.92588">
        <ele>140</ele>
        <time>2026-04-26T18:41:55.076Z</time>
      </trkpt>
      <trkpt lat="46.86109" lon="-0.92567">
        <ele>141</ele>
        <time>2026-04-26T18:42:01.231Z</time>
      </trkpt>
      <trkpt lat="46.86145" lon="-0.92512">
        <ele>143</ele>
        <time>2026-04-26T18:42:13.903Z</time>
      </trkpt>
      <trkpt lat="46.86177" lon="-0.92456">
        <ele>143</ele>
        <time>2026-04-26T18:42:21.940Z</time>
      </trkpt>
      <trkpt lat="46.86226" lon="-0.92422">
        <ele>143</ele>
        <time>2026-04-26T18:42:30.676Z</time>
      </trkpt>
      <trkpt lat="46.86217" lon="-0.92389">
        <ele>143</ele>
        <time>2026-04-26T18:42:34.588Z</time>
      </trkpt>
      <trkpt lat="46.86208" lon="-0.92368">
        <ele>142</ele>
        <time>2026-04-26T18:42:36.306Z</time>
      </trkpt>
      <trkpt lat="46.86155" lon="-0.92294">
        <ele>142</ele>
        <time>2026-04-26T18:42:48.107Z</time>
      </trkpt>
      <trkpt lat="46.8615" lon="-0.9228">
        <ele>142</ele>
        <time>2026-04-26T18:42:49.847Z</time>
      </trkpt>
      <trkpt lat="46.86145" lon="-0.92257">
        <ele>142</ele>
        <time>2026-04-26T18:42:52.505Z</time>
      </trkpt>
      <trkpt lat="46.86137" lon="-0.92199">
        <ele>143</ele>
        <time>2026-04-26T18:43:00.910Z</time>
      </trkpt>
      <trkpt lat="46.86097" lon="-0.92088">
        <ele>146</ele>
        <time>2026-04-26T18:43:20.953Z</time>
      </trkpt>
      <trkpt lat="46.86081" lon="-0.92058">
        <ele>146</ele>
        <time>2026-04-26T18:43:25.143Z</time>
      </trkpt>
      <trkpt lat="46.86022" lon="-0.91968">
        <ele>147</ele>
        <time>2026-04-26T18:43:40.561Z</time>
      </trkpt>
      <trkpt lat="46.86002" lon="-0.91933">
        <ele>148</ele>
        <time>2026-04-26T18:43:47.604Z</time>
      </trkpt>
      <trkpt lat="46.85974" lon="-0.91865">
        <ele>150</ele>
        <time>2026-04-26T18:44:00.571Z</time>
      </trkpt>
      <trkpt lat="46.85965" lon="-0.91848">
        <ele>151</ele>
        <time>2026-04-26T18:44:05.809Z</time>
      </trkpt>
      <trkpt lat="46.85897" lon="-0.91733">
        <ele>156</ele>
        <time>2026-04-26T18:44:34.321Z</time>
      </trkpt>
      <trkpt lat="46.85837" lon="-0.91623">
        <ele>164</ele>
        <time>2026-04-26T18:45:16.434Z</time>
      </trkpt>
      <trkpt lat="46.85827" lon="-0.91609">
        <ele>165</ele>
        <time>2026-04-26T18:45:21.657Z</time>
      </trkpt>
      <trkpt lat="46.85804" lon="-0.91583">
        <ele>167</ele>
        <time>2026-04-26T18:45:32.125Z</time>
      </trkpt>
      <trkpt lat="46.8573" lon="-0.91516">
        <ele>172</ele>
        <time>2026-04-26T18:45:59.052Z</time>
      </trkpt>
      <trkpt lat="46.85704" lon="-0.91487">
        <ele>172</ele>
        <time>2026-04-26T18:46:04.319Z</time>
      </trkpt>
      <trkpt lat="46.8566" lon="-0.91419">
        <ele>169</ele>
        <time>2026-04-26T18:46:11.352Z</time>
      </trkpt>
      <trkpt lat="46.85653" lon="-0.91407">
        <ele>169</ele>
        <time>2026-04-26T18:46:13.089Z</time>
      </trkpt>
      <trkpt lat="46.85634" lon="-0.91386">
        <ele>169</ele>
        <time>2026-04-26T18:46:16.925Z</time>
      </trkpt>
      <trkpt lat="46.85596" lon="-0.91361">
        <ele>169</ele>
        <time>2026-04-26T18:46:23.636Z</time>
      </trkpt>
      <trkpt lat="46.8554" lon="-0.91329">
        <ele>167</ele>
        <time>2026-04-26T18:46:30.926Z</time>
      </trkpt>
      <trkpt lat="46.85522" lon="-0.91315">
        <ele>168</ele>
        <time>2026-04-26T18:46:36.586Z</time>
      </trkpt>
      <trkpt lat="46.85511" lon="-0.91302">
        <ele>169</ele>
        <time>2026-04-26T18:46:41.812Z</time>
      </trkpt>
      <trkpt lat="46.85499" lon="-0.91285">
        <ele>170</ele>
        <time>2026-04-26T18:46:47.148Z</time>
      </trkpt>
      <trkpt lat="46.8537" lon="-0.91026">
        <ele>174</ele>
        <time>2026-04-26T18:47:29.575Z</time>
      </trkpt>
      <trkpt lat="46.85344" lon="-0.90964">
        <ele>174</ele>
        <time>2026-04-26T18:47:37.586Z</time>
      </trkpt>
      <trkpt lat="46.85322" lon="-0.90904">
        <ele>175</ele>
        <time>2026-04-26T18:47:46.919Z</time>
      </trkpt>
      <trkpt lat="46.85264" lon="-0.90708">
        <ele>178</ele>
        <time>2026-04-26T18:48:15.903Z</time>
      </trkpt>
      <trkpt lat="46.85251" lon="-0.9065">
        <ele>177</ele>
        <time>2026-04-26T18:48:21.348Z</time>
      </trkpt>
      <trkpt lat="46.85239" lon="-0.90576">
        <ele>180</ele>
        <time>2026-04-26T18:48:37.489Z</time>
      </trkpt>
      <trkpt lat="46.85226" lon="-0.90516">
        <ele>185</ele>
        <time>2026-04-26T18:49:05.042Z</time>
      </trkpt>
      <trkpt lat="46.8521" lon="-0.90468">
        <ele>187</ele>
        <time>2026-04-26T18:49:15.951Z</time>
      </trkpt>
      <trkpt lat="46.85203" lon="-0.9044">
        <ele>188</ele>
        <time>2026-04-26T18:49:21.610Z</time>
      </trkpt>
      <trkpt lat="46.85199" lon="-0.90364">
        <ele>189</ele>
        <time>2026-04-26T18:49:31.805Z</time>
      </trkpt>
      <trkpt lat="46.85198" lon="-0.90325">
        <ele>189</ele>
        <time>2026-04-26T18:49:36.104Z</time>
      </trkpt>
      <trkpt lat="46.85203" lon="-0.90308">
        <ele>190</ele>
        <time>2026-04-26T18:49:41.341Z</time>
      </trkpt>
      <trkpt lat="46.85224" lon="-0.9028">
        <ele>191</ele>
        <time>2026-04-26T18:49:47.998Z</time>
      </trkpt>
      <trkpt lat="46.85227" lon="-0.9027">
        <ele>191</ele>
        <time>2026-04-26T18:49:49.201Z</time>
      </trkpt>
      <trkpt lat="46.85251" lon="-0.90266">
        <ele>192</ele>
        <time>2026-04-26T18:49:55.297Z</time>
      </trkpt>
      <trkpt lat="46.85268" lon="-0.90259">
        <ele>192</ele>
        <time>2026-04-26T18:49:58.141Z</time>
      </trkpt>
      <trkpt lat="46.85294" lon="-0.90241">
        <ele>192</ele>
        <time>2026-04-26T18:50:02.775Z</time>
      </trkpt>
      <trkpt lat="46.85314" lon="-0.9021">
        <ele>192</ele>
        <time>2026-04-26T18:50:07.469Z</time>
      </trkpt>
      <trkpt lat="46.85324" lon="-0.90187">
        <ele>191</ele>
        <time>2026-04-26T18:50:09.424Z</time>
      </trkpt>
      <trkpt lat="46.85333" lon="-0.90163">
        <ele>190</ele>
        <time>2026-04-26T18:50:11.391Z</time>
      </trkpt>
      <trkpt lat="46.85457" lon="-0.89882">
        <ele>213</ele>
        <time>2026-04-26T18:52:16.603Z</time>
      </trkpt>
      <trkpt lat="46.85484" lon="-0.89798">
        <ele>218</ele>
        <time>2026-04-26T18:52:42.784Z</time>
      </trkpt>
      <trkpt lat="46.85491" lon="-0.89767">
        <ele>219</ele>
        <time>2026-04-26T18:52:48.659Z</time>
      </trkpt>
      <trkpt lat="46.85495" lon="-0.89736">
        <ele>220</ele>
        <time>2026-04-26T18:52:54.448Z</time>
      </trkpt>
      <trkpt lat="46.85497" lon="-0.89689">
        <ele>219</ele>
        <time>2026-04-26T18:52:58.420Z</time>
      </trkpt>
      <trkpt lat="46.85497" lon="-0.8969">
        <ele>219</ele>
        <time>2026-04-26T18:52:58.530Z</time>
      </trkpt>
      <trkpt lat="46.85508" lon="-0.8944">
        <ele>219</ele>
        <time>2026-04-26T18:53:26.122Z</time>
      </trkpt>
      <trkpt lat="46.85506" lon="-0.89419">
        <ele>221</ele>
        <time>2026-04-26T18:53:36.130Z</time>
      </trkpt>
      <trkpt lat="46.85502" lon="-0.89405">
        <ele>221</ele>
        <time>2026-04-26T18:53:37.801Z</time>
      </trkpt>
      <trkpt lat="46.85494" lon="-0.89392">
        <ele>221</ele>
        <time>2026-04-26T18:53:39.727Z</time>
      </trkpt>
      <trkpt lat="46.85446" lon="-0.89344">
        <ele>221</ele>
        <time>2026-04-26T18:53:49.093Z</time>
      </trkpt>
      <trkpt lat="46.85417" lon="-0.89313">
        <ele>221</ele>
        <time>2026-04-26T18:53:54.879Z</time>
      </trkpt>
      <trkpt lat="46.85411" lon="-0.89295">
        <ele>221</ele>
        <time>2026-04-26T18:53:57.084Z</time>
      </trkpt>
      <trkpt lat="46.85409" lon="-0.89278">
        <ele>223</ele>
        <time>2026-04-26T18:54:05.227Z</time>
      </trkpt>
      <trkpt lat="46.85412" lon="-0.89252">
        <ele>225</ele>
        <time>2026-04-26T18:54:16.257Z</time>
      </trkpt>
      <trkpt lat="46.85425" lon="-0.89225">
        <ele>227</ele>
        <time>2026-04-26T18:54:26.884Z</time>
      </trkpt>
      <trkpt lat="46.85436" lon="-0.89195">
        <ele>229</ele>
        <time>2026-04-26T18:54:37.460Z</time>
      </trkpt>
      <trkpt lat="46.85442" lon="-0.89171">
        <ele>230</ele>
        <time>2026-04-26T18:54:42.851Z</time>
      </trkpt>
      <trkpt lat="46.85444" lon="-0.89118">
        <ele>230</ele>
        <time>2026-04-26T18:54:48.697Z</time>
      </trkpt>
      <trkpt lat="46.85442" lon="-0.89045">
        <ele>231</ele>
        <time>2026-04-26T18:54:58.555Z</time>
      </trkpt>
      <trkpt lat="46.85463" lon="-0.89038">
        <ele>231.7</ele>
        <time>2026-04-26T18:55:03.427Z</time>
      </trkpt>
      <trkpt lat="46.85486" lon="-0.89029">
        <ele>232</ele>
        <time>2026-04-26T18:55:07.748Z</time>
      </trkpt>
      <trkpt lat="46.85507" lon="-0.8902">
        <ele>232</ele>
        <time>2026-04-26T18:55:11.398Z</time>
      </trkpt>
      <trkpt lat="46.8554" lon="-0.89023">
        <ele>231.9</ele>
        <time>2026-04-26T18:55:16.440Z</time>
      </trkpt>
      <trkpt lat="46.85574" lon="-0.89027">
        <ele>232</ele>
        <time>2026-04-26T18:55:22.134Z</time>
      </trkpt>
      <trkpt lat="46.85601" lon="-0.89029">
        <ele>232.1</ele>
        <time>2026-04-26T18:55:26.644Z</time>
      </trkpt>
      <trkpt lat="46.85615" lon="-0.89017">
        <ele>231.5</ele>
        <time>2026-04-26T18:55:28.606Z</time>
      </trkpt>
      <trkpt lat="46.85604" lon="-0.89001">
        <ele>231</ele>
        <time>2026-04-26T18:55:30.431Z</time>
      </trkpt>
      <trkpt lat="46.85597" lon="-0.88974">
        <ele>230.1</ele>
        <time>2026-04-26T18:55:32.663Z</time>
      </trkpt>
      <trkpt lat="46.85593" lon="-0.88947">
        <ele>230.3</ele>
        <time>2026-04-26T18:55:36.061Z</time>
      </trkpt>
      <trkpt lat="46.8558" lon="-0.88916">
        <ele>231</ele>
        <time>2026-04-26T18:55:41.437Z</time>
      </trkpt>
      <trkpt lat="46.85551" lon="-0.8887">
        <ele>232.7</ele>
        <time>2026-04-26T18:55:52.037Z</time>
      </trkpt>
      <trkpt lat="46.85526" lon="-0.88826">
        <ele>235.3</ele>
        <time>2026-04-26T18:56:05.672Z</time>
      </trkpt>
      <trkpt lat="46.85509" lon="-0.8878">
        <ele>237.2</ele>
        <time>2026-04-26T18:56:16.175Z</time>
      </trkpt>
      <trkpt lat="46.85493" lon="-0.88699">
        <ele>240.6</ele>
        <time>2026-04-26T18:56:34.374Z</time>
      </trkpt>
      <trkpt lat="46.85495" lon="-0.88616">
        <ele>244.4</ele>
        <time>2026-04-26T18:56:54.301Z</time>
      </trkpt>
      <trkpt lat="46.85493" lon="-0.88504">
        <ele>246.7</ele>
        <time>2026-04-26T18:57:11.226Z</time>
      </trkpt>
      <trkpt lat="46.85493" lon="-0.88417">
        <ele>248</ele>
        <time>2026-04-26T18:57:23.163Z</time>
      </trkpt>
      <trkpt lat="46.85491" lon="-0.88384">
        <ele>248</ele>
        <time>2026-04-26T18:57:26.812Z</time>
      </trkpt>
      <trkpt lat="46.8547" lon="-0.88251">
        <ele>252</ele>
        <time>2026-04-26T18:57:50.793Z</time>
      </trkpt>
      <trkpt lat="46.85454" lon="-0.8818">
        <ele>254</ele>
        <time>2026-04-26T18:58:03.343Z</time>
      </trkpt>
      <trkpt lat="46.85442" lon="-0.88141">
        <ele>255</ele>
        <time>2026-04-26T18:58:10.114Z</time>
      </trkpt>
      <trkpt lat="46.85432" lon="-0.88089">
        <ele>256.8</ele>
        <time>2026-04-26T18:58:20.359Z</time>
      </trkpt>
      <trkpt lat="46.85428" lon="-0.88037">
        <ele>257</ele>
        <time>2026-04-26T18:58:26.400Z</time>
      </trkpt>
      <trkpt lat="46.85427" lon="-0.87966">
        <ele>259</ele>
        <time>2026-04-26T18:58:38.624Z</time>
      </trkpt>
      <trkpt lat="46.85434" lon="-0.87684">
        <ele>257.3</ele>
        <time>2026-04-26T18:59:07.241Z</time>
      </trkpt>
      <trkpt lat="46.85431" lon="-0.87649">
        <ele>255.6</ele>
        <time>2026-04-26T18:59:09.567Z</time>
      </trkpt>
      <trkpt lat="46.85425" lon="-0.87559">
        <ele>253</ele>
        <time>2026-04-26T18:59:16.631Z</time>
      </trkpt>
      <trkpt lat="46.85425" lon="-0.87364">
        <ele>252</ele>
        <time>2026-04-26T18:59:36.665Z</time>
      </trkpt>
      <trkpt lat="46.85439" lon="-0.87248">
        <ele>248</ele>
        <time>2026-04-26T18:59:45.346Z</time>
      </trkpt>
      <trkpt lat="46.85439" lon="-0.87249">
        <ele>248</ele>
        <time>2026-04-26T18:59:45.456Z</time>
      </trkpt>
      <trkpt lat="46.85454" lon="-0.87069">
        <ele>247</ele>
        <time>2026-04-26T19:00:03.991Z</time>
      </trkpt>
      <trkpt lat="46.85467" lon="-0.8696">
        <ele>244</ele>
        <time>2026-04-26T19:00:12.740Z</time>
      </trkpt>
      <trkpt lat="46.85476" lon="-0.86856">
        <ele>241</ele>
        <time>2026-04-26T19:00:20.899Z</time>
      </trkpt>
      <trkpt lat="46.8548" lon="-0.868">
        <ele>239</ele>
        <time>2026-04-26T19:00:24.985Z</time>
      </trkpt>
      <trkpt lat="46.85476" lon="-0.86752">
        <ele>238</ele>
        <time>2026-04-26T19:00:29.090Z</time>
      </trkpt>
      <trkpt lat="46.8547" lon="-0.86694">
        <ele>237</ele>
        <time>2026-04-26T19:00:34.282Z</time>
      </trkpt>
      <trkpt lat="46.85478" lon="-0.86465">
        <ele>233</ele>
        <time>2026-04-26T19:00:54.485Z</time>
      </trkpt>
      <trkpt lat="46.85482" lon="-0.86405">
        <ele>233.2</ele>
        <time>2026-04-26T19:01:01.495Z</time>
      </trkpt>
      <trkpt lat="46.85479" lon="-0.86334">
        <ele>229</ele>
        <time>2026-04-26T19:01:06.158Z</time>
      </trkpt>
      <trkpt lat="46.85475" lon="-0.86287">
        <ele>227</ele>
        <time>2026-04-26T19:01:09.384Z</time>
      </trkpt>
      <trkpt lat="46.8546" lon="-0.86194">
        <ele>225</ele>
        <time>2026-04-26T19:01:17.471Z</time>
      </trkpt>
      <trkpt lat="46.85412" lon="-0.85927">
        <ele>222</ele>
        <time>2026-04-26T19:01:43.814Z</time>
      </trkpt>
      <trkpt lat="46.85403" lon="-0.85887">
        <ele>221</ele>
        <time>2026-04-26T19:01:47.268Z</time>
      </trkpt>
      <trkpt lat="46.85392" lon="-0.85852">
        <ele>220</ele>
        <time>2026-04-26T19:01:50.352Z</time>
      </trkpt>
      <trkpt lat="46.85376" lon="-0.85808">
        <ele>218</ele>
        <time>2026-04-26T19:01:53.813Z</time>
      </trkpt>
      <trkpt lat="46.85306" lon="-0.85637">
        <ele>211</ele>
        <time>2026-04-26T19:02:08.333Z</time>
      </trkpt>
      <trkpt lat="46.85222" lon="-0.85421">
        <ele>203</ele>
        <time>2026-04-26T19:02:26.973Z</time>
      </trkpt>
      <trkpt lat="46.85202" lon="-0.85363">
        <ele>202</ele>
        <time>2026-04-26T19:02:32.838Z</time>
      </trkpt>
      <trkpt lat="46.85175" lon="-0.85251">
        <ele>202</ele>
        <time>2026-04-26T19:02:45.918Z</time>
      </trkpt>
      <trkpt lat="46.85167" lon="-0.85203">
        <ele>200</ele>
        <time>2026-04-26T19:02:49.338Z</time>
      </trkpt>
      <trkpt lat="46.85163" lon="-0.84989">
        <ele>197</ele>
        <time>2026-04-26T19:03:08.990Z</time>
      </trkpt>
      <trkpt lat="46.85178" lon="-0.84946">
        <ele>197.8</ele>
        <time>2026-04-26T19:03:15.849Z</time>
      </trkpt>
      <trkpt lat="46.85207" lon="-0.84861">
        <ele>196</ele>
        <time>2026-04-26T19:03:24.035Z</time>
      </trkpt>
      <trkpt lat="46.8521" lon="-0.84816">
        <ele>196</ele>
        <time>2026-04-26T19:03:29.015Z</time>
      </trkpt>
      <trkpt lat="46.8521" lon="-0.84552">
        <ele>195</ele>
        <time>2026-04-26T19:03:56.628Z</time>
      </trkpt>
      <trkpt lat="46.85208" lon="-0.84517">
        <ele>196</ele>
        <time>2026-04-26T19:04:02.707Z</time>
      </trkpt>
      <trkpt lat="46.85193" lon="-0.84468">
        <ele>196</ele>
        <time>2026-04-26T19:04:08.621Z</time>
      </trkpt>
      <trkpt lat="46.85179" lon="-0.84439">
        <ele>196</ele>
        <time>2026-04-26T19:04:12.531Z</time>
      </trkpt>
      <trkpt lat="46.85162" lon="-0.84412">
        <ele>196</ele>
        <time>2026-04-26T19:04:16.573Z</time>
      </trkpt>
      <trkpt lat="46.85146" lon="-0.84392">
        <ele>195</ele>
        <time>2026-04-26T19:04:18.875Z</time>
      </trkpt>
      <trkpt lat="46.85085" lon="-0.84335">
        <ele>192</ele>
        <time>2026-04-26T19:04:27.138Z</time>
      </trkpt>
      <trkpt lat="46.8499" lon="-0.8426">
        <ele>190</ele>
        <time>2026-04-26T19:04:41.870Z</time>
      </trkpt>
      <trkpt lat="46.84854" lon="-0.84134">
        <ele>186</ele>
        <time>2026-04-26T19:05:02.724Z</time>
      </trkpt>
      <trkpt lat="46.84827" lon="-0.84102">
        <ele>187</ele>
        <time>2026-04-26T19:05:10.253Z</time>
      </trkpt>
      <trkpt lat="46.84822" lon="-0.84088">
        <ele>186</ele>
        <time>2026-04-26T19:05:11.308Z</time>
      </trkpt>
      <trkpt lat="46.84796" lon="-0.84034">
        <ele>184</ele>
        <time>2026-04-26T19:05:16.360Z</time>
      </trkpt>
      <trkpt lat="46.84762" lon="-0.83951">
        <ele>182</ele>
        <time>2026-04-26T19:05:24.574Z</time>
      </trkpt>
      <trkpt lat="46.84732" lon="-0.83873">
        <ele>181</ele>
        <time>2026-04-26T19:05:33.081Z</time>
      </trkpt>
      <trkpt lat="46.84725" lon="-0.83845">
        <ele>181</ele>
        <time>2026-04-26T19:05:36.365Z</time>
      </trkpt>
      <trkpt lat="46.84717" lon="-0.83801">
        <ele>181</ele>
        <time>2026-04-26T19:05:41.381Z</time>
      </trkpt>
      <trkpt lat="46.84702" lon="-0.83744">
        <ele>180</ele>
        <time>2026-04-26T19:05:46.831Z</time>
      </trkpt>
      <trkpt lat="46.84686" lon="-0.83696">
        <ele>177</ele>
        <time>2026-04-26T19:05:50.360Z</time>
      </trkpt>
      <trkpt lat="46.84653" lon="-0.8363">
        <ele>173</ele>
        <time>2026-04-26T19:05:55.764Z</time>
      </trkpt>
      <trkpt lat="46.84625" lon="-0.83567">
        <ele>169</ele>
        <time>2026-04-26T19:06:00.730Z</time>
      </trkpt>
      <trkpt lat="46.84617" lon="-0.83554">
        <ele>169.4</ele>
        <time>2026-04-26T19:06:03.501Z</time>
      </trkpt>
      <trkpt lat="46.84617" lon="-0.8353">
        <ele>169.2</ele>
        <time>2026-04-26T19:06:05.815Z</time>
      </trkpt>
      <trkpt lat="46.8461" lon="-0.83507">
        <ele>168</ele>
        <time>2026-04-26T19:06:07.461Z</time>
      </trkpt>
      <trkpt lat="46.84602" lon="-0.83474">
        <ele>168</ele>
        <time>2026-04-26T19:06:11.318Z</time>
      </trkpt>
      <trkpt lat="46.84581" lon="-0.83424">
        <ele>170</ele>
        <time>2026-04-26T19:06:22.570Z</time>
      </trkpt>
      <trkpt lat="46.84583" lon="-0.83412">
        <ele>170</ele>
        <time>2026-04-26T19:06:23.930Z</time>
      </trkpt>
      <trkpt lat="46.84641" lon="-0.83377">
        <ele>169</ele>
        <time>2026-04-26T19:06:32.682Z</time>
      </trkpt>
      <trkpt lat="46.84666" lon="-0.83352">
        <ele>169</ele>
        <time>2026-04-26T19:06:37.560Z</time>
      </trkpt>
      <trkpt lat="46.84685" lon="-0.83318">
        <ele>167</ele>
        <time>2026-04-26T19:06:40.464Z</time>
      </trkpt>
      <trkpt lat="46.84695" lon="-0.83306">
        <ele>166</ele>
        <time>2026-04-26T19:06:41.715Z</time>
      </trkpt>
      <trkpt lat="46.84713" lon="-0.83294">
        <ele>165</ele>
        <time>2026-04-26T19:06:43.834Z</time>
      </trkpt>
      <trkpt lat="46.84749" lon="-0.83278">
        <ele>161</ele>
        <time>2026-04-26T19:06:47.470Z</time>
      </trkpt>
      <trkpt lat="46.84811" lon="-0.83239">
        <ele>160</ele>
        <time>2026-04-26T19:06:56.975Z</time>
      </trkpt>
      <trkpt lat="46.84826" lon="-0.83224">
        <ele>160</ele>
        <time>2026-04-26T19:06:59.902Z</time>
      </trkpt>
      <trkpt lat="46.84835" lon="-0.83185">
        <ele>159</ele>
        <time>2026-04-26T19:07:03.258Z</time>
      </trkpt>
      <trkpt lat="46.84839" lon="-0.83151">
        <ele>157.3</ele>
        <time>2026-04-26T19:07:05.564Z</time>
      </trkpt>
      <trkpt lat="46.84838" lon="-0.83041">
        <ele>155.8</ele>
        <time>2026-04-26T19:07:15.629Z</time>
      </trkpt>
      <trkpt lat="46.84847" lon="-0.82994">
        <ele>155.4</ele>
        <time>2026-04-26T19:07:20.443Z</time>
      </trkpt>
      <trkpt lat="46.84868" lon="-0.82925">
        <ele>155.7</ele>
        <time>2026-04-26T19:07:29.308Z</time>
      </trkpt>
      <trkpt lat="46.84877" lon="-0.82894">
        <ele>155.7</ele>
        <time>2026-04-26T19:07:32.974Z</time>
      </trkpt>
      <trkpt lat="46.84896" lon="-0.82793">
        <ele>155.3</ele>
        <time>2026-04-26T19:07:44.004Z</time>
      </trkpt>
      <trkpt lat="46.84953" lon="-0.82604">
        <ele>154.3</ele>
        <time>2026-04-26T19:08:05.228Z</time>
      </trkpt>
      <trkpt lat="46.85022" lon="-0.82478">
        <ele>153</ele>
        <time>2026-04-26T19:08:21.193Z</time>
      </trkpt>
      <trkpt lat="46.85018" lon="-0.82465">
        <ele>153</ele>
        <time>2026-04-26T19:08:22.764Z</time>
      </trkpt>
      <trkpt lat="46.85018" lon="-0.82459">
        <ele>153</ele>
        <time>2026-04-26T19:08:23.425Z</time>
      </trkpt>
      <trkpt lat="46.85021" lon="-0.82452">
        <ele>153</ele>
        <time>2026-04-26T19:08:24.334Z</time>
      </trkpt>
      <trkpt lat="46.85023" lon="-0.82449">
        <ele>153</ele>
        <time>2026-04-26T19:08:24.796Z</time>
      </trkpt>
      <trkpt lat="46.85032" lon="-0.82445">
        <ele>153</ele>
        <time>2026-04-26T19:08:26.311Z</time>
      </trkpt>
      <trkpt lat="46.85037" lon="-0.82447">
        <ele>153</ele>
        <time>2026-04-26T19:08:27.146Z</time>
      </trkpt>
      <trkpt lat="46.85238" lon="-0.82064">
        <ele>152</ele>
        <time>2026-04-26T19:09:18.827Z</time>
      </trkpt>
      <trkpt lat="46.85273" lon="-0.81966">
        <ele>158</ele>
        <time>2026-04-26T19:09:50.262Z</time>
      </trkpt>
      <trkpt lat="46.85273" lon="-0.8186">
        <ele>158</ele>
        <time>2026-04-26T19:10:01.938Z</time>
      </trkpt>
      <trkpt lat="46.85281" lon="-0.81813">
        <ele>158</ele>
        <time>2026-04-26T19:10:07.272Z</time>
      </trkpt>
      <trkpt lat="46.85315" lon="-0.81697">
        <ele>158.7</ele>
        <time>2026-04-26T19:10:22.276Z</time>
      </trkpt>
      <trkpt lat="46.85346" lon="-0.81572">
        <ele>157</ele>
        <time>2026-04-26T19:10:34.704Z</time>
      </trkpt>
      <trkpt lat="46.85357" lon="-0.81546">
        <ele>157</ele>
        <time>2026-04-26T19:10:38.071Z</time>
      </trkpt>
      <trkpt lat="46.8538" lon="-0.81511">
        <ele>156</ele>
        <time>2026-04-26T19:10:42.195Z</time>
      </trkpt>
      <trkpt lat="46.8545" lon="-0.81442">
        <ele>156</ele>
        <time>2026-04-26T19:10:55.791Z</time>
      </trkpt>
      <trkpt lat="46.85582" lon="-0.81298">
        <ele>152</ele>
        <time>2026-04-26T19:11:17.219Z</time>
      </trkpt>
      <trkpt lat="46.85736" lon="-0.81177">
        <ele>153</ele>
        <time>2026-04-26T19:11:46.980Z</time>
      </trkpt>
      <trkpt lat="46.85768" lon="-0.81136">
        <ele>153</ele>
        <time>2026-04-26T19:11:53.832Z</time>
      </trkpt>
      <trkpt lat="46.8583" lon="-0.81054">
        <ele>154</ele>
        <time>2026-04-26T19:12:08.986Z</time>
      </trkpt>
      <trkpt lat="46.85877" lon="-0.80989">
        <ele>153</ele>
        <time>2026-04-26T19:12:18.046Z</time>
      </trkpt>
      <trkpt lat="46.85911" lon="-0.80925">
        <ele>154</ele>
        <time>2026-04-26T19:12:28.752Z</time>
      </trkpt>
      <trkpt lat="46.85935" lon="-0.80856">
        <ele>154</ele>
        <time>2026-04-26T19:12:37.278Z</time>
      </trkpt>
      <trkpt lat="46.85997" lon="-0.80702">
        <ele>150</ele>
        <time>2026-04-26T19:12:52.156Z</time>
      </trkpt>
      <trkpt lat="46.86059" lon="-0.80575">
        <ele>148</ele>
        <time>2026-04-26T19:13:06.689Z</time>
      </trkpt>
      <trkpt lat="46.86091" lon="-0.80528">
        <ele>148</ele>
        <time>2026-04-26T19:13:13.993Z</time>
      </trkpt>
      <trkpt lat="46.86122" lon="-0.80487">
        <ele>147</ele>
        <time>2026-04-26T19:13:19.447Z</time>
      </trkpt>
      <trkpt lat="46.86144" lon="-0.80462">
        <ele>146</ele>
        <time>2026-04-26T19:13:22.760Z</time>
      </trkpt>
      <trkpt lat="46.86268" lon="-0.80335">
        <ele>141</ele>
        <time>2026-04-26T19:13:41.150Z</time>
      </trkpt>
      <trkpt lat="46.86349" lon="-0.80283">
        <ele>141</ele>
        <time>2026-04-26T19:13:55.397Z</time>
      </trkpt>
      <trkpt lat="46.86535" lon="-0.8012">
        <ele>138</ele>
        <time>2026-04-26T19:14:26.193Z</time>
      </trkpt>
      <trkpt lat="46.86534" lon="-0.8012">
        <ele>138</ele>
        <time>2026-04-26T19:14:26.354Z</time>
      </trkpt>
      <trkpt lat="46.86579" lon="-0.80082">
        <ele>139</ele>
        <time>2026-04-26T19:14:36.523Z</time>
      </trkpt>
      <trkpt lat="46.86607" lon="-0.80047">
        <ele>140</ele>
        <time>2026-04-26T19:14:44.386Z</time>
      </trkpt>
      <trkpt lat="46.86651" lon="-0.79944">
        <ele>143</ele>
        <time>2026-04-26T19:15:04.054Z</time>
      </trkpt>
      <trkpt lat="46.86671" lon="-0.79874">
        <ele>144</ele>
        <time>2026-04-26T19:15:14.208Z</time>
      </trkpt>
      <trkpt lat="46.8674" lon="-0.7991">
        <ele>143</ele>
        <time>2026-04-26T19:15:24.630Z</time>
      </trkpt>
      <trkpt lat="46.86788" lon="-0.79938">
        <ele>143</ele>
        <time>2026-04-26T19:15:32.953Z</time>
      </trkpt>
      <trkpt lat="46.86898" lon="-0.79992">
        <ele>142</ele>
        <time>2026-04-26T19:15:50.209Z</time>
      </trkpt>
      <trkpt lat="46.86935" lon="-0.80003">
        <ele>141</ele>
        <time>2026-04-26T19:15:55.036Z</time>
      </trkpt>
      <trkpt lat="46.86957" lon="-0.80007">
        <ele>142</ele>
        <time>2026-04-26T19:16:00.893Z</time>
      </trkpt>
      <trkpt lat="46.8699" lon="-0.80002">
        <ele>143</ele>
        <time>2026-04-26T19:16:08.221Z</time>
      </trkpt>
      <trkpt lat="46.87118" lon="-0.79954">
        <ele>144</ele>
        <time>2026-04-26T19:16:31.132Z</time>
      </trkpt>
      <trkpt lat="46.87165" lon="-0.79933">
        <ele>144</ele>
        <time>2026-04-26T19:16:39.047Z</time>
      </trkpt>
      <trkpt lat="46.87192" lon="-0.79913">
        <ele>144</ele>
        <time>2026-04-26T19:16:43.921Z</time>
      </trkpt>
      <trkpt lat="46.87284" lon="-0.7985">
        <ele>147</ele>
        <time>2026-04-26T19:17:06.202Z</time>
      </trkpt>
      <trkpt lat="46.8731" lon="-0.79813">
        <ele>148</ele>
        <time>2026-04-26T19:17:13.983Z</time>
      </trkpt>
      <trkpt lat="46.87324" lon="-0.79787">
        <ele>149</ele>
        <time>2026-04-26T19:17:19.893Z</time>
      </trkpt>
      <trkpt lat="46.87354" lon="-0.79722">
        <ele>150</ele>
        <time>2026-04-26T19:17:30.318Z</time>
      </trkpt>
      <trkpt lat="46.87376" lon="-0.79694">
        <ele>151</ele>
        <time>2026-04-26T19:17:37.077Z</time>
      </trkpt>
      <trkpt lat="46.87375" lon="-0.79694">
        <ele>151</ele>
        <time>2026-04-26T19:17:37.238Z</time>
      </trkpt>
      <trkpt lat="46.87542" lon="-0.79506">
        <ele>154</ele>
        <time>2026-04-26T19:18:16.347Z</time>
      </trkpt>
      <trkpt lat="46.87567" lon="-0.79485">
        <ele>155</ele>
        <time>2026-04-26T19:18:23.060Z</time>
      </trkpt>
      <trkpt lat="46.87585" lon="-0.79472">
        <ele>155</ele>
        <time>2026-04-26T19:18:26.293Z</time>
      </trkpt>
      <trkpt lat="46.87584" lon="-0.79465">
        <ele>156</ele>
        <time>2026-04-26T19:18:29.668Z</time>
      </trkpt>
      <trkpt lat="46.87588" lon="-0.7945">
        <ele>156</ele>
        <time>2026-04-26T19:18:31.440Z</time>
      </trkpt>
      <trkpt lat="46.87596" lon="-0.79444">
        <ele>156</ele>
        <time>2026-04-26T19:18:32.888Z</time>
      </trkpt>
      <trkpt lat="46.87608" lon="-0.7945">
        <ele>156</ele>
        <time>2026-04-26T19:18:34.931Z</time>
      </trkpt>
      <trkpt lat="46.87612" lon="-0.79467">
        <ele>155</ele>
        <time>2026-04-26T19:18:36.118Z</time>
      </trkpt>
      <trkpt lat="46.87633" lon="-0.7946">
        <ele>155</ele>
        <time>2026-04-26T19:18:39.587Z</time>
      </trkpt>
      <trkpt lat="46.87729" lon="-0.79454">
        <ele>156</ele>
        <time>2026-04-26T19:18:56.731Z</time>
      </trkpt>
      <trkpt lat="46.87819" lon="-0.7947">
        <ele>157</ele>
        <time>2026-04-26T19:19:13.010Z</time>
      </trkpt>
      <trkpt lat="46.87884" lon="-0.79472">
        <ele>157</ele>
        <time>2026-04-26T19:19:23.481Z</time>
      </trkpt>
      <trkpt lat="46.88022" lon="-0.79447">
        <ele>155</ele>
        <time>2026-04-26T19:19:43.138Z</time>
      </trkpt>
      <trkpt lat="46.88108" lon="-0.79446">
        <ele>153</ele>
        <time>2026-04-26T19:19:54.422Z</time>
      </trkpt>
      <trkpt lat="46.88407" lon="-0.79456">
        <ele>147</ele>
        <time>2026-04-26T19:20:34.710Z</time>
      </trkpt>
      <trkpt lat="46.88439" lon="-0.79445">
        <ele>146</ele>
        <time>2026-04-26T19:20:38.784Z</time>
      </trkpt>
      <trkpt lat="46.88482" lon="-0.79422">
        <ele>145</ele>
        <time>2026-04-26T19:20:44.861Z</time>
      </trkpt>
      <trkpt lat="46.88631" lon="-0.79331">
        <ele>150</ele>
        <time>2026-04-26T19:21:20.863Z</time>
      </trkpt>
      <trkpt lat="46.88685" lon="-0.79316">
        <ele>153</ele>
        <time>2026-04-26T19:21:37.243Z</time>
      </trkpt>
      <trkpt lat="46.88719" lon="-0.79316">
        <ele>154</ele>
        <time>2026-04-26T19:21:44.691Z</time>
      </trkpt>
      <trkpt lat="46.88781" lon="-0.79322">
        <ele>157</ele>
        <time>2026-04-26T19:22:01.772Z</time>
      </trkpt>
      <trkpt lat="46.88959" lon="-0.79349">
        <ele>163</ele>
        <time>2026-04-26T19:22:42.880Z</time>
      </trkpt>
      <trkpt lat="46.89056" lon="-0.79361">
        <ele>169</ele>
        <time>2026-04-26T19:23:14.713Z</time>
      </trkpt>
      <trkpt lat="46.89073" lon="-0.79358">
        <ele>170</ele>
        <time>2026-04-26T19:23:20.077Z</time>
      </trkpt>
      <trkpt lat="46.89207" lon="-0.79315">
        <ele>177</ele>
        <time>2026-04-26T19:23:59.129Z</time>
      </trkpt>
      <trkpt lat="46.89296" lon="-0.79303">
        <ele>179</ele>
        <time>2026-04-26T19:24:17.224Z</time>
      </trkpt>
      <trkpt lat="46.89368" lon="-0.79296">
        <ele>182</ele>
        <time>2026-04-26T19:24:35.474Z</time>
      </trkpt>
      <trkpt lat="46.894" lon="-0.79291">
        <ele>183</ele>
        <time>2026-04-26T19:24:42.659Z</time>
      </trkpt>
      <trkpt lat="46.89399" lon="-0.79291">
        <ele>183</ele>
        <time>2026-04-26T19:24:42.820Z</time>
      </trkpt>
      <trkpt lat="46.8952" lon="-0.79272">
        <ele>185</ele>
        <time>2026-04-26T19:25:05.932Z</time>
      </trkpt>
      <trkpt lat="46.89614" lon="-0.79261">
        <ele>189</ele>
        <time>2026-04-26T19:25:30.030Z</time>
      </trkpt>
      <trkpt lat="46.8974" lon="-0.79234">
        <ele>190</ele>
        <time>2026-04-26T19:25:52.173Z</time>
      </trkpt>
      <trkpt lat="46.89757" lon="-0.79226">
        <ele>190</ele>
        <time>2026-04-26T19:25:55.049Z</time>
      </trkpt>
      <trkpt lat="46.89856" lon="-0.79138">
        <ele>192</ele>
        <time>2026-04-26T19:26:17.242Z</time>
      </trkpt>
      <trkpt lat="46.89895" lon="-0.79093">
        <ele>194</ele>
        <time>2026-04-26T19:26:29.605Z</time>
      </trkpt>
      <trkpt lat="46.89921" lon="-0.79055">
        <ele>195</ele>
        <time>2026-04-26T19:26:37.455Z</time>
      </trkpt>
      <trkpt lat="46.89975" lon="-0.78959">
        <ele>196</ele>
        <time>2026-04-26T19:26:52.827Z</time>
      </trkpt>
      <trkpt lat="46.9013" lon="-0.78695">
        <ele>197</ele>
        <time>2026-04-26T19:27:32.716Z</time>
      </trkpt>
      <trkpt lat="46.90227" lon="-0.78535">
        <ele>197</ele>
        <time>2026-04-26T19:27:56.255Z</time>
      </trkpt>
      <trkpt lat="46.90307" lon="-0.78396">
        <ele>201</ele>
        <time>2026-04-26T19:28:24.345Z</time>
      </trkpt>
      <trkpt lat="46.9033" lon="-0.78351">
        <ele>203</ele>
        <time>2026-04-26T19:28:35.425Z</time>
      </trkpt>
      <trkpt lat="46.90355" lon="-0.78279">
        <ele>204</ele>
        <time>2026-04-26T19:28:46.095Z</time>
      </trkpt>
      <trkpt lat="46.90372" lon="-0.78235">
        <ele>204</ele>
        <time>2026-04-26T19:28:51.657Z</time>
      </trkpt>
      <trkpt lat="46.9039" lon="-0.78206">
        <ele>204</ele>
        <time>2026-04-26T19:28:55.968Z</time>
      </trkpt>
      <trkpt lat="46.9042" lon="-0.78165">
        <ele>204</ele>
        <time>2026-04-26T19:29:02.579Z</time>
      </trkpt>
      <trkpt lat="46.9045" lon="-0.78136">
        <ele>203</ele>
        <time>2026-04-26T19:29:07.127Z</time>
      </trkpt>
      <trkpt lat="46.90513" lon="-0.78084">
        <ele>201</ele>
        <time>2026-04-26T19:29:16.288Z</time>
      </trkpt>
      <trkpt lat="46.90542" lon="-0.78063">
        <ele>200</ele>
        <time>2026-04-26T19:29:20.283Z</time>
      </trkpt>
      <trkpt lat="46.90599" lon="-0.78028">
        <ele>199</ele>
        <time>2026-04-26T19:29:28.887Z</time>
      </trkpt>
      <trkpt lat="46.90614" lon="-0.78018">
        <ele>198</ele>
        <time>2026-04-26T19:29:30.540Z</time>
      </trkpt>
      <trkpt lat="46.90637" lon="-0.77997">
        <ele>198</ele>
        <time>2026-04-26T19:29:34.906Z</time>
      </trkpt>
      <trkpt lat="46.90704" lon="-0.77912">
        <ele>195</ele>
        <time>2026-04-26T19:29:45.611Z</time>
      </trkpt>
      <trkpt lat="46.90796" lon="-0.77816">
        <ele>191</ele>
        <time>2026-04-26T19:29:59.092Z</time>
      </trkpt>
      <trkpt lat="46.9083" lon="-0.77775">
        <ele>189</ele>
        <time>2026-04-26T19:30:03.981Z</time>
      </trkpt>
      <trkpt lat="46.911" lon="-0.77373">
        <ele>189</ele>
        <time>2026-04-26T19:31:06.009Z</time>
      </trkpt>
      <trkpt lat="46.91108" lon="-0.77356">
        <ele>189</ele>
        <time>2026-04-26T19:31:08.280Z</time>
      </trkpt>
      <trkpt lat="46.91115" lon="-0.77332">
        <ele>189</ele>
        <time>2026-04-26T19:31:11.151Z</time>
      </trkpt>
      <trkpt lat="46.91125" lon="-0.77261">
        <ele>188</ele>
        <time>2026-04-26T19:31:17.815Z</time>
      </trkpt>
      <trkpt lat="46.91126" lon="-0.77188">
        <ele>184</ele>
        <time>2026-04-26T19:31:22.635Z</time>
      </trkpt>
      <trkpt lat="46.91129" lon="-0.77165">
        <ele>183</ele>
        <time>2026-04-26T19:31:24.221Z</time>
      </trkpt>
      <trkpt lat="46.91135" lon="-0.77149">
        <ele>183</ele>
        <time>2026-04-26T19:31:26.229Z</time>
      </trkpt>
      <trkpt lat="46.91144" lon="-0.77132">
        <ele>182</ele>
        <time>2026-04-26T19:31:27.649Z</time>
      </trkpt>
      <trkpt lat="46.91158" lon="-0.77117">
        <ele>181</ele>
        <time>2026-04-26T19:31:29.423Z</time>
      </trkpt>
      <trkpt lat="46.91212" lon="-0.77074">
        <ele>177</ele>
        <time>2026-04-26T19:31:35.423Z</time>
      </trkpt>
      <trkpt lat="46.91229" lon="-0.77055">
        <ele>176</ele>
        <time>2026-04-26T19:31:37.774Z</time>
      </trkpt>
      <trkpt lat="46.91288" lon="-0.76978">
        <ele>174</ele>
        <time>2026-04-26T19:31:47.975Z</time>
      </trkpt>
      <trkpt lat="46.91329" lon="-0.76929">
        <ele>172</ele>
        <time>2026-04-26T19:31:54.179Z</time>
      </trkpt>
      <trkpt lat="46.91419" lon="-0.76836">
        <ele>168</ele>
        <time>2026-04-26T19:32:07.235Z</time>
      </trkpt>
      <trkpt lat="46.91438" lon="-0.76806">
        <ele>168</ele>
        <time>2026-04-26T19:32:11.736Z</time>
      </trkpt>
      <trkpt lat="46.91457" lon="-0.76767">
        <ele>168</ele>
        <time>2026-04-26T19:32:17.006Z</time>
      </trkpt>
      <trkpt lat="46.91472" lon="-0.76724">
        <ele>167</ele>
        <time>2026-04-26T19:32:21.097Z</time>
      </trkpt>
      <trkpt lat="46.9149" lon="-0.76653">
        <ele>165</ele>
        <time>2026-04-26T19:32:27.122Z</time>
      </trkpt>
      <trkpt lat="46.91501" lon="-0.76592">
        <ele>163</ele>
        <time>2026-04-26T19:32:31.871Z</time>
      </trkpt>
      <trkpt lat="46.91519" lon="-0.76547">
        <ele>162</ele>
        <time>2026-04-26T19:32:36.368Z</time>
      </trkpt>
      <trkpt lat="46.91527" lon="-0.76514">
        <ele>161</ele>
        <time>2026-04-26T19:32:39.091Z</time>
      </trkpt>
      <trkpt lat="46.91533" lon="-0.76459">
        <ele>161</ele>
        <time>2026-04-26T19:32:45.219Z</time>
      </trkpt>
      <trkpt lat="46.91539" lon="-0.76428">
        <ele>161</ele>
        <time>2026-04-26T19:32:48.764Z</time>
      </trkpt>
      <trkpt lat="46.91578" lon="-0.76273">
        <ele>156</ele>
        <time>2026-04-26T19:33:01.382Z</time>
      </trkpt>
      <trkpt lat="46.91578" lon="-0.76274">
        <ele>156</ele>
        <time>2026-04-26T19:33:01.492Z</time>
      </trkpt>
      <trkpt lat="46.91539" lon="-0.76428">
        <ele>161</ele>
        <time>2026-04-26T19:33:30.932Z</time>
      </trkpt>
      <trkpt lat="46.91533" lon="-0.76459">
        <ele>161</ele>
        <time>2026-04-26T19:33:34.476Z</time>
      </trkpt>
      <trkpt lat="46.91527" lon="-0.76514">
        <ele>161</ele>
        <time>2026-04-26T19:33:40.604Z</time>
      </trkpt>
      <trkpt lat="46.91519" lon="-0.76547">
        <ele>162</ele>
        <time>2026-04-26T19:33:46.671Z</time>
      </trkpt>
      <trkpt lat="46.91511" lon="-0.76566">
        <ele>162</ele>
        <time>2026-04-26T19:33:49.126Z</time>
      </trkpt>
      <trkpt lat="46.91511" lon="-0.76567">
        <ele>162</ele>
        <time>2026-04-26T19:33:49.236Z</time>
      </trkpt>
      <trkpt lat="46.91519" lon="-0.76547">
        <ele>162</ele>
        <time>2026-04-26T19:33:51.786Z</time>
      </trkpt>
      <trkpt lat="46.91527" lon="-0.76514">
        <ele>161</ele>
        <time>2026-04-26T19:33:54.509Z</time>
      </trkpt>
      <trkpt lat="46.91533" lon="-0.76459">
        <ele>161</ele>
        <time>2026-04-26T19:34:00.637Z</time>
      </trkpt>
      <trkpt lat="46.91539" lon="-0.76428">
        <ele>161</ele>
        <time>2026-04-26T19:34:04.182Z</time>
      </trkpt>
      <trkpt lat="46.9158" lon="-0.76263">
        <ele>155</ele>
        <time>2026-04-26T19:34:17.075Z</time>
      </trkpt>
      <trkpt lat="46.91594" lon="-0.7623">
        <ele>154</ele>
        <time>2026-04-26T19:34:20.187Z</time>
      </trkpt>
      <trkpt lat="46.91616" lon="-0.76186">
        <ele>153</ele>
        <time>2026-04-26T19:34:24.935Z</time>
      </trkpt>
      <trkpt lat="46.91643" lon="-0.76137">
        <ele>151</ele>
        <time>2026-04-26T19:34:29.671Z</time>
      </trkpt>
      <trkpt lat="46.91653" lon="-0.76121">
        <ele>151</ele>
        <time>2026-04-26T19:34:32.057Z</time>
      </trkpt>
      <trkpt lat="46.91704" lon="-0.76062">
        <ele>152</ele>
        <time>2026-04-26T19:34:44.266Z</time>
      </trkpt>
      <trkpt lat="46.91725" lon="-0.76025">
        <ele>153</ele>
        <time>2026-04-26T19:34:51.548Z</time>
      </trkpt>
      <trkpt lat="46.91744" lon="-0.75982">
        <ele>153</ele>
        <time>2026-04-26T19:34:57.182Z</time>
      </trkpt>
      <trkpt lat="46.91768" lon="-0.7592">
        <ele>153</ele>
        <time>2026-04-26T19:35:05.022Z</time>
      </trkpt>
      <trkpt lat="46.91776" lon="-0.75895">
        <ele>153</ele>
        <time>2026-04-26T19:35:08.059Z</time>
      </trkpt>
      <trkpt lat="46.91781" lon="-0.75873">
        <ele>152</ele>
        <time>2026-04-26T19:35:09.623Z</time>
      </trkpt>
      <trkpt lat="46.9179" lon="-0.75815">
        <ele>151</ele>
        <time>2026-04-26T19:35:14.895Z</time>
      </trkpt>
      <trkpt lat="46.91794" lon="-0.75796">
        <ele>151</ele>
        <time>2026-04-26T19:35:17.083Z</time>
      </trkpt>
      <trkpt lat="46.91802" lon="-0.75782">
        <ele>150</ele>
        <time>2026-04-26T19:35:18.288Z</time>
      </trkpt>
      <trkpt lat="46.91811" lon="-0.75772">
        <ele>150</ele>
        <time>2026-04-26T19:35:20.107Z</time>
      </trkpt>
      <trkpt lat="46.91823" lon="-0.75765">
        <ele>150</ele>
        <time>2026-04-26T19:35:22.188Z</time>
      </trkpt>
      <trkpt lat="46.91847" lon="-0.75764">
        <ele>150</ele>
        <time>2026-04-26T19:35:26.055Z</time>
      </trkpt>
      <trkpt lat="46.91878" lon="-0.75767">
        <ele>152</ele>
        <time>2026-04-26T19:35:36.593Z</time>
      </trkpt>
      <trkpt lat="46.91997" lon="-0.7574">
        <ele>152</ele>
        <time>2026-04-26T19:35:55.988Z</time>
      </trkpt>
      <trkpt lat="46.92009" lon="-0.75735">
        <ele>152</ele>
        <time>2026-04-26T19:35:57.998Z</time>
      </trkpt>
      <trkpt lat="46.92024" lon="-0.75724">
        <ele>152</ele>
        <time>2026-04-26T19:36:00.700Z</time>
      </trkpt>
      <trkpt lat="46.92105" lon="-0.75646">
        <ele>149</ele>
        <time>2026-04-26T19:36:12.667Z</time>
      </trkpt>
      <trkpt lat="46.92125" lon="-0.75632">
        <ele>150</ele>
        <time>2026-04-26T19:36:18.524Z</time>
      </trkpt>
      <trkpt lat="46.92149" lon="-0.75623">
        <ele>150</ele>
        <time>2026-04-26T19:36:22.514Z</time>
      </trkpt>
      <trkpt lat="46.92172" lon="-0.75622">
        <ele>150</ele>
        <time>2026-04-26T19:36:26.220Z</time>
      </trkpt>
      <trkpt lat="46.922" lon="-0.75626">
        <ele>150</ele>
        <time>2026-04-26T19:36:30.751Z</time>
      </trkpt>
      <trkpt lat="46.92221" lon="-0.75634">
        <ele>151</ele>
        <time>2026-04-26T19:36:36.554Z</time>
      </trkpt>
      <trkpt lat="46.9224" lon="-0.75648">
        <ele>146.4</ele>
        <time>2026-04-26T19:36:38.625Z</time>
      </trkpt>
      <trkpt lat="46.92291" lon="-0.75689">
        <ele>146.5</ele>
        <time>2026-04-26T19:36:48.045Z</time>
      </trkpt>
      <trkpt lat="46.92355" lon="-0.75744">
        <ele>146.9</ele>
        <time>2026-04-26T19:37:00.765Z</time>
      </trkpt>
      <trkpt lat="46.92429" lon="-0.75806">
        <ele>147.3</ele>
        <time>2026-04-26T19:37:15.157Z</time>
      </trkpt>
      <trkpt lat="46.92472" lon="-0.7584">
        <ele>144.5</ele>
        <time>2026-04-26T19:37:20.172Z</time>
      </trkpt>
      <trkpt lat="46.925" lon="-0.7585">
        <ele>143.2</ele>
        <time>2026-04-26T19:37:23.279Z</time>
      </trkpt>
      <trkpt lat="46.92526" lon="-0.75851">
        <ele>142.7</ele>
        <time>2026-04-26T19:37:26.876Z</time>
      </trkpt>
      <trkpt lat="46.92521" lon="-0.75802">
        <ele>141</ele>
        <time>2026-04-26T19:37:30.543Z</time>
      </trkpt>
      <trkpt lat="46.92516" lon="-0.75772">
        <ele>140.6</ele>
        <time>2026-04-26T19:37:33.395Z</time>
      </trkpt>
      <trkpt lat="46.92508" lon="-0.75747">
        <ele>140.4</ele>
        <time>2026-04-26T19:37:36.113Z</time>
      </trkpt>
      <trkpt lat="46.9249" lon="-0.75628">
        <ele>146</ele>
        <time>2026-04-26T19:38:05.477Z</time>
      </trkpt>
      <trkpt lat="46.9249" lon="-0.75628">
        <ele>146</ele>
        <time>2026-04-26T19:38:05.477Z</time>
      </trkpt>
      <trkpt lat="46.92469" lon="-0.75523">
        <ele>155</ele>
        <time>2026-04-26T19:38:54.773Z</time>
      </trkpt>
      <trkpt lat="46.92471" lon="-0.75469">
        <ele>156</ele>
        <time>2026-04-26T19:39:02.651Z</time>
      </trkpt>
      <trkpt lat="46.92478" lon="-0.75418">
        <ele>155</ele>
        <time>2026-04-26T19:39:07.133Z</time>
      </trkpt>
      <trkpt lat="46.92487" lon="-0.75288">
        <ele>156</ele>
        <time>2026-04-26T19:39:23.186Z</time>
      </trkpt>
      <trkpt lat="46.92489" lon="-0.7524">
        <ele>157</ele>
        <time>2026-04-26T19:39:30.465Z</time>
      </trkpt>
      <trkpt lat="46.92491" lon="-0.75233">
        <ele>157</ele>
        <time>2026-04-26T19:39:31.300Z</time>
      </trkpt>
      <trkpt lat="46.92494" lon="-0.75215">
        <ele>151.8</ele>
        <time>2026-04-26T19:39:32.500Z</time>
      </trkpt>
      <trkpt lat="46.92484" lon="-0.75102">
        <ele>161</ele>
        <time>2026-04-26T19:40:23.096Z</time>
      </trkpt>
      <trkpt lat="46.92478" lon="-0.75064">
        <ele>162</ele>
        <time>2026-04-26T19:40:29.512Z</time>
      </trkpt>
      <trkpt lat="46.92468" lon="-0.75015">
        <ele>164</ele>
        <time>2026-04-26T19:40:40.292Z</time>
      </trkpt>
      <trkpt lat="46.92376" lon="-0.74639">
        <ele>175</ele>
        <time>2026-04-26T19:41:48.240Z</time>
      </trkpt>
      <trkpt lat="46.92346" lon="-0.74505">
        <ele>177</ele>
        <time>2026-04-26T19:42:07.400Z</time>
      </trkpt>
      <trkpt lat="46.92337" lon="-0.7448">
        <ele>177</ele>
        <time>2026-04-26T19:42:10.508Z</time>
      </trkpt>
      <trkpt lat="46.92332" lon="-0.7447">
        <ele>177</ele>
        <time>2026-04-26T19:42:11.872Z</time>
      </trkpt>
      <trkpt lat="46.92327" lon="-0.74467">
        <ele>177</ele>
        <time>2026-04-26T19:42:12.742Z</time>
      </trkpt>
      <trkpt lat="46.92323" lon="-0.74459">
        <ele>177</ele>
        <time>2026-04-26T19:42:13.833Z</time>
      </trkpt>
      <trkpt lat="46.92322" lon="-0.7445">
        <ele>177</ele>
        <time>2026-04-26T19:42:14.836Z</time>
      </trkpt>
      <trkpt lat="46.92325" lon="-0.74439">
        <ele>177</ele>
        <time>2026-04-26T19:42:16.138Z</time>
      </trkpt>
      <trkpt lat="46.92336" lon="-0.74436">
        <ele>179.6</ele>
        <time>2026-04-26T19:42:23.604Z</time>
      </trkpt>
      <trkpt lat="46.92342" lon="-0.74433">
        <ele>179.1</ele>
        <time>2026-04-26T19:42:24.285Z</time>
      </trkpt>
      <trkpt lat="46.92351" lon="-0.74395">
        <ele>177</ele>
        <time>2026-04-26T19:42:26.933Z</time>
      </trkpt>
      <trkpt lat="46.92361" lon="-0.74358">
        <ele>178</ele>
        <time>2026-04-26T19:42:33.421Z</time>
      </trkpt>
      <trkpt lat="46.92374" lon="-0.74324">
        <ele>178</ele>
        <time>2026-04-26T19:42:37.707Z</time>
      </trkpt>
      <trkpt lat="46.92374" lon="-0.74325">
        <ele>178</ele>
        <time>2026-04-26T19:42:37.817Z</time>
      </trkpt>
      <trkpt lat="46.92453" lon="-0.74125">
        <ele>178</ele>
        <time>2026-04-26T19:43:03.231Z</time>
      </trkpt>
      <trkpt lat="46.92618" lon="-0.73721">
        <ele>172</ele>
        <time>2026-04-26T19:43:47.047Z</time>
      </trkpt>
      <trkpt lat="46.92636" lon="-0.73669">
        <ele>172</ele>
        <time>2026-04-26T19:43:53.459Z</time>
      </trkpt>
      <trkpt lat="46.92687" lon="-0.73487">
        <ele>172</ele>
        <time>2026-04-26T19:44:15.098Z</time>
      </trkpt>
      <trkpt lat="46.92821" lon="-0.73024">
        <ele>174</ele>
        <time>2026-04-26T19:45:13.619Z</time>
      </trkpt>
      <trkpt lat="46.92879" lon="-0.72817">
        <ele>178</ele>
        <time>2026-04-26T19:45:45.885Z</time>
      </trkpt>
      <trkpt lat="46.92883" lon="-0.72781">
        <ele>178</ele>
        <time>2026-04-26T19:45:49.897Z</time>
      </trkpt>
      <trkpt lat="46.92875" lon="-0.72759">
        <ele>178</ele>
        <time>2026-04-26T19:45:52.638Z</time>
      </trkpt>
      <trkpt lat="46.92878" lon="-0.72742">
        <ele>178</ele>
        <time>2026-04-26T19:45:54.570Z</time>
      </trkpt>
      <trkpt lat="46.92888" lon="-0.72729">
        <ele>178</ele>
        <time>2026-04-26T19:45:56.723Z</time>
      </trkpt>
      <trkpt lat="46.92898" lon="-0.72727">
        <ele>177</ele>
        <time>2026-04-26T19:45:57.699Z</time>
      </trkpt>
      <trkpt lat="46.92908" lon="-0.72733">
        <ele>177</ele>
        <time>2026-04-26T19:45:59.439Z</time>
      </trkpt>
      <trkpt lat="46.92926" lon="-0.72716">
        <ele>178</ele>
        <time>2026-04-26T19:46:05.211Z</time>
      </trkpt>
      <trkpt lat="46.92941" lon="-0.72692">
        <ele>178</ele>
        <time>2026-04-26T19:46:08.789Z</time>
      </trkpt>
      <trkpt lat="46.92989" lon="-0.72627">
        <ele>180</ele>
        <time>2026-04-26T19:46:23.304Z</time>
      </trkpt>
      <trkpt lat="46.93002" lon="-0.72595">
        <ele>180</ele>
        <time>2026-04-26T19:46:27.399Z</time>
      </trkpt>
      <trkpt lat="46.93003" lon="-0.72571">
        <ele>180</ele>
        <time>2026-04-26T19:46:30.044Z</time>
      </trkpt>
      <trkpt lat="46.93013" lon="-0.72557">
        <ele>180</ele>
        <time>2026-04-26T19:46:32.272Z</time>
      </trkpt>
      <trkpt lat="46.93016" lon="-0.72515">
        <ele>181</ele>
        <time>2026-04-26T19:46:38.986Z</time>
      </trkpt>
      <trkpt lat="46.93011" lon="-0.72438">
        <ele>183</ele>
        <time>2026-04-26T19:46:51.759Z</time>
      </trkpt>
      <trkpt lat="46.9301" lon="-0.72392">
        <ele>184</ele>
        <time>2026-04-26T19:46:58.836Z</time>
      </trkpt>
      <trkpt lat="46.93015" lon="-0.72348">
        <ele>185</ele>
        <time>2026-04-26T19:47:05.776Z</time>
      </trkpt>
      <trkpt lat="46.93038" lon="-0.72259">
        <ele>185</ele>
        <time>2026-04-26T19:47:16.243Z</time>
      </trkpt>
      <trkpt lat="46.93201" lon="-0.71692">
        <ele>185</ele>
        <time>2026-04-26T19:48:23.904Z</time>
      </trkpt>
      <trkpt lat="46.93201" lon="-0.71693">
        <ele>185</ele>
        <time>2026-04-26T19:48:24.014Z</time>
      </trkpt>
      <trkpt lat="46.93256" lon="-0.71502">
        <ele>183</ele>
        <time>2026-04-26T19:48:44.067Z</time>
      </trkpt>
      <trkpt lat="46.9335" lon="-0.71157">
        <ele>185</ele>
        <time>2026-04-26T19:49:28.186Z</time>
      </trkpt>
      <trkpt lat="46.93453" lon="-0.7081">
        <ele>187</ele>
        <time>2026-04-26T19:50:13.060Z</time>
      </trkpt>
      <trkpt lat="46.93526" lon="-0.70552">
        <ele>184</ele>
        <time>2026-04-26T19:50:39.705Z</time>
      </trkpt>
      <trkpt lat="46.93563" lon="-0.70429">
        <ele>184</ele>
        <time>2026-04-26T19:50:54.487Z</time>
      </trkpt>
      <trkpt lat="46.93616" lon="-0.70236">
        <ele>187</ele>
        <time>2026-04-26T19:51:22.852Z</time>
      </trkpt>
      <trkpt lat="46.93814" lon="-0.69543">
        <ele>182</ele>
        <time>2026-04-26T19:52:38.372Z</time>
      </trkpt>
      <trkpt lat="46.93824" lon="-0.69499">
        <ele>181</ele>
        <time>2026-04-26T19:52:42.261Z</time>
      </trkpt>
      <trkpt lat="46.93833" lon="-0.69477">
        <ele>182</ele>
        <time>2026-04-26T19:52:47.654Z</time>
      </trkpt>
      <trkpt lat="46.93868" lon="-0.69357">
        <ele>181</ele>
        <time>2026-04-26T19:53:00.601Z</time>
      </trkpt>
      <trkpt lat="46.93888" lon="-0.69294">
        <ele>180</ele>
        <time>2026-04-26T19:53:06.938Z</time>
      </trkpt>
      <trkpt lat="46.93911" lon="-0.69233">
        <ele>179</ele>
        <time>2026-04-26T19:53:13.296Z</time>
      </trkpt>
      <trkpt lat="46.93927" lon="-0.692">
        <ele>178</ele>
        <time>2026-04-26T19:53:16.574Z</time>
      </trkpt>
      <trkpt lat="46.93933" lon="-0.69189">
        <ele>177</ele>
        <time>2026-04-26T19:53:17.503Z</time>
      </trkpt>
      <trkpt lat="46.9396" lon="-0.69154">
        <ele>176</ele>
        <time>2026-04-26T19:53:22.067Z</time>
      </trkpt>
      <trkpt lat="46.93969" lon="-0.69145">
        <ele>176</ele>
        <time>2026-04-26T19:53:23.822Z</time>
      </trkpt>
      <trkpt lat="46.93994" lon="-0.6913">
        <ele>175</ele>
        <time>2026-04-26T19:53:27.007Z</time>
      </trkpt>
      <trkpt lat="46.94003" lon="-0.6912">
        <ele>175</ele>
        <time>2026-04-26T19:53:28.827Z</time>
      </trkpt>
      <trkpt lat="46.94019" lon="-0.69097">
        <ele>175</ele>
        <time>2026-04-26T19:53:32.437Z</time>
      </trkpt>
      <trkpt lat="46.94026" lon="-0.69077">
        <ele>174</ele>
        <time>2026-04-26T19:53:33.934Z</time>
      </trkpt>
      <trkpt lat="46.94028" lon="-0.69057">
        <ele>174</ele>
        <time>2026-04-26T19:53:36.157Z</time>
      </trkpt>
      <trkpt lat="46.94026" lon="-0.69051">
        <ele>174</ele>
        <time>2026-04-26T19:53:36.891Z</time>
      </trkpt>
      <trkpt lat="46.94027" lon="-0.69042">
        <ele>174</ele>
        <time>2026-04-26T19:53:37.894Z</time>
      </trkpt>
      <trkpt lat="46.94048" lon="-0.69012">
        <ele>174</ele>
        <time>2026-04-26T19:53:42.619Z</time>
      </trkpt>
      <trkpt lat="46.94057" lon="-0.68988">
        <ele>173</ele>
        <time>2026-04-26T19:53:44.582Z</time>
      </trkpt>
      <trkpt lat="46.94067" lon="-0.68939">
        <ele>172</ele>
        <time>2026-04-26T19:53:48.971Z</time>
      </trkpt>
      <trkpt lat="46.9407" lon="-0.68908">
        <ele>171</ele>
        <time>2026-04-26T19:53:51.320Z</time>
      </trkpt>
      <trkpt lat="46.94079" lon="-0.68343">
        <ele>167</ele>
        <time>2026-04-26T19:54:47.818Z</time>
      </trkpt>
      <trkpt lat="46.94079" lon="-0.68282">
        <ele>166</ele>
        <time>2026-04-26T19:54:53.250Z</time>
      </trkpt>
      <trkpt lat="46.94074" lon="-0.68162">
        <ele>166</ele>
        <time>2026-04-26T19:55:06.470Z</time>
      </trkpt>
      <trkpt lat="46.94066" lon="-0.6809">
        <ele>163</ele>
        <time>2026-04-26T19:55:11.479Z</time>
      </trkpt>
      <trkpt lat="46.94051" lon="-0.6798">
        <ele>162</ele>
        <time>2026-04-26T19:55:22.430Z</time>
      </trkpt>
      <trkpt lat="46.93996" lon="-0.67699">
        <ele>163</ele>
        <time>2026-04-26T19:55:56.170Z</time>
      </trkpt>
      <trkpt lat="46.93985" lon="-0.67633">
        <ele>162</ele>
        <time>2026-04-26T19:56:02.341Z</time>
      </trkpt>
      <trkpt lat="46.93886" lon="-0.671">
        <ele>157</ele>
        <time>2026-04-26T19:56:56.176Z</time>
      </trkpt>
      <trkpt lat="46.93867" lon="-0.66982">
        <ele>154</ele>
        <time>2026-04-26T19:57:05.991Z</time>
      </trkpt>
      <trkpt lat="46.93861" lon="-0.66908">
        <ele>153</ele>
        <time>2026-04-26T19:57:12.869Z</time>
      </trkpt>
      <trkpt lat="46.93861" lon="-0.66807">
        <ele>151</ele>
        <time>2026-04-26T19:57:21.511Z</time>
      </trkpt>
      <trkpt lat="46.9387" lon="-0.66689">
        <ele>150</ele>
        <time>2026-04-26T19:57:33.177Z</time>
      </trkpt>
      <trkpt lat="46.93975" lon="-0.65902">
        <ele>150</ele>
        <time>2026-04-26T19:59:01.358Z</time>
      </trkpt>
      <trkpt lat="46.93975" lon="-0.65903">
        <ele>150</ele>
        <time>2026-04-26T19:59:01.468Z</time>
      </trkpt>
      <trkpt lat="46.94024" lon="-0.65529">
        <ele>151</ele>
        <time>2026-04-26T19:59:44.926Z</time>
      </trkpt>
      <trkpt lat="46.94069" lon="-0.65156">
        <ele>150</ele>
        <time>2026-04-26T20:00:25.093Z</time>
      </trkpt>
      <trkpt lat="46.94293" lon="-0.63421">
        <ele>130</ele>
        <time>2026-04-26T20:03:12.306Z</time>
      </trkpt>
      <trkpt lat="46.94427" lon="-0.62348">
        <ele>127</ele>
        <time>2026-04-26T20:05:07.800Z</time>
      </trkpt>
      <trkpt lat="46.9449" lon="-0.61872">
        <ele>128</ele>
        <time>2026-04-26T20:06:02.683Z</time>
      </trkpt>
      <trkpt lat="46.94512" lon="-0.61752">
        <ele>128</ele>
        <time>2026-04-26T20:06:16.345Z</time>
      </trkpt>
      <trkpt lat="46.94542" lon="-0.61619">
        <ele>126</ele>
        <time>2026-04-26T20:06:29.136Z</time>
      </trkpt>
      <trkpt lat="46.94573" lon="-0.61528">
        <ele>124</ele>
        <time>2026-04-26T20:06:37.850Z</time>
      </trkpt>
      <trkpt lat="46.94633" lon="-0.61387">
        <ele>117</ele>
        <time>2026-04-26T20:06:49.152Z</time>
      </trkpt>
      <trkpt lat="46.947" lon="-0.61233">
        <ele>114</ele>
        <time>2026-04-26T20:07:05.402Z</time>
      </trkpt>
      <trkpt lat="46.94836" lon="-0.6094">
        <ele>122</ele>
        <time>2026-04-26T20:08:00.670Z</time>
      </trkpt>
      <trkpt lat="46.94906" lon="-0.60779">
        <ele>128</ele>
        <time>2026-04-26T20:08:35.499Z</time>
      </trkpt>
      <trkpt lat="46.94966" lon="-0.60646">
        <ele>131</ele>
        <time>2026-04-26T20:08:58.842Z</time>
      </trkpt>
      <trkpt lat="46.95013" lon="-0.60532">
        <ele>132</ele>
        <time>2026-04-26T20:09:15.161Z</time>
      </trkpt>
      <trkpt lat="46.95088" lon="-0.60363">
        <ele>136</ele>
        <time>2026-04-26T20:09:45.183Z</time>
      </trkpt>
      <trkpt lat="46.95093" lon="-0.60338">
        <ele>137</ele>
        <time>2026-04-26T20:09:50.598Z</time>
      </trkpt>
      <trkpt lat="46.9509" lon="-0.60327">
        <ele>137</ele>
        <time>2026-04-26T20:09:51.900Z</time>
      </trkpt>
      <trkpt lat="46.95092" lon="-0.60317">
        <ele>137</ele>
        <time>2026-04-26T20:09:53.045Z</time>
      </trkpt>
      <trkpt lat="46.9509" lon="-0.60303">
        <ele>137</ele>
        <time>2026-04-26T20:09:54.618Z</time>
      </trkpt>
      <trkpt lat="46.95086" lon="-0.60292">
        <ele>137</ele>
        <time>2026-04-26T20:09:55.988Z</time>
      </trkpt>
      <trkpt lat="46.95059" lon="-0.60245">
        <ele>136</ele>
        <time>2026-04-26T20:10:01.464Z</time>
      </trkpt>
      <trkpt lat="46.94991" lon="-0.60109">
        <ele>134</ele>
        <time>2026-04-26T20:10:17.319Z</time>
      </trkpt>
      <trkpt lat="46.94967" lon="-0.60057">
        <ele>132</ele>
        <time>2026-04-26T20:10:22.032Z</time>
      </trkpt>
      <trkpt lat="46.9495" lon="-0.60031">
        <ele>131</ele>
        <time>2026-04-26T20:10:24.853Z</time>
      </trkpt>
      <trkpt lat="46.94898" lon="-0.59968">
        <ele>129</ele>
        <time>2026-04-26T20:10:33.267Z</time>
      </trkpt>
      <trkpt lat="46.94871" lon="-0.59939">
        <ele>128</ele>
        <time>2026-04-26T20:10:37.435Z</time>
      </trkpt>
      <trkpt lat="46.94836" lon="-0.59891">
        <ele>126</ele>
        <time>2026-04-26T20:10:42.897Z</time>
      </trkpt>
      <trkpt lat="46.94812" lon="-0.59836">
        <ele>124</ele>
        <time>2026-04-26T20:10:47.860Z</time>
      </trkpt>
      <trkpt lat="46.94793" lon="-0.59782">
        <ele>124</ele>
        <time>2026-04-26T20:10:54.540Z</time>
      </trkpt>
      <trkpt lat="46.94776" lon="-0.59716">
        <ele>125</ele>
        <time>2026-04-26T20:11:04.119Z</time>
      </trkpt>
      <trkpt lat="46.94627" lon="-0.59442">
        <ele>124</ele>
        <time>2026-04-26T20:11:41.154Z</time>
      </trkpt>
      <trkpt lat="46.94623" lon="-0.59446">
        <ele>124</ele>
        <time>2026-04-26T20:11:41.935Z</time>
      </trkpt>
      <trkpt lat="46.94616" lon="-0.59449">
        <ele>124</ele>
        <time>2026-04-26T20:11:43.109Z</time>
      </trkpt>
      <trkpt lat="46.94611" lon="-0.59447">
        <ele>124</ele>
        <time>2026-04-26T20:11:43.944Z</time>
      </trkpt>
      <trkpt lat="46.94607" lon="-0.59444">
        <ele>124</ele>
        <time>2026-04-26T20:11:44.668Z</time>
      </trkpt>
      <trkpt lat="46.94603" lon="-0.59437">
        <ele>124</ele>
        <time>2026-04-26T20:11:45.672Z</time>
      </trkpt>
      <trkpt lat="46.94602" lon="-0.59425">
        <ele>123</ele>
        <time>2026-04-26T20:11:46.469Z</time>
      </trkpt>
      <trkpt lat="46.94597" lon="-0.59426">
        <ele>123</ele>
        <time>2026-04-26T20:11:47.282Z</time>
      </trkpt>
      <trkpt lat="46.94574" lon="-0.59425">
        <ele>123</ele>
        <time>2026-04-26T20:11:50.988Z</time>
      </trkpt>
      <trkpt lat="46.94564" lon="-0.59421">
        <ele>122</ele>
        <time>2026-04-26T20:11:51.990Z</time>
      </trkpt>
      <trkpt lat="46.94551" lon="-0.5941">
        <ele>122</ele>
        <time>2026-04-26T20:11:54.408Z</time>
      </trkpt>
      <trkpt lat="46.94545" lon="-0.59401">
        <ele>121</ele>
        <time>2026-04-26T20:11:55.237Z</time>
      </trkpt>
      <trkpt lat="46.9454" lon="-0.5939">
        <ele>121</ele>
        <time>2026-04-26T20:11:56.691Z</time>
      </trkpt>
      <trkpt lat="46.94534" lon="-0.59364">
        <ele>121</ele>
        <time>2026-04-26T20:11:59.708Z</time>
      </trkpt>
      <trkpt lat="46.94531" lon="-0.59359">
        <ele>120</ele>
        <time>2026-04-26T20:12:00.147Z</time>
      </trkpt>
      <trkpt lat="46.94479" lon="-0.59307">
        <ele>118</ele>
        <time>2026-04-26T20:12:07.871Z</time>
      </trkpt>
      <trkpt lat="46.94459" lon="-0.59292">
        <ele>116</ele>
        <time>2026-04-26T20:12:10.042Z</time>
      </trkpt>
      <trkpt lat="46.94336" lon="-0.59224">
        <ele>111</ele>
        <time>2026-04-26T20:12:25.425Z</time>
      </trkpt>
      <trkpt lat="46.94275" lon="-0.59188">
        <ele>115</ele>
        <time>2026-04-26T20:12:46.700Z</time>
      </trkpt>
      <trkpt lat="46.94237" lon="-0.59171">
        <ele>117</ele>
        <time>2026-04-26T20:12:57.911Z</time>
      </trkpt>
      <trkpt lat="46.94185" lon="-0.59159">
        <ele>119</ele>
        <time>2026-04-26T20:13:10.660Z</time>
      </trkpt>
      <trkpt lat="46.94114" lon="-0.59119">
        <ele>120</ele>
        <time>2026-04-26T20:13:24.619Z</time>
      </trkpt>
      <trkpt lat="46.94084" lon="-0.59108">
        <ele>120</ele>
        <time>2026-04-26T20:13:29.600Z</time>
      </trkpt>
      <trkpt lat="46.94066" lon="-0.59106">
        <ele>120</ele>
        <time>2026-04-26T20:13:32.508Z</time>
      </trkpt>
      <trkpt lat="46.94055" lon="-0.59109">
        <ele>120</ele>
        <time>2026-04-26T20:13:34.310Z</time>
      </trkpt>
      <trkpt lat="46.94045" lon="-0.59114">
        <ele>120</ele>
        <time>2026-04-26T20:13:36.012Z</time>
      </trkpt>
      <trkpt lat="46.94045" lon="-0.59123">
        <ele>120</ele>
        <time>2026-04-26T20:13:37.001Z</time>
      </trkpt>
      <trkpt lat="46.94043" lon="-0.59128">
        <ele>120</ele>
        <time>2026-04-26T20:13:37.639Z</time>
      </trkpt>
      <trkpt lat="46.94034" lon="-0.59133">
        <ele>120</ele>
        <time>2026-04-26T20:13:39.189Z</time>
      </trkpt>
      <trkpt lat="46.94029" lon="-0.59129">
        <ele>120</ele>
        <time>2026-04-26T20:13:40.106Z</time>
      </trkpt>
      <trkpt lat="46.94026" lon="-0.59123">
        <ele>120</ele>
        <time>2026-04-26T20:13:40.924Z</time>
      </trkpt>
      <trkpt lat="46.94026" lon="-0.59115">
        <ele>120</ele>
        <time>2026-04-26T20:13:41.804Z</time>
      </trkpt>
      <trkpt lat="46.94016" lon="-0.59112">
        <ele>119</ele>
        <time>2026-04-26T20:13:42.773Z</time>
      </trkpt>
      <trkpt lat="46.94008" lon="-0.59103">
        <ele>119</ele>
        <time>2026-04-26T20:13:44.449Z</time>
      </trkpt>
      <trkpt lat="46.9395" lon="-0.59091">
        <ele>120</ele>
        <time>2026-04-26T20:13:55.659Z</time>
      </trkpt>
      <trkpt lat="46.93912" lon="-0.59089">
        <ele>120</ele>
        <time>2026-04-26T20:14:01.783Z</time>
      </trkpt>
      <trkpt lat="46.93802" lon="-0.59075">
        <ele>124</ele>
        <time>2026-04-26T20:14:27.966Z</time>
      </trkpt>
      <trkpt lat="46.93742" lon="-0.59072">
        <ele>126</ele>
        <time>2026-04-26T20:14:41.723Z</time>
      </trkpt>
      <trkpt lat="46.93687" lon="-0.59054">
        <ele>126</ele>
        <time>2026-04-26T20:14:50.799Z</time>
      </trkpt>
      <trkpt lat="46.9367" lon="-0.59053">
        <ele>126</ele>
        <time>2026-04-26T20:14:53.540Z</time>
      </trkpt>
      <trkpt lat="46.93621" lon="-0.5907">
        <ele>126</ele>
        <time>2026-04-26T20:15:01.650Z</time>
      </trkpt>
      <trkpt lat="46.93583" lon="-0.59095">
        <ele>125</ele>
        <time>2026-04-26T20:15:07.083Z</time>
      </trkpt>
      <trkpt lat="46.93529" lon="-0.59141">
        <ele>119</ele>
        <time>2026-04-26T20:15:13.120Z</time>
      </trkpt>
      <trkpt lat="46.93367" lon="-0.59304">
        <ele>110</ele>
        <time>2026-04-26T20:15:34.874Z</time>
      </trkpt>
      <trkpt lat="46.93366" lon="-0.59304">
        <ele>110</ele>
        <time>2026-04-26T20:15:35.035Z</time>
      </trkpt>
      <trkpt lat="46.93328" lon="-0.59343">
        <ele>111</ele>
        <time>2026-04-26T20:15:44.345Z</time>
      </trkpt>
      <trkpt lat="46.93155" lon="-0.59481">
        <ele>115</ele>
        <time>2026-04-26T20:16:23.339Z</time>
      </trkpt>
      <trkpt lat="46.93039" lon="-0.59559">
        <ele>113</ele>
        <time>2026-04-26T20:16:41.184Z</time>
      </trkpt>
      <trkpt lat="46.92927" lon="-0.59644">
        <ele>111</ele>
        <time>2026-04-26T20:16:58.792Z</time>
      </trkpt>
      <trkpt lat="46.92833" lon="-0.59721">
        <ele>112</ele>
        <time>2026-04-26T20:17:17.791Z</time>
      </trkpt>
      <trkpt lat="46.92835" lon="-0.59728">
        <ele>112</ele>
        <time>2026-04-26T20:17:18.626Z</time>
      </trkpt>
      <trkpt lat="46.92834" lon="-0.59735">
        <ele>113</ele>
        <time>2026-04-26T20:17:21.997Z</time>
      </trkpt>
      <trkpt lat="46.92829" lon="-0.59748">
        <ele>113</ele>
        <time>2026-04-26T20:17:23.638Z</time>
      </trkpt>
      <trkpt lat="46.92824" lon="-0.59751">
        <ele>113</ele>
        <time>2026-04-26T20:17:24.508Z</time>
      </trkpt>
      <trkpt lat="46.92819" lon="-0.59752">
        <ele>113</ele>
        <time>2026-04-26T20:17:25.321Z</time>
      </trkpt>
      <trkpt lat="46.9281" lon="-0.59747">
        <ele>112</ele>
        <time>2026-04-26T20:17:26.251Z</time>
      </trkpt>
      <trkpt lat="46.92806" lon="-0.5974">
        <ele>112</ele>
        <time>2026-04-26T20:17:27.255Z</time>
      </trkpt>
      <trkpt lat="46.92578" lon="-0.59948">
        <ele>114</ele>
        <time>2026-04-26T20:18:13.776Z</time>
      </trkpt>
      <trkpt lat="46.92502" lon="-0.60024">
        <ele>113</ele>
        <time>2026-04-26T20:18:27.192Z</time>
      </trkpt>
      <trkpt lat="46.92435" lon="-0.60103">
        <ele>111</ele>
        <time>2026-04-26T20:18:38.479Z</time>
      </trkpt>
      <trkpt lat="46.92404" lon="-0.60146">
        <ele>112</ele>
        <time>2026-04-26T20:18:47.224Z</time>
      </trkpt>
      <trkpt lat="46.9239" lon="-0.60168">
        <ele>112</ele>
        <time>2026-04-26T20:18:50.532Z</time>
      </trkpt>
      <trkpt lat="46.9239" lon="-0.60169">
        <ele>112</ele>
        <time>2026-04-26T20:18:50.642Z</time>
      </trkpt>
      <trkpt lat="46.92218" lon="-0.60449">
        <ele>114</ele>
        <time>2026-04-26T20:19:35.331Z</time>
      </trkpt>
      <trkpt lat="46.92156" lon="-0.60553">
        <ele>113</ele>
        <time>2026-04-26T20:19:49.106Z</time>
      </trkpt>
      <trkpt lat="46.92108" lon="-0.60637">
        <ele>114</ele>
        <time>2026-04-26T20:20:02.865Z</time>
      </trkpt>
      <trkpt lat="46.92074" lon="-0.6069">
        <ele>115</ele>
        <time>2026-04-26T20:20:12.677Z</time>
      </trkpt>
      <trkpt lat="46.92026" lon="-0.60749">
        <ele>115</ele>
        <time>2026-04-26T20:20:22.771Z</time>
      </trkpt>
      <trkpt lat="46.91973" lon="-0.60803">
        <ele>117</ele>
        <time>2026-04-26T20:20:37.170Z</time>
      </trkpt>
      <trkpt lat="46.91902" lon="-0.60867">
        <ele>120</ele>
        <time>2026-04-26T20:20:56.884Z</time>
      </trkpt>
      <trkpt lat="46.91871" lon="-0.609">
        <ele>122</ele>
        <time>2026-04-26T20:21:07.958Z</time>
      </trkpt>
      <trkpt lat="46.91776" lon="-0.61011">
        <ele>128</ele>
        <time>2026-04-26T20:21:41.833Z</time>
      </trkpt>
      <trkpt lat="46.91623" lon="-0.61182">
        <ele>136</ele>
        <time>2026-04-26T20:22:30.508Z</time>
      </trkpt>
      <trkpt lat="46.91588" lon="-0.61224">
        <ele>138</ele>
        <time>2026-04-26T20:22:42.329Z</time>
      </trkpt>
      <trkpt lat="46.91566" lon="-0.61256">
        <ele>139</ele>
        <time>2026-04-26T20:22:49.347Z</time>
      </trkpt>
      <trkpt lat="46.91533" lon="-0.61314">
        <ele>141</ele>
        <time>2026-04-26T20:23:01.954Z</time>
      </trkpt>
      <trkpt lat="46.91503" lon="-0.61384">
        <ele>144</ele>
        <time>2026-04-26T20:23:18.467Z</time>
      </trkpt>
      <trkpt lat="46.91451" lon="-0.61514">
        <ele>146</ele>
        <time>2026-04-26T20:23:38.646Z</time>
      </trkpt>
      <trkpt lat="46.9141" lon="-0.61585">
        <ele>147</ele>
        <time>2026-04-26T20:23:50.620Z</time>
      </trkpt>
      <trkpt lat="46.9133" lon="-0.61707">
        <ele>146</ele>
        <time>2026-04-26T20:24:07.795Z</time>
      </trkpt>
      <trkpt lat="46.91306" lon="-0.61735">
        <ele>145</ele>
        <time>2026-04-26T20:24:11.536Z</time>
      </trkpt>
      <trkpt lat="46.91272" lon="-0.61772">
        <ele>144</ele>
        <time>2026-04-26T20:24:17.079Z</time>
      </trkpt>
      <trkpt lat="46.91245" lon="-0.61792">
        <ele>144</ele>
        <time>2026-04-26T20:24:21.953Z</time>
      </trkpt>
      <trkpt lat="46.91215" lon="-0.61809">
        <ele>144</ele>
        <time>2026-04-26T20:24:27.134Z</time>
      </trkpt>
      <trkpt lat="46.91158" lon="-0.6183">
        <ele>146</ele>
        <time>2026-04-26T20:24:40.715Z</time>
      </trkpt>
      <trkpt lat="46.90978" lon="-0.61879">
        <ele>151</ele>
        <time>2026-04-26T20:25:19.872Z</time>
      </trkpt>
      <trkpt lat="46.90944" lon="-0.61892">
        <ele>151</ele>
        <time>2026-04-26T20:25:25.531Z</time>
      </trkpt>
      <trkpt lat="46.90893" lon="-0.61921">
        <ele>151</ele>
        <time>2026-04-26T20:25:34.343Z</time>
      </trkpt>
      <trkpt lat="46.90864" lon="-0.61943">
        <ele>152</ele>
        <time>2026-04-26T20:25:41.597Z</time>
      </trkpt>
      <trkpt lat="46.90842" lon="-0.61962">
        <ele>153</ele>
        <time>2026-04-26T20:25:47.870Z</time>
      </trkpt>
      <trkpt lat="46.90825" lon="-0.6198">
        <ele>153</ele>
        <time>2026-04-26T20:25:51.249Z</time>
      </trkpt>
      <trkpt lat="46.90796" lon="-0.62014">
        <ele>155</ele>
        <time>2026-04-26T20:26:02.215Z</time>
      </trkpt>
      <trkpt lat="46.90766" lon="-0.62058">
        <ele>157</ele>
        <time>2026-04-26T20:26:13.716Z</time>
      </trkpt>
      <trkpt lat="46.90747" lon="-0.62089">
        <ele>158</ele>
        <time>2026-04-26T20:26:20.377Z</time>
      </trkpt>
      <trkpt lat="46.90664" lon="-0.62262">
        <ele>160</ele>
        <time>2026-04-26T20:26:47.073Z</time>
      </trkpt>
      <trkpt lat="46.90609" lon="-0.62365">
        <ele>165</ele>
        <time>2026-04-26T20:27:14.180Z</time>
      </trkpt>
      <trkpt lat="46.90587" lon="-0.62397">
        <ele>166</ele>
        <time>2026-04-26T20:27:21.199Z</time>
      </trkpt>
      <trkpt lat="46.90562" lon="-0.62428">
        <ele>167</ele>
        <time>2026-04-26T20:27:28.467Z</time>
      </trkpt>
      <trkpt lat="46.90492" lon="-0.62502">
        <ele>171</ele>
        <time>2026-04-26T20:27:51.628Z</time>
      </trkpt>
      <trkpt lat="46.90492" lon="-0.62503">
        <ele>171</ele>
        <time>2026-04-26T20:27:51.738Z</time>
      </trkpt>
      <trkpt lat="46.9044" lon="-0.62561">
        <ele>174</ele>
        <time>2026-04-26T20:28:09.178Z</time>
      </trkpt>
      <trkpt lat="46.90253" lon="-0.6279">
        <ele>177</ele>
        <time>2026-04-26T20:28:53.533Z</time>
      </trkpt>
      <trkpt lat="46.90189" lon="-0.62865">
        <ele>176</ele>
        <time>2026-04-26T20:29:05.345Z</time>
      </trkpt>
      <trkpt lat="46.90164" lon="-0.62892">
        <ele>176</ele>
        <time>2026-04-26T20:29:10.349Z</time>
      </trkpt>
      <trkpt lat="46.90144" lon="-0.62908">
        <ele>176</ele>
        <time>2026-04-26T20:29:14.020Z</time>
      </trkpt>
      <trkpt lat="46.90033" lon="-0.62972">
        <ele>176</ele>
        <time>2026-04-26T20:29:33.235Z</time>
      </trkpt>
      <trkpt lat="46.89957" lon="-0.63028">
        <ele>180</ele>
        <time>2026-04-26T20:29:56.254Z</time>
      </trkpt>
      <trkpt lat="46.89912" lon="-0.63058">
        <ele>182</ele>
        <time>2026-04-26T20:30:08.590Z</time>
      </trkpt>
      <trkpt lat="46.89871" lon="-0.63074">
        <ele>183</ele>
        <time>2026-04-26T20:30:17.294Z</time>
      </trkpt>
      <trkpt lat="46.89818" lon="-0.63081">
        <ele>184</ele>
        <time>2026-04-26T20:30:27.657Z</time>
      </trkpt>
      <trkpt lat="46.89818" lon="-0.6309">
        <ele>184</ele>
        <time>2026-04-26T20:30:28.648Z</time>
      </trkpt>
      <trkpt lat="46.89817" lon="-0.63099">
        <ele>184</ele>
        <time>2026-04-26T20:30:29.651Z</time>
      </trkpt>
      <trkpt lat="46.89813" lon="-0.63107">
        <ele>184</ele>
        <time>2026-04-26T20:30:30.742Z</time>
      </trkpt>
      <trkpt lat="46.89806" lon="-0.63114">
        <ele>184</ele>
        <time>2026-04-26T20:30:32.107Z</time>
      </trkpt>
      <trkpt lat="46.89796" lon="-0.63114">
        <ele>184</ele>
        <time>2026-04-26T20:30:33.718Z</time>
      </trkpt>
      <trkpt lat="46.89791" lon="-0.63112">
        <ele>184</ele>
        <time>2026-04-26T20:30:34.553Z</time>
      </trkpt>
      <trkpt lat="46.89783" lon="-0.631">
        <ele>184</ele>
        <time>2026-04-26T20:30:36.398Z</time>
      </trkpt>
      <trkpt lat="46.89781" lon="-0.63093">
        <ele>184</ele>
        <time>2026-04-26T20:30:37.233Z</time>
      </trkpt>
      <trkpt lat="46.89684" lon="-0.63148">
        <ele>183</ele>
        <time>2026-04-26T20:30:52.567Z</time>
      </trkpt>
      <trkpt lat="46.89657" lon="-0.63164">
        <ele>182</ele>
        <time>2026-04-26T20:30:56.071Z</time>
      </trkpt>
      <trkpt lat="46.89658" lon="-0.63176">
        <ele>181</ele>
        <time>2026-04-26T20:30:56.869Z</time>
      </trkpt>
      <trkpt lat="46.89656" lon="-0.63187">
        <ele>181</ele>
        <time>2026-04-26T20:30:58.122Z</time>
      </trkpt>
      <trkpt lat="46.89651" lon="-0.63196">
        <ele>180</ele>
        <time>2026-04-26T20:30:58.888Z</time>
      </trkpt>
      <trkpt lat="46.89645" lon="-0.63201">
        <ele>180</ele>
        <time>2026-04-26T20:31:00.000Z</time>
      </trkpt>
      <trkpt lat="46.89638" lon="-0.63203">
        <ele>180</ele>
        <time>2026-04-26T20:31:01.149Z</time>
      </trkpt>
      <trkpt lat="46.89631" lon="-0.63202">
        <ele>179</ele>
        <time>2026-04-26T20:31:01.828Z</time>
      </trkpt>
      <trkpt lat="46.89625" lon="-0.63197">
        <ele>179</ele>
        <time>2026-04-26T20:31:02.940Z</time>
      </trkpt>
      <trkpt lat="46.8962" lon="-0.63189">
        <ele>179</ele>
        <time>2026-04-26T20:31:04.134Z</time>
      </trkpt>
      <trkpt lat="46.89618" lon="-0.6318">
        <ele>179</ele>
        <time>2026-04-26T20:31:05.175Z</time>
      </trkpt>
      <trkpt lat="46.89481" lon="-0.63195">
        <ele>173</ele>
        <time>2026-04-26T20:31:20.608Z</time>
      </trkpt>
      <trkpt lat="46.89225" lon="-0.63234">
        <ele>161</ele>
        <time>2026-04-26T20:31:48.931Z</time>
      </trkpt>
      <trkpt lat="46.89095" lon="-0.63259">
        <ele>162</ele>
        <time>2026-04-26T20:32:11.679Z</time>
      </trkpt>
      <trkpt lat="46.89053" lon="-0.63272">
        <ele>160</ele>
        <time>2026-04-26T20:32:16.404Z</time>
      </trkpt>
      <trkpt lat="46.88973" lon="-0.63306">
        <ele>154</ele>
        <time>2026-04-26T20:32:24.454Z</time>
      </trkpt>
      <trkpt lat="46.88946" lon="-0.63321">
        <ele>152</ele>
        <time>2026-04-26T20:32:27.245Z</time>
      </trkpt>
      <trkpt lat="46.88872" lon="-0.63372">
        <ele>154</ele>
        <time>2026-04-26T20:32:44.188Z</time>
      </trkpt>
      <trkpt lat="46.88822" lon="-0.63413">
        <ele>155</ele>
        <time>2026-04-26T20:32:55.191Z</time>
      </trkpt>
      <trkpt lat="46.88757" lon="-0.63478">
        <ele>159</ele>
        <time>2026-04-26T20:33:17.540Z</time>
      </trkpt>
      <trkpt lat="46.88685" lon="-0.63572">
        <ele>162</ele>
        <time>2026-04-26T20:33:39.087Z</time>
      </trkpt>
      <trkpt lat="46.8862" lon="-0.63681">
        <ele>164</ele>
        <time>2026-04-26T20:33:58.641Z</time>
      </trkpt>
      <trkpt lat="46.886" lon="-0.63719">
        <ele>165</ele>
        <time>2026-04-26T20:34:05.911Z</time>
      </trkpt>
      <trkpt lat="46.88592" lon="-0.63737">
        <ele>165</ele>
        <time>2026-04-26T20:34:08.275Z</time>
      </trkpt>
      <trkpt lat="46.88586" lon="-0.63755">
        <ele>165</ele>
        <time>2026-04-26T20:34:10.479Z</time>
      </trkpt>
      <trkpt lat="46.88588" lon="-0.63771">
        <ele>165</ele>
        <time>2026-04-26T20:34:12.270Z</time>
      </trkpt>
      <trkpt lat="46.88585" lon="-0.63782">
        <ele>165</ele>
        <time>2026-04-26T20:34:13.573Z</time>
      </trkpt>
      <trkpt lat="46.88579" lon="-0.63791">
        <ele>166</ele>
        <time>2026-04-26T20:34:19.083Z</time>
      </trkpt>
      <trkpt lat="46.8857" lon="-0.63795">
        <ele>166</ele>
        <time>2026-04-26T20:34:20.598Z</time>
      </trkpt>
      <trkpt lat="46.88563" lon="-0.63794">
        <ele>166</ele>
        <time>2026-04-26T20:34:21.731Z</time>
      </trkpt>
      <trkpt lat="46.88553" lon="-0.63784">
        <ele>166</ele>
        <time>2026-04-26T20:34:23.681Z</time>
      </trkpt>
      <trkpt lat="46.88523" lon="-0.63774">
        <ele>166</ele>
        <time>2026-04-26T20:34:28.637Z</time>
      </trkpt>
      <trkpt lat="46.8851" lon="-0.63773">
        <ele>167</ele>
        <time>2026-04-26T20:34:33.865Z</time>
      </trkpt>
      <trkpt lat="46.88097" lon="-0.63676">
        <ele>171</ele>
        <time>2026-04-26T20:35:47.860Z</time>
      </trkpt>
      <trkpt lat="46.87817" lon="-0.63611">
        <ele>180</ele>
        <time>2026-04-26T20:36:51.647Z</time>
      </trkpt>
      <trkpt lat="46.878" lon="-0.63616">
        <ele>181</ele>
        <time>2026-04-26T20:36:57.027Z</time>
      </trkpt>
      <trkpt lat="46.87761" lon="-0.6365">
        <ele>184</ele>
        <time>2026-04-26T20:37:12.785Z</time>
      </trkpt>
      <trkpt lat="46.87709" lon="-0.63702">
        <ele>187</ele>
        <time>2026-04-26T20:37:29.958Z</time>
      </trkpt>
      <trkpt lat="46.87678" lon="-0.63773">
        <ele>187</ele>
        <time>2026-04-26T20:37:39.233Z</time>
      </trkpt>
      <trkpt lat="46.87657" lon="-0.63827">
        <ele>187</ele>
        <time>2026-04-26T20:37:46.073Z</time>
      </trkpt>
      <trkpt lat="46.87505" lon="-0.6426">
        <ele>181</ele>
        <time>2026-04-26T20:38:31.664Z</time>
      </trkpt>
      <trkpt lat="46.87433" lon="-0.64631">
        <ele>167</ele>
        <time>2026-04-26T20:38:59.428Z</time>
      </trkpt>
      <trkpt lat="46.87423" lon="-0.64667">
        <ele>164</ele>
        <time>2026-04-26T20:39:01.995Z</time>
      </trkpt>
      <trkpt lat="46.87415" lon="-0.64685">
        <ele>164</ele>
        <time>2026-04-26T20:39:04.358Z</time>
      </trkpt>
      <trkpt lat="46.87407" lon="-0.64696">
        <ele>163</ele>
        <time>2026-04-26T20:39:05.419Z</time>
      </trkpt>
      <trkpt lat="46.87394" lon="-0.64705">
        <ele>164</ele>
        <time>2026-04-26T20:39:10.650Z</time>
      </trkpt>
      <trkpt lat="46.8734" lon="-0.64733">
        <ele>165</ele>
        <time>2026-04-26T20:39:21.649Z</time>
      </trkpt>
      <trkpt lat="46.87248" lon="-0.64771">
        <ele>171</ele>
        <time>2026-04-26T20:39:53.384Z</time>
      </trkpt>
      <trkpt lat="46.87171" lon="-0.64851">
        <ele>173</ele>
        <time>2026-04-26T20:40:12.257Z</time>
      </trkpt>
      <trkpt lat="46.87171" lon="-0.64852">
        <ele>173</ele>
        <time>2026-04-26T20:40:12.367Z</time>
      </trkpt>
      <trkpt lat="46.87147" lon="-0.64876">
        <ele>176</ele>
        <time>2026-04-26T20:40:28.773Z</time>
      </trkpt>
      <trkpt lat="46.86901" lon="-0.65068">
        <ele>185</ele>
        <time>2026-04-26T20:41:31.897Z</time>
      </trkpt>
      <trkpt lat="46.86768" lon="-0.65211">
        <ele>187</ele>
        <time>2026-04-26T20:42:01.867Z</time>
      </trkpt>
      <trkpt lat="46.86749" lon="-0.65227">
        <ele>187</ele>
        <time>2026-04-26T20:42:05.398Z</time>
      </trkpt>
      <trkpt lat="46.86727" lon="-0.65238">
        <ele>189</ele>
        <time>2026-04-26T20:42:15.976Z</time>
      </trkpt>
      <trkpt lat="46.86681" lon="-0.65254">
        <ele>191</ele>
        <time>2026-04-26T20:42:28.041Z</time>
      </trkpt>
      <trkpt lat="46.86655" lon="-0.65267">
        <ele>191</ele>
        <time>2026-04-26T20:42:32.466Z</time>
      </trkpt>
      <trkpt lat="46.86565" lon="-0.65322">
        <ele>192</ele>
        <time>2026-04-26T20:42:49.842Z</time>
      </trkpt>
      <trkpt lat="46.8646" lon="-0.65409">
        <ele>192</ele>
        <time>2026-04-26T20:43:09.278Z</time>
      </trkpt>
      <trkpt lat="46.86459" lon="-0.65409">
        <ele>192</ele>
        <time>2026-04-26T20:43:09.439Z</time>
      </trkpt>
      <trkpt lat="46.86379" lon="-0.65467">
        <ele>190</ele>
        <time>2026-04-26T20:43:21.237Z</time>
      </trkpt>
      <trkpt lat="46.86357" lon="-0.65481">
        <ele>189</ele>
        <time>2026-04-26T20:43:23.971Z</time>
      </trkpt>
      <trkpt lat="46.86333" lon="-0.65491">
        <ele>188</ele>
        <time>2026-04-26T20:43:26.848Z</time>
      </trkpt>
      <trkpt lat="46.86313" lon="-0.65496">
        <ele>188.4</ele>
        <time>2026-04-26T20:43:30.915Z</time>
      </trkpt>
      <trkpt lat="46.86277" lon="-0.655">
        <ele>187</ele>
        <time>2026-04-26T20:43:35.103Z</time>
      </trkpt>
      <trkpt lat="46.86236" lon="-0.65501">
        <ele>185.5</ele>
        <time>2026-04-26T20:43:39.965Z</time>
      </trkpt>
      <trkpt lat="46.86201" lon="-0.65497">
        <ele>184.3</ele>
        <time>2026-04-26T20:43:44.108Z</time>
      </trkpt>
      <trkpt lat="46.8618" lon="-0.655">
        <ele>183.5</ele>
        <time>2026-04-26T20:43:46.613Z</time>
      </trkpt>
      <trkpt lat="46.86159" lon="-0.65517">
        <ele>182.8</ele>
        <time>2026-04-26T20:43:49.564Z</time>
      </trkpt>
      <trkpt lat="46.86129" lon="-0.65546">
        <ele>181.6</ele>
        <time>2026-04-26T20:43:53.960Z</time>
      </trkpt>
      <trkpt lat="46.8612" lon="-0.65552">
        <ele>181.3</ele>
        <time>2026-04-26T20:43:55.237Z</time>
      </trkpt>
      <trkpt lat="46.86112" lon="-0.65573">
        <ele>181</ele>
        <time>2026-04-26T20:43:57.428Z</time>
      </trkpt>
      <trkpt lat="46.86109" lon="-0.65584">
        <ele>181</ele>
        <time>2026-04-26T20:43:58.856Z</time>
      </trkpt>
      <trkpt lat="46.86093" lon="-0.65603">
        <ele>180.8</ele>
        <time>2026-04-26T20:44:01.857Z</time>
      </trkpt>
      <trkpt lat="46.86069" lon="-0.65621">
        <ele>179.5</ele>
        <time>2026-04-26T20:44:04.762Z</time>
      </trkpt>
      <trkpt lat="46.86068" lon="-0.65636">
        <ele>179.5</ele>
        <time>2026-04-26T20:44:06.420Z</time>
      </trkpt>
      <trkpt lat="46.86072" lon="-0.65661">
        <ele>180</ele>
        <time>2026-04-26T20:44:10.120Z</time>
      </trkpt>
      <trkpt lat="46.86084" lon="-0.65698">
        <ele>181</ele>
        <time>2026-04-26T20:44:16.727Z</time>
      </trkpt>
      <trkpt lat="46.86134" lon="-0.65805">
        <ele>181</ele>
        <time>2026-04-26T20:44:31.076Z</time>
      </trkpt>
      <trkpt lat="46.86166" lon="-0.65923">
        <ele>179</ele>
        <time>2026-04-26T20:44:42.485Z</time>
      </trkpt>
      <trkpt lat="46.86223" lon="-0.66083">
        <ele>174</ele>
        <time>2026-04-26T20:44:56.658Z</time>
      </trkpt>
      <trkpt lat="46.86234" lon="-0.66122">
        <ele>173</ele>
        <time>2026-04-26T20:45:00.119Z</time>
      </trkpt>
      <trkpt lat="46.86242" lon="-0.6616">
        <ele>173</ele>
        <time>2026-04-26T20:45:04.498Z</time>
      </trkpt>
      <trkpt lat="46.86247" lon="-0.66194">
        <ele>171</ele>
        <time>2026-04-26T20:45:06.796Z</time>
      </trkpt>
      <trkpt lat="46.86248" lon="-0.66225">
        <ele>169</ele>
        <time>2026-04-26T20:45:08.847Z</time>
      </trkpt>
      <trkpt lat="46.86243" lon="-0.6626">
        <ele>167</ele>
        <time>2026-04-26T20:45:11.209Z</time>
      </trkpt>
      <trkpt lat="46.86229" lon="-0.66312">
        <ele>164</ele>
        <time>2026-04-26T20:45:14.902Z</time>
      </trkpt>
      <trkpt lat="46.86214" lon="-0.66359">
        <ele>163</ele>
        <time>2026-04-26T20:45:19.374Z</time>
      </trkpt>
      <trkpt lat="46.86199" lon="-0.66391">
        <ele>163</ele>
        <time>2026-04-26T20:45:23.647Z</time>
      </trkpt>
      <trkpt lat="46.86187" lon="-0.6641">
        <ele>162</ele>
        <time>2026-04-26T20:45:25.468Z</time>
      </trkpt>
      <trkpt lat="46.86148" lon="-0.6645">
        <ele>167</ele>
        <time>2026-04-26T20:45:52.886Z</time>
      </trkpt>
      <trkpt lat="46.86135" lon="-0.66453">
        <ele>169</ele>
        <time>2026-04-26T20:46:01.971Z</time>
      </trkpt>
      <trkpt lat="46.86122" lon="-0.66448">
        <ele>170</ele>
        <time>2026-04-26T20:46:07.194Z</time>
      </trkpt>
      <trkpt lat="46.86111" lon="-0.66436">
        <ele>170</ele>
        <time>2026-04-26T20:46:09.404Z</time>
      </trkpt>
      <trkpt lat="46.8609" lon="-0.66398">
        <ele>169</ele>
        <time>2026-04-26T20:46:13.560Z</time>
      </trkpt>
      <trkpt lat="46.86076" lon="-0.66387">
        <ele>171</ele>
        <time>2026-04-26T20:46:24.341Z</time>
      </trkpt>
      <trkpt lat="46.86066" lon="-0.66383">
        <ele>172</ele>
        <time>2026-04-26T20:46:29.741Z</time>
      </trkpt>
      <trkpt lat="46.86057" lon="-0.66384">
        <ele>174</ele>
        <time>2026-04-26T20:46:35.971Z</time>
      </trkpt>
      <trkpt lat="46.86048" lon="-0.66389">
        <ele>176</ele>
        <time>2026-04-26T20:46:42.617Z</time>
      </trkpt>
      <trkpt lat="46.86038" lon="-0.66397">
        <ele>178</ele>
        <time>2026-04-26T20:46:50.484Z</time>
      </trkpt>
      <trkpt lat="46.86031" lon="-0.6641">
        <ele>179</ele>
        <time>2026-04-26T20:46:55.796Z</time>
      </trkpt>
      <trkpt lat="46.86026" lon="-0.66424">
        <ele>181</ele>
        <time>2026-04-26T20:47:03.251Z</time>
      </trkpt>
      <trkpt lat="46.86023" lon="-0.66442">
        <ele>182</ele>
        <time>2026-04-26T20:47:08.488Z</time>
      </trkpt>
      <trkpt lat="46.86022" lon="-0.66462">
        <ele>182</ele>
        <time>2026-04-26T20:47:10.696Z</time>
      </trkpt>
      <trkpt lat="46.86023" lon="-0.66477">
        <ele>182</ele>
        <time>2026-04-26T20:47:12.356Z</time>
      </trkpt>
      <trkpt lat="46.86028" lon="-0.66495">
        <ele>182</ele>
        <time>2026-04-26T20:47:14.496Z</time>
      </trkpt>
      <trkpt lat="46.86036" lon="-0.66509">
        <ele>182</ele>
        <time>2026-04-26T20:47:16.505Z</time>
      </trkpt>
      <trkpt lat="46.86044" lon="-0.6652">
        <ele>182</ele>
        <time>2026-04-26T20:47:18.274Z</time>
      </trkpt>
      <trkpt lat="46.86067" lon="-0.66544">
        <ele>183</ele>
        <time>2026-04-26T20:47:24.908Z</time>
      </trkpt>
      <trkpt lat="46.86074" lon="-0.66556">
        <ele>183</ele>
        <time>2026-04-26T20:47:26.645Z</time>
      </trkpt>
      <trkpt lat="46.86082" lon="-0.66575">
        <ele>184</ele>
        <time>2026-04-26T20:47:31.902Z</time>
      </trkpt>
      <trkpt lat="46.86148" lon="-0.66753">
        <ele>193</ele>
        <time>2026-04-26T20:48:19.266Z</time>
      </trkpt>
      <trkpt lat="46.86157" lon="-0.66786">
        <ele>193</ele>
        <time>2026-04-26T20:48:23.179Z</time>
      </trkpt>
      <trkpt lat="46.86162" lon="-0.6681">
        <ele>194</ele>
        <time>2026-04-26T20:48:28.546Z</time>
      </trkpt>
      <trkpt lat="46.86165" lon="-0.66832">
        <ele>194</ele>
        <time>2026-04-26T20:48:31.016Z</time>
      </trkpt>
      <trkpt lat="46.86165" lon="-0.66864">
        <ele>192</ele>
        <time>2026-04-26T20:48:33.131Z</time>
      </trkpt>
      <trkpt lat="46.86146" lon="-0.67027">
        <ele>183</ele>
        <time>2026-04-26T20:48:44.056Z</time>
      </trkpt>
      <trkpt lat="46.86127" lon="-0.67173">
        <ele>186</ele>
        <time>2026-04-26T20:49:06.343Z</time>
      </trkpt>
      <trkpt lat="46.86127" lon="-0.6722">
        <ele>186</ele>
        <time>2026-04-26T20:49:11.519Z</time>
      </trkpt>
      <trkpt lat="46.86137" lon="-0.67282">
        <ele>185</ele>
        <time>2026-04-26T20:49:17.248Z</time>
      </trkpt>
      <trkpt lat="46.86146" lon="-0.67316">
        <ele>184</ele>
        <time>2026-04-26T20:49:20.121Z</time>
      </trkpt>
      <trkpt lat="46.86184" lon="-0.67428">
        <ele>183</ele>
        <time>2026-04-26T20:49:32.492Z</time>
      </trkpt>
      <trkpt lat="46.86227" lon="-0.67545">
        <ele>183</ele>
        <time>2026-04-26T20:49:47.120Z</time>
      </trkpt>
      <trkpt lat="46.8628" lon="-0.67647">
        <ele>182</ele>
        <time>2026-04-26T20:49:59.828Z</time>
      </trkpt>
      <trkpt lat="46.863" lon="-0.67664">
        <ele>181</ele>
        <time>2026-04-26T20:50:02.434Z</time>
      </trkpt>
      <trkpt lat="46.86341" lon="-0.67705">
        <ele>178</ele>
        <time>2026-04-26T20:50:07.424Z</time>
      </trkpt>
      <trkpt lat="46.86405" lon="-0.67834">
        <ele>176</ele>
        <time>2026-04-26T20:50:22.315Z</time>
      </trkpt>
      <trkpt lat="46.86412" lon="-0.67868">
        <ele>177</ele>
        <time>2026-04-26T20:50:28.427Z</time>
      </trkpt>
      <trkpt lat="46.86414" lon="-0.67935">
        <ele>179</ele>
        <time>2026-04-26T20:50:40.319Z</time>
      </trkpt>
      <trkpt lat="46.86413" lon="-0.67979">
        <ele>182</ele>
        <time>2026-04-26T20:50:56.623Z</time>
      </trkpt>
      <trkpt lat="46.86406" lon="-0.68032">
        <ele>184</ele>
        <time>2026-04-26T20:51:07.566Z</time>
      </trkpt>
      <trkpt lat="46.86389" lon="-0.68139">
        <ele>186</ele>
        <time>2026-04-26T20:51:23.507Z</time>
      </trkpt>
      <trkpt lat="46.86382" lon="-0.68219">
        <ele>187</ele>
        <time>2026-04-26T20:51:34.171Z</time>
      </trkpt>
      <trkpt lat="46.86382" lon="-0.6822">
        <ele>187</ele>
        <time>2026-04-26T20:51:34.281Z</time>
      </trkpt>
      <trkpt lat="46.86378" lon="-0.68265">
        <ele>188</ele>
        <time>2026-04-26T20:51:41.301Z</time>
      </trkpt>
      <trkpt lat="46.86378" lon="-0.68319">
        <ele>190</ele>
        <time>2026-04-26T20:51:52.245Z</time>
      </trkpt>
      <trkpt lat="46.86381" lon="-0.68372">
        <ele>191</ele>
        <time>2026-04-26T20:52:00.039Z</time>
      </trkpt>
      <trkpt lat="46.86393" lon="-0.68508">
        <ele>194</ele>
        <time>2026-04-26T20:52:21.196Z</time>
      </trkpt>
      <trkpt lat="46.86443" lon="-0.68801">
        <ele>196</ele>
        <time>2026-04-26T20:52:57.767Z</time>
      </trkpt>
      <trkpt lat="46.86446" lon="-0.68817">
        <ele>196</ele>
        <time>2026-04-26T20:52:59.594Z</time>
      </trkpt>
      <trkpt lat="46.86417" lon="-0.68827">
        <ele>197</ele>
        <time>2026-04-26T20:53:06.441Z</time>
      </trkpt>
      <trkpt lat="46.86381" lon="-0.68829">
        <ele>197</ele>
        <time>2026-04-26T20:53:12.244Z</time>
      </trkpt>
      <trkpt lat="46.86375" lon="-0.68836">
        <ele>196</ele>
        <time>2026-04-26T20:53:12.985Z</time>
      </trkpt>
      <trkpt lat="46.86372" lon="-0.68852">
        <ele>197.3</ele>
        <time>2026-04-26T20:53:20.147Z</time>
      </trkpt>
      <trkpt lat="46.8637" lon="-0.68868">
        <ele>197.3</ele>
        <time>2026-04-26T20:53:21.944Z</time>
      </trkpt>
      <trkpt lat="46.86389" lon="-0.68914">
        <ele>196</ele>
        <time>2026-04-26T20:53:26.388Z</time>
      </trkpt>
      <trkpt lat="46.86394" lon="-0.68929">
        <ele>197</ele>
        <time>2026-04-26T20:53:31.693Z</time>
      </trkpt>
      <trkpt lat="46.864" lon="-0.68944">
        <ele>198.4</ele>
        <time>2026-04-26T20:53:39.329Z</time>
      </trkpt>
      <trkpt lat="46.86404" lon="-0.68985">
        <ele>198</ele>
        <time>2026-04-26T20:53:43.435Z</time>
      </trkpt>
      <trkpt lat="46.86416" lon="-0.69074">
        <ele>199</ele>
        <time>2026-04-26T20:53:55.138Z</time>
      </trkpt>
      <trkpt lat="46.86333" lon="-0.69138">
        <ele>198</ele>
        <time>2026-04-26T20:54:08.841Z</time>
      </trkpt>
      <trkpt lat="46.86321" lon="-0.69151">
        <ele>198</ele>
        <time>2026-04-26T20:54:11.246Z</time>
      </trkpt>
      <trkpt lat="46.86313" lon="-0.69165">
        <ele>198</ele>
        <time>2026-04-26T20:54:13.255Z</time>
      </trkpt>
      <trkpt lat="46.86296" lon="-0.69209">
        <ele>198</ele>
        <time>2026-04-26T20:54:18.821Z</time>
      </trkpt>
      <trkpt lat="46.86284" lon="-0.69227">
        <ele>199</ele>
        <time>2026-04-26T20:54:24.190Z</time>
      </trkpt>
      <trkpt lat="46.86267" lon="-0.69247">
        <ele>199</ele>
        <time>2026-04-26T20:54:27.704Z</time>
      </trkpt>
      <trkpt lat="46.86234" lon="-0.69267">
        <ele>199</ele>
        <time>2026-04-26T20:54:33.457Z</time>
      </trkpt>
      <trkpt lat="46.86215" lon="-0.69282">
        <ele>200</ele>
        <time>2026-04-26T20:54:39.248Z</time>
      </trkpt>
      <trkpt lat="46.86128" lon="-0.69377">
        <ele>201</ele>
        <time>2026-04-26T20:54:58.386Z</time>
      </trkpt>
      <trkpt lat="46.86115" lon="-0.69397">
        <ele>200</ele>
        <time>2026-04-26T20:55:00.374Z</time>
      </trkpt>
      <trkpt lat="46.86105" lon="-0.69422">
        <ele>201</ele>
        <time>2026-04-26T20:55:05.974Z</time>
      </trkpt>
      <trkpt lat="46.86096" lon="-0.69439">
        <ele>201</ele>
        <time>2026-04-26T20:55:08.342Z</time>
      </trkpt>
      <trkpt lat="46.86084" lon="-0.6945">
        <ele>202</ele>
        <time>2026-04-26T20:55:13.568Z</time>
      </trkpt>
      <trkpt lat="46.86067" lon="-0.69459">
        <ele>202</ele>
        <time>2026-04-26T20:55:16.480Z</time>
      </trkpt>
      <trkpt lat="46.86049" lon="-0.69465">
        <ele>202</ele>
        <time>2026-04-26T20:55:19.453Z</time>
      </trkpt>
      <trkpt lat="46.86013" lon="-0.69472">
        <ele>202</ele>
        <time>2026-04-26T20:55:25.303Z</time>
      </trkpt>
      <trkpt lat="46.85998" lon="-0.69472">
        <ele>201</ele>
        <time>2026-04-26T20:55:26.753Z</time>
      </trkpt>
      <trkpt lat="46.85932" lon="-0.69427">
        <ele>199</ele>
        <time>2026-04-26T20:55:35.990Z</time>
      </trkpt>
      <trkpt lat="46.85914" lon="-0.6942">
        <ele>199</ele>
        <time>2026-04-26T20:55:38.990Z</time>
      </trkpt>
      <trkpt lat="46.85899" lon="-0.69424">
        <ele>200</ele>
        <time>2026-04-26T20:55:44.247Z</time>
      </trkpt>
      <trkpt lat="46.85855" lon="-0.69446">
        <ele>201</ele>
        <time>2026-04-26T20:55:53.572Z</time>
      </trkpt>
      <trkpt lat="46.8583" lon="-0.69457">
        <ele>202</ele>
        <time>2026-04-26T20:55:59.918Z</time>
      </trkpt>
      <trkpt lat="46.85816" lon="-0.6946">
        <ele>202</ele>
        <time>2026-04-26T20:56:02.197Z</time>
      </trkpt>
      <trkpt lat="46.85764" lon="-0.69463">
        <ele>203</ele>
        <time>2026-04-26T20:56:12.378Z</time>
      </trkpt>
      <trkpt lat="46.85561" lon="-0.69462">
        <ele>213</ele>
        <time>2026-04-26T20:57:08.880Z</time>
      </trkpt>
      <trkpt lat="46.85527" lon="-0.69466">
        <ele>213</ele>
        <time>2026-04-26T20:57:14.374Z</time>
      </trkpt>
      <trkpt lat="46.85517" lon="-0.69471">
        <ele>213</ele>
        <time>2026-04-26T20:57:16.076Z</time>
      </trkpt>
      <trkpt lat="46.8543" lon="-0.69527">
        <ele>210</ele>
        <time>2026-04-26T20:57:27.754Z</time>
      </trkpt>
      <trkpt lat="46.85414" lon="-0.69533">
        <ele>209</ele>
        <time>2026-04-26T20:57:29.412Z</time>
      </trkpt>
      <trkpt lat="46.85396" lon="-0.69534">
        <ele>208</ele>
        <time>2026-04-26T20:57:31.279Z</time>
      </trkpt>
      <trkpt lat="46.85344" lon="-0.69525">
        <ele>208</ele>
        <time>2026-04-26T20:57:39.712Z</time>
      </trkpt>
      <trkpt lat="46.85325" lon="-0.69527">
        <ele>207</ele>
        <time>2026-04-26T20:57:41.727Z</time>
      </trkpt>
      <trkpt lat="46.85287" lon="-0.6954">
        <ele>205</ele>
        <time>2026-04-26T20:57:45.888Z</time>
      </trkpt>
      <trkpt lat="46.85271" lon="-0.69541">
        <ele>204</ele>
        <time>2026-04-26T20:57:47.476Z</time>
      </trkpt>
      <trkpt lat="46.85262" lon="-0.6954">
        <ele>204</ele>
        <time>2026-04-26T20:57:48.930Z</time>
      </trkpt>
      <trkpt lat="46.85217" lon="-0.69533">
        <ele>203</ele>
        <time>2026-04-26T20:57:54.924Z</time>
      </trkpt>
      <trkpt lat="46.85175" lon="-0.69537">
        <ele>203</ele>
        <time>2026-04-26T20:58:01.703Z</time>
      </trkpt>
      <trkpt lat="46.85151" lon="-0.69542">
        <ele>202</ele>
        <time>2026-04-26T20:58:04.474Z</time>
      </trkpt>
      <trkpt lat="46.84922" lon="-0.69626">
        <ele>194</ele>
        <time>2026-04-26T20:58:32.969Z</time>
      </trkpt>
      <trkpt lat="46.84903" lon="-0.69642">
        <ele>193</ele>
        <time>2026-04-26T20:58:35.399Z</time>
      </trkpt>
      <trkpt lat="46.84819" lon="-0.69743">
        <ele>192</ele>
        <time>2026-04-26T20:58:51.490Z</time>
      </trkpt>
      <trkpt lat="46.84785" lon="-0.69778">
        <ele>192</ele>
        <time>2026-04-26T20:58:58.187Z</time>
      </trkpt>
      <trkpt lat="46.84726" lon="-0.69857">
        <ele>191</ele>
        <time>2026-04-26T20:59:09.683Z</time>
      </trkpt>
      <trkpt lat="46.8468" lon="-0.69935">
        <ele>190</ele>
        <time>2026-04-26T20:59:19.656Z</time>
      </trkpt>
      <trkpt lat="46.84673" lon="-0.69941">
        <ele>191</ele>
        <time>2026-04-26T20:59:25.095Z</time>
      </trkpt>
      <trkpt lat="46.84616" lon="-0.69962">
        <ele>190</ele>
        <time>2026-04-26T20:59:33.219Z</time>
      </trkpt>
      <trkpt lat="46.84492" lon="-0.69996">
        <ele>190</ele>
        <time>2026-04-26T20:59:53.539Z</time>
      </trkpt>
      <trkpt lat="46.84339" lon="-0.70058">
        <ele>187</ele>
        <time>2026-04-26T21:00:15.135Z</time>
      </trkpt>
      <trkpt lat="46.84254" lon="-0.70127">
        <ele>186</ele>
        <time>2026-04-26T21:00:29.381Z</time>
      </trkpt>
      <trkpt lat="46.84178" lon="-0.70196">
        <ele>183</ele>
        <time>2026-04-26T21:00:40.207Z</time>
      </trkpt>
      <trkpt lat="46.84138" lon="-0.70246">
        <ele>182</ele>
        <time>2026-04-26T21:00:47.360Z</time>
      </trkpt>
      <trkpt lat="46.84129" lon="-0.70256">
        <ele>182</ele>
        <time>2026-04-26T21:00:49.180Z</time>
      </trkpt>
      <trkpt lat="46.84115" lon="-0.70266">
        <ele>181</ele>
        <time>2026-04-26T21:00:50.709Z</time>
      </trkpt>
      <trkpt lat="46.84057" lon="-0.70288">
        <ele>182</ele>
        <time>2026-04-26T21:01:02.120Z</time>
      </trkpt>
      <trkpt lat="46.84027" lon="-0.70305">
        <ele>182</ele>
        <time>2026-04-26T21:01:07.302Z</time>
      </trkpt>
      <trkpt lat="46.83966" lon="-0.70352">
        <ele>183</ele>
        <time>2026-04-26T21:01:20.135Z</time>
      </trkpt>
      <trkpt lat="46.83886" lon="-0.70433">
        <ele>185</ele>
        <time>2026-04-26T21:01:39.449Z</time>
      </trkpt>
      <trkpt lat="46.8388" lon="-0.70442">
        <ele>186</ele>
        <time>2026-04-26T21:01:44.959Z</time>
      </trkpt>
      <trkpt lat="46.83873" lon="-0.7046">
        <ele>186</ele>
        <time>2026-04-26T21:01:47.240Z</time>
      </trkpt>
      <trkpt lat="46.83869" lon="-0.7048">
        <ele>187</ele>
        <time>2026-04-26T21:01:52.468Z</time>
      </trkpt>
      <trkpt lat="46.83866" lon="-0.70511">
        <ele>187</ele>
        <time>2026-04-26T21:01:55.917Z</time>
      </trkpt>
      <trkpt lat="46.8386" lon="-0.70644">
        <ele>188</ele>
        <time>2026-04-26T21:02:12.278Z</time>
      </trkpt>
      <trkpt lat="46.83847" lon="-0.70849">
        <ele>188</ele>
        <time>2026-04-26T21:02:34.961Z</time>
      </trkpt>
      <trkpt lat="46.83839" lon="-0.70969">
        <ele>189</ele>
        <time>2026-04-26T21:02:49.937Z</time>
      </trkpt>
      <trkpt lat="46.83826" lon="-0.71102">
        <ele>190</ele>
        <time>2026-04-26T21:03:06.414Z</time>
      </trkpt>
      <trkpt lat="46.83807" lon="-0.71216">
        <ele>188</ele>
        <time>2026-04-26T21:03:16.804Z</time>
      </trkpt>
      <trkpt lat="46.83785" lon="-0.71297">
        <ele>187</ele>
        <time>2026-04-26T21:03:25.060Z</time>
      </trkpt>
      <trkpt lat="46.83764" lon="-0.71363">
        <ele>187</ele>
        <time>2026-04-26T21:03:33.080Z</time>
      </trkpt>
      <trkpt lat="46.83746" lon="-0.71396">
        <ele>187</ele>
        <time>2026-04-26T21:03:37.730Z</time>
      </trkpt>
      <trkpt lat="46.83724" lon="-0.71424">
        <ele>186</ele>
        <time>2026-04-26T21:03:41.240Z</time>
      </trkpt>
      <trkpt lat="46.83708" lon="-0.71437">
        <ele>186</ele>
        <time>2026-04-26T21:03:44.189Z</time>
      </trkpt>
      <trkpt lat="46.83693" lon="-0.7144">
        <ele>186</ele>
        <time>2026-04-26T21:03:46.627Z</time>
      </trkpt>
      <trkpt lat="46.83675" lon="-0.7144">
        <ele>185</ele>
        <time>2026-04-26T21:03:48.492Z</time>
      </trkpt>
      <trkpt lat="46.83309" lon="-0.71362">
        <ele>166</ele>
        <time>2026-04-26T21:04:27.896Z</time>
      </trkpt>
      <trkpt lat="46.83289" lon="-0.7136">
        <ele>165</ele>
        <time>2026-04-26T21:04:30.053Z</time>
      </trkpt>
      <trkpt lat="46.83269" lon="-0.7136">
        <ele>165</ele>
        <time>2026-04-26T21:04:33.274Z</time>
      </trkpt>
      <trkpt lat="46.8325" lon="-0.71366">
        <ele>164</ele>
        <time>2026-04-26T21:04:35.344Z</time>
      </trkpt>
      <trkpt lat="46.83231" lon="-0.71378">
        <ele>164</ele>
        <time>2026-04-26T21:04:38.678Z</time>
      </trkpt>
      <trkpt lat="46.83215" lon="-0.71393">
        <ele>163</ele>
        <time>2026-04-26T21:04:40.686Z</time>
      </trkpt>
      <trkpt lat="46.82895" lon="-0.71756">
        <ele>164</ele>
        <time>2026-04-26T21:05:47.488Z</time>
      </trkpt>
      <trkpt lat="46.8285" lon="-0.71792">
        <ele>166</ele>
        <time>2026-04-26T21:06:00.061Z</time>
      </trkpt>
      <trkpt lat="46.82833" lon="-0.71802">
        <ele>166</ele>
        <time>2026-04-26T21:06:03.013Z</time>
      </trkpt>
      <trkpt lat="46.82881" lon="-0.7187">
        <ele>168</ele>
        <time>2026-04-26T21:06:17.740Z</time>
      </trkpt>
      <trkpt lat="46.82881" lon="-0.71869">
        <ele>168</ele>
        <time>2026-04-26T21:06:17.850Z</time>
      </trkpt>
      <trkpt lat="46.83014" lon="-0.72048">
        <ele>164</ele>
        <time>2026-04-26T21:06:41.792Z</time>
      </trkpt>
      <trkpt lat="46.83031" lon="-0.72177">
        <ele>163</ele>
        <time>2026-04-26T21:06:54.864Z</time>
      </trkpt>
      <trkpt lat="46.83048" lon="-0.72337">
        <ele>166</ele>
        <time>2026-04-26T21:07:18.495Z</time>
      </trkpt>
      <trkpt lat="46.83089" lon="-0.72524">
        <ele>164</ele>
        <time>2026-04-26T21:07:37.404Z</time>
      </trkpt>
      <trkpt lat="46.83089" lon="-0.72636">
        <ele>165</ele>
        <time>2026-04-26T21:07:51.451Z</time>
      </trkpt>
      <trkpt lat="46.83071" lon="-0.72751">
        <ele>168</ele>
        <time>2026-04-26T21:08:10.806Z</time>
      </trkpt>
      <trkpt lat="46.83063" lon="-0.72846">
        <ele>169</ele>
        <time>2026-04-26T21:08:23.092Z</time>
      </trkpt>
      <trkpt lat="46.83063" lon="-0.72899">
        <ele>170</ele>
        <time>2026-04-26T21:08:30.870Z</time>
      </trkpt>
      <trkpt lat="46.83071" lon="-0.7296">
        <ele>169</ele>
        <time>2026-04-26T21:08:36.433Z</time>
      </trkpt>
      <trkpt lat="46.83079" lon="-0.73006">
        <ele>167</ele>
        <time>2026-04-26T21:08:39.671Z</time>
      </trkpt>
      <trkpt lat="46.83104" lon="-0.73067">
        <ele>164</ele>
        <time>2026-04-26T21:08:44.520Z</time>
      </trkpt>
      <trkpt lat="46.83117" lon="-0.73089">
        <ele>163</ele>
        <time>2026-04-26T21:08:46.654Z</time>
      </trkpt>
      <trkpt lat="46.83148" lon="-0.73149">
        <ele>160</ele>
        <time>2026-04-26T21:08:51.891Z</time>
      </trkpt>
      <trkpt lat="46.83209" lon="-0.73281">
        <ele>151</ele>
        <time>2026-04-26T21:09:02.422Z</time>
      </trkpt>
      <trkpt lat="46.83257" lon="-0.73379">
        <ele>149</ele>
        <time>2026-04-26T21:09:13.153Z</time>
      </trkpt>
      <trkpt lat="46.83329" lon="-0.73445">
        <ele>150</ele>
        <time>2026-04-26T21:09:28.529Z</time>
      </trkpt>
      <trkpt lat="46.8347" lon="-0.73569">
        <ele>159</ele>
        <time>2026-04-26T21:10:17.640Z</time>
      </trkpt>
      <trkpt lat="46.83488" lon="-0.73623">
        <ele>161</ele>
        <time>2026-04-26T21:10:28.992Z</time>
      </trkpt>
      <trkpt lat="46.83521" lon="-0.73779">
        <ele>164</ele>
        <time>2026-04-26T21:10:52.761Z</time>
      </trkpt>
      <trkpt lat="46.8355" lon="-0.73865">
        <ele>166</ele>
        <time>2026-04-26T21:11:07.307Z</time>
      </trkpt>
      <trkpt lat="46.83586" lon="-0.74005">
        <ele>168</ele>
        <time>2026-04-26T21:11:27.394Z</time>
      </trkpt>
      <trkpt lat="46.83623" lon="-0.74101">
        <ele>170</ele>
        <time>2026-04-26T21:11:43.375Z</time>
      </trkpt>
      <trkpt lat="46.83655" lon="-0.74197">
        <ele>172</ele>
        <time>2026-04-26T21:11:59.011Z</time>
      </trkpt>
      <trkpt lat="46.83682" lon="-0.74327">
        <ele>178</ele>
        <time>2026-04-26T21:12:30.615Z</time>
      </trkpt>
      <trkpt lat="46.83694" lon="-0.74421">
        <ele>178</ele>
        <time>2026-04-26T21:12:41.151Z</time>
      </trkpt>
      <trkpt lat="46.83693" lon="-0.74604">
        <ele>169</ele>
        <time>2026-04-26T21:12:53.248Z</time>
      </trkpt>
      <trkpt lat="46.83674" lon="-0.74691">
        <ele>167</ele>
        <time>2026-04-26T21:13:00.897Z</time>
      </trkpt>
      <trkpt lat="46.8367" lon="-0.74816">
        <ele>165</ele>
        <time>2026-04-26T21:13:12.119Z</time>
      </trkpt>
      <trkpt lat="46.83675" lon="-0.74872">
        <ele>165</ele>
        <time>2026-04-26T21:13:18.341Z</time>
      </trkpt>
      <trkpt lat="46.83704" lon="-0.75025">
        <ele>166</ele>
        <time>2026-04-26T21:13:37.485Z</time>
      </trkpt>
      <trkpt lat="46.83737" lon="-0.75082">
        <ele>168</ele>
        <time>2026-04-26T21:13:50.030Z</time>
      </trkpt>
      <trkpt lat="46.83739" lon="-0.75114">
        <ele>169</ele>
        <time>2026-04-26T21:13:55.865Z</time>
      </trkpt>
      <trkpt lat="46.83724" lon="-0.75179">
        <ele>171</ele>
        <time>2026-04-26T21:14:07.886Z</time>
      </trkpt>
      <trkpt lat="46.83681" lon="-0.75267">
        <ele>173</ele>
        <time>2026-04-26T21:14:23.659Z</time>
      </trkpt>
      <trkpt lat="46.83679" lon="-0.75332">
        <ele>175</ele>
        <time>2026-04-26T21:14:35.393Z</time>
      </trkpt>
      <trkpt lat="46.83701" lon="-0.75398">
        <ele>177</ele>
        <time>2026-04-26T21:14:47.827Z</time>
      </trkpt>
      <trkpt lat="46.83749" lon="-0.75505">
        <ele>180</ele>
        <time>2026-04-26T21:15:08.110Z</time>
      </trkpt>
      <trkpt lat="46.83768" lon="-0.75537">
        <ele>181</ele>
        <time>2026-04-26T21:15:14.845Z</time>
      </trkpt>
      <trkpt lat="46.83778" lon="-0.7558">
        <ele>182</ele>
        <time>2026-04-26T21:15:21.871Z</time>
      </trkpt>
      <trkpt lat="46.83773" lon="-0.75657">
        <ele>181</ele>
        <time>2026-04-26T21:15:29.068Z</time>
      </trkpt>
      <trkpt lat="46.83782" lon="-0.75732">
        <ele>181</ele>
        <time>2026-04-26T21:15:37.457Z</time>
      </trkpt>
      <trkpt lat="46.838" lon="-0.75785">
        <ele>180</ele>
        <time>2026-04-26T21:15:42.706Z</time>
      </trkpt>
      <trkpt lat="46.83898" lon="-0.75952">
        <ele>180</ele>
        <time>2026-04-26T21:16:06.948Z</time>
      </trkpt>
      <trkpt lat="46.83935" lon="-0.7604">
        <ele>179</ele>
        <time>2026-04-26T21:16:16.956Z</time>
      </trkpt>
      <trkpt lat="46.83959" lon="-0.76135">
        <ele>179</ele>
        <time>2026-04-26T21:16:28.113Z</time>
      </trkpt>
      <trkpt lat="46.83998" lon="-0.76318">
        <ele>177</ele>
        <time>2026-04-26T21:16:46.508Z</time>
      </trkpt>
      <trkpt lat="46.84003" lon="-0.76451">
        <ele>174</ele>
        <time>2026-04-26T21:16:57.586Z</time>
      </trkpt>
      <trkpt lat="46.84001" lon="-0.76567">
        <ele>170</ele>
        <time>2026-04-26T21:17:06.097Z</time>
      </trkpt>
      <trkpt lat="46.83994" lon="-0.7662">
        <ele>167</ele>
        <time>2026-04-26T21:17:09.665Z</time>
      </trkpt>
      <trkpt lat="46.83994" lon="-0.76642">
        <ele>166</ele>
        <time>2026-04-26T21:17:11.122Z</time>
      </trkpt>
      <trkpt lat="46.83998" lon="-0.76694">
        <ele>164</ele>
        <time>2026-04-26T21:17:14.823Z</time>
      </trkpt>
      <trkpt lat="46.84044" lon="-0.76978">
        <ele>152</ele>
        <time>2026-04-26T21:17:34.916Z</time>
      </trkpt>
      <trkpt lat="46.84066" lon="-0.77148">
        <ele>147</ele>
        <time>2026-04-26T21:17:48.347Z</time>
      </trkpt>
      <trkpt lat="46.8408" lon="-0.77233">
        <ele>146</ele>
        <time>2026-04-26T21:17:56.633Z</time>
      </trkpt>
      <trkpt lat="46.84094" lon="-0.77272">
        <ele>146.7</ele>
        <time>2026-04-26T21:18:02.800Z</time>
      </trkpt>
      <trkpt lat="46.84094" lon="-0.77306">
        <ele>146</ele>
        <time>2026-04-26T21:18:05.658Z</time>
      </trkpt>
      <trkpt lat="46.8409" lon="-0.77319">
        <ele>145</ele>
        <time>2026-04-26T21:18:06.601Z</time>
      </trkpt>
      <trkpt lat="46.84067" lon="-0.77322">
        <ele>145</ele>
        <time>2026-04-26T21:18:10.320Z</time>
      </trkpt>
      <trkpt lat="46.83993" lon="-0.77323">
        <ele>142</ele>
        <time>2026-04-26T21:18:18.822Z</time>
      </trkpt>
      <trkpt lat="46.83981" lon="-0.77333">
        <ele>142</ele>
        <time>2026-04-26T21:18:21.047Z</time>
      </trkpt>
      <trkpt lat="46.8397" lon="-0.77346">
        <ele>142</ele>
        <time>2026-04-26T21:18:23.325Z</time>
      </trkpt>
      <trkpt lat="46.83946" lon="-0.77401">
        <ele>143</ele>
        <time>2026-04-26T21:18:32.363Z</time>
      </trkpt>
      <trkpt lat="46.83934" lon="-0.77419">
        <ele>144</ele>
        <time>2026-04-26T21:18:37.732Z</time>
      </trkpt>
      <trkpt lat="46.83913" lon="-0.77442">
        <ele>143.9</ele>
        <time>2026-04-26T21:18:41.901Z</time>
      </trkpt>
      <trkpt lat="46.83891" lon="-0.77449">
        <ele>144</ele>
        <time>2026-04-26T21:18:45.618Z</time>
      </trkpt>
      <trkpt lat="46.83855" lon="-0.77458">
        <ele>144</ele>
        <time>2026-04-26T21:18:51.449Z</time>
      </trkpt>
      <trkpt lat="46.83824" lon="-0.77468">
        <ele>144.3</ele>
        <time>2026-04-26T21:18:57.137Z</time>
      </trkpt>
      <trkpt lat="46.83803" lon="-0.77472">
        <ele>145</ele>
        <time>2026-04-26T21:19:01.917Z</time>
      </trkpt>
      <trkpt lat="46.83775" lon="-0.77486">
        <ele>145</ele>
        <time>2026-04-26T21:19:06.776Z</time>
      </trkpt>
      <trkpt lat="46.8374" lon="-0.77515">
        <ele>145.7</ele>
        <time>2026-04-26T21:19:14.397Z</time>
      </trkpt>
      <trkpt lat="46.83743" lon="-0.77534">
        <ele>147</ele>
        <time>2026-04-26T21:19:21.415Z</time>
      </trkpt>
      <trkpt lat="46.83763" lon="-0.77663">
        <ele>147.9</ele>
        <time>2026-04-26T21:19:37.456Z</time>
      </trkpt>
      <trkpt lat="46.83778" lon="-0.77684">
        <ele>148</ele>
        <time>2026-04-26T21:19:40.960Z</time>
      </trkpt>
      <trkpt lat="46.83794" lon="-0.77696">
        <ele>147.4</ele>
        <time>2026-04-26T21:19:43.225Z</time>
      </trkpt>
      <trkpt lat="46.83813" lon="-0.77705">
        <ele>147</ele>
        <time>2026-04-26T21:19:45.823Z</time>
      </trkpt>
      <trkpt lat="46.83841" lon="-0.7771">
        <ele>146.7</ele>
        <time>2026-04-26T21:19:50.040Z</time>
      </trkpt>
      <trkpt lat="46.83858" lon="-0.77716">
        <ele>146.1</ele>
        <time>2026-04-26T21:19:52.124Z</time>
      </trkpt>
      <trkpt lat="46.83869" lon="-0.7773">
        <ele>145.7</ele>
        <time>2026-04-26T21:19:54.009Z</time>
      </trkpt>
      <trkpt lat="46.83885" lon="-0.7775">
        <ele>145.1</ele>
        <time>2026-04-26T21:19:56.628Z</time>
      </trkpt>
      <trkpt lat="46.83911" lon="-0.77784">
        <ele>144.2</ele>
        <time>2026-04-26T21:20:01.062Z</time>
      </trkpt>
      <trkpt lat="46.83937" lon="-0.77818">
        <ele>143.9</ele>
        <time>2026-04-26T21:20:06.278Z</time>
      </trkpt>
      <trkpt lat="46.83957" lon="-0.77855">
        <ele>143.5</ele>
        <time>2026-04-26T21:20:10.891Z</time>
      </trkpt>
      <trkpt lat="46.8397" lon="-0.77894">
        <ele>144.7</ele>
        <time>2026-04-26T21:20:18.276Z</time>
      </trkpt>
      <trkpt lat="46.84053" lon="-0.78208">
        <ele>143</ele>
        <time>2026-04-26T21:20:52.953Z</time>
      </trkpt>
      <trkpt lat="46.84079" lon="-0.78318">
        <ele>143</ele>
        <time>2026-04-26T21:21:05.775Z</time>
      </trkpt>
      <trkpt lat="46.84084" lon="-0.78377">
        <ele>144</ele>
        <time>2026-04-26T21:21:14.211Z</time>
      </trkpt>
      <trkpt lat="46.84089" lon="-0.78516">
        <ele>144</ele>
        <time>2026-04-26T21:21:29.546Z</time>
      </trkpt>
      <trkpt lat="46.84096" lon="-0.78598">
        <ele>146</ele>
        <time>2026-04-26T21:21:42.817Z</time>
      </trkpt>
      <trkpt lat="46.8411" lon="-0.78652">
        <ele>148</ele>
        <time>2026-04-26T21:21:54.005Z</time>
      </trkpt>
      <trkpt lat="46.84136" lon="-0.78736">
        <ele>150</ele>
        <time>2026-04-26T21:22:08.189Z</time>
      </trkpt>
      <trkpt lat="46.84156" lon="-0.78806">
        <ele>151</ele>
        <time>2026-04-26T21:22:18.346Z</time>
      </trkpt>
      <trkpt lat="46.84166" lon="-0.7886">
        <ele>152</ele>
        <time>2026-04-26T21:22:26.423Z</time>
      </trkpt>
      <trkpt lat="46.84167" lon="-0.78906">
        <ele>153</ele>
        <time>2026-04-26T21:22:33.507Z</time>
      </trkpt>
      <trkpt lat="46.84163" lon="-0.78991">
        <ele>155</ele>
        <time>2026-04-26T21:22:47.019Z</time>
      </trkpt>
      <trkpt lat="46.84154" lon="-0.7906">
        <ele>157</ele>
        <time>2026-04-26T21:22:59.179Z</time>
      </trkpt>
      <trkpt lat="46.84138" lon="-0.7914">
        <ele>161</ele>
        <time>2026-04-26T21:23:20.091Z</time>
      </trkpt>
      <trkpt lat="46.84134" lon="-0.79179">
        <ele>163</ele>
        <time>2026-04-26T21:23:30.536Z</time>
      </trkpt>
      <trkpt lat="46.84137" lon="-0.79231">
        <ele>164</ele>
        <time>2026-04-26T21:23:38.232Z</time>
      </trkpt>
      <trkpt lat="46.84142" lon="-0.79274">
        <ele>164</ele>
        <time>2026-04-26T21:23:43.037Z</time>
      </trkpt>
      <trkpt lat="46.84155" lon="-0.79346">
        <ele>164</ele>
        <time>2026-04-26T21:23:51.241Z</time>
      </trkpt>
      <trkpt lat="46.84177" lon="-0.79439">
        <ele>163</ele>
        <time>2026-04-26T21:24:00.717Z</time>
      </trkpt>
      <trkpt lat="46.84199" lon="-0.79538">
        <ele>162.8</ele>
        <time>2026-04-26T21:24:11.904Z</time>
      </trkpt>
      <trkpt lat="46.84226" lon="-0.7965">
        <ele>163.1</ele>
        <time>2026-04-26T21:24:25.409Z</time>
      </trkpt>
      <trkpt lat="46.84287" lon="-0.79931">
        <ele>161</ele>
        <time>2026-04-26T21:24:54.955Z</time>
      </trkpt>
      <trkpt lat="46.84298" lon="-0.79979">
        <ele>160</ele>
        <time>2026-04-26T21:24:59.299Z</time>
      </trkpt>
      <trkpt lat="46.84304" lon="-0.80015">
        <ele>160</ele>
        <time>2026-04-26T21:25:03.381Z</time>
      </trkpt>
      <trkpt lat="46.84304" lon="-0.80072">
        <ele>159</ele>
        <time>2026-04-26T21:25:08.406Z</time>
      </trkpt>
      <trkpt lat="46.84301" lon="-0.8015">
        <ele>157.2</ele>
        <time>2026-04-26T21:25:14.802Z</time>
      </trkpt>
      <trkpt lat="46.84299" lon="-0.80203">
        <ele>156.8</ele>
        <time>2026-04-26T21:25:20.096Z</time>
      </trkpt>
      <trkpt lat="46.84303" lon="-0.8024">
        <ele>156</ele>
        <time>2026-04-26T21:25:23.297Z</time>
      </trkpt>
      <trkpt lat="46.8431" lon="-0.80282">
        <ele>156</ele>
        <time>2026-04-26T21:25:28.059Z</time>
      </trkpt>
      <trkpt lat="46.84324" lon="-0.80325">
        <ele>156.4</ele>
        <time>2026-04-26T21:25:33.950Z</time>
      </trkpt>
      <trkpt lat="46.84332" lon="-0.80364">
        <ele>156</ele>
        <time>2026-04-26T21:25:37.921Z</time>
      </trkpt>
      <trkpt lat="46.8433" lon="-0.80399">
        <ele>156.2</ele>
        <time>2026-04-26T21:25:42.121Z</time>
      </trkpt>
      <trkpt lat="46.84328" lon="-0.80489">
        <ele>155</ele>
        <time>2026-04-26T21:25:50.407Z</time>
      </trkpt>
      <trkpt lat="46.84329" lon="-0.80526">
        <ele>155</ele>
        <time>2026-04-26T21:25:54.533Z</time>
      </trkpt>
      <trkpt lat="46.84331" lon="-0.80573">
        <ele>152.7</ele>
        <time>2026-04-26T21:25:57.632Z</time>
      </trkpt>
      <trkpt lat="46.84341" lon="-0.80618">
        <ele>153</ele>
        <time>2026-04-26T21:26:03.354Z</time>
      </trkpt>
      <trkpt lat="46.84355" lon="-0.80656">
        <ele>151</ele>
        <time>2026-04-26T21:26:06.207Z</time>
      </trkpt>
      <trkpt lat="46.84375" lon="-0.80682">
        <ele>149</ele>
        <time>2026-04-26T21:26:08.793Z</time>
      </trkpt>
      <trkpt lat="46.84411" lon="-0.80706">
        <ele>147</ele>
        <time>2026-04-26T21:26:13.031Z</time>
      </trkpt>
      <trkpt lat="46.84434" lon="-0.80704">
        <ele>147</ele>
        <time>2026-04-26T21:26:16.742Z</time>
      </trkpt>
      <trkpt lat="46.84542" lon="-0.80668">
        <ele>148</ele>
        <time>2026-04-26T21:26:36.232Z</time>
      </trkpt>
      <trkpt lat="46.84584" lon="-0.80679">
        <ele>147</ele>
        <time>2026-04-26T21:26:41.822Z</time>
      </trkpt>
      <trkpt lat="46.84638" lon="-0.80727">
        <ele>150</ele>
        <time>2026-04-26T21:26:59.019Z</time>
      </trkpt>
      <trkpt lat="46.84828" lon="-0.80928">
        <ele>152</ele>
        <time>2026-04-26T21:27:40.074Z</time>
      </trkpt>
      <trkpt lat="46.84911" lon="-0.81019">
        <ele>147</ele>
        <time>2026-04-26T21:27:51.367Z</time>
      </trkpt>
      <trkpt lat="46.84937" lon="-0.81059">
        <ele>147</ele>
        <time>2026-04-26T21:27:57.445Z</time>
      </trkpt>
      <trkpt lat="46.84955" lon="-0.81109">
        <ele>147</ele>
        <time>2026-04-26T21:28:03.669Z</time>
      </trkpt>
      <trkpt lat="46.85023" lon="-0.81384">
        <ele>146</ele>
        <time>2026-04-26T21:28:34.408Z</time>
      </trkpt>
      <trkpt lat="46.85037" lon="-0.81418">
        <ele>147</ele>
        <time>2026-04-26T21:28:40.892Z</time>
      </trkpt>
      <trkpt lat="46.85073" lon="-0.81458">
        <ele>146.5</ele>
        <time>2026-04-26T21:28:47.504Z</time>
      </trkpt>
      <trkpt lat="46.8513" lon="-0.81492">
        <ele>148.4</ele>
        <time>2026-04-26T21:29:01.132Z</time>
      </trkpt>
      <trkpt lat="46.85143" lon="-0.81508">
        <ele>149.2</ele>
        <time>2026-04-26T21:29:05.765Z</time>
      </trkpt>
      <trkpt lat="46.85169" lon="-0.81551">
        <ele>151.1</ele>
        <time>2026-04-26T21:29:16.541Z</time>
      </trkpt>
      <trkpt lat="46.85198" lon="-0.81611">
        <ele>153.1</ele>
        <time>2026-04-26T21:29:29.070Z</time>
      </trkpt>
      <trkpt lat="46.85238" lon="-0.81666">
        <ele>154.6</ele>
        <time>2026-04-26T21:29:40.783Z</time>
      </trkpt>
      <trkpt lat="46.85267" lon="-0.81687">
        <ele>156</ele>
        <time>2026-04-26T21:29:49.098Z</time>
      </trkpt>
      <trkpt lat="46.85283" lon="-0.81704">
        <ele>157.3</ele>
        <time>2026-04-26T21:29:55.946Z</time>
      </trkpt>
      <trkpt lat="46.85318" lon="-0.8171">
        <ele>159.5</ele>
        <time>2026-04-26T21:30:07.580Z</time>
      </trkpt>
      <trkpt lat="46.8535" lon="-0.81749">
        <ele>162.2</ele>
        <time>2026-04-26T21:30:21.791Z</time>
      </trkpt>
      <trkpt lat="46.85363" lon="-0.81774">
        <ele>164</ele>
        <time>2026-04-26T21:30:31.280Z</time>
      </trkpt>
      <trkpt lat="46.85369" lon="-0.81796">
        <ele>166</ele>
        <time>2026-04-26T21:30:42.150Z</time>
      </trkpt>
      <trkpt lat="46.85368" lon="-0.81844">
        <ele>170</ele>
        <time>2026-04-26T21:31:03.992Z</time>
      </trkpt>
      <trkpt lat="46.85373" lon="-0.81861">
        <ele>171</ele>
        <time>2026-04-26T21:31:09.229Z</time>
      </trkpt>
      <trkpt lat="46.85385" lon="-0.81868">
        <ele>174</ele>
        <time>2026-04-26T21:31:18.147Z</time>
      </trkpt>
      <trkpt lat="46.85416" lon="-0.81864">
        <ele>179</ele>
        <time>2026-04-26T21:31:39.628Z</time>
      </trkpt>
      <trkpt lat="46.85467" lon="-0.81882">
        <ele>185</ele>
        <time>2026-04-26T21:32:12.725Z</time>
      </trkpt>
      <trkpt lat="46.85492" lon="-0.81892">
        <ele>187.4</ele>
        <time>2026-04-26T21:32:25.592Z</time>
      </trkpt>
      <trkpt lat="46.85511" lon="-0.81908">
        <ele>189.3</ele>
        <time>2026-04-26T21:32:35.674Z</time>
      </trkpt>
      <trkpt lat="46.85518" lon="-0.81936">
        <ele>193.6</ele>
        <time>2026-04-26T21:32:49.841Z</time>
      </trkpt>
      <trkpt lat="46.85517" lon="-0.8196">
        <ele>196.6</ele>
        <time>2026-04-26T21:33:00.948Z</time>
      </trkpt>
      <trkpt lat="46.85505" lon="-0.81985">
        <ele>198.5</ele>
        <time>2026-04-26T21:33:11.038Z</time>
      </trkpt>
      <trkpt lat="46.85502" lon="-0.82004">
        <ele>199</ele>
        <time>2026-04-26T21:33:14.194Z</time>
      </trkpt>
      <trkpt lat="46.85514" lon="-0.82043">
        <ele>195</ele>
        <time>2026-04-26T21:33:17.035Z</time>
      </trkpt>
      <trkpt lat="46.85547" lon="-0.8207">
        <ele>195</ele>
        <time>2026-04-26T21:33:23.126Z</time>
      </trkpt>
      <trkpt lat="46.85562" lon="-0.82072">
        <ele>195</ele>
        <time>2026-04-26T21:33:25.552Z</time>
      </trkpt>
      <trkpt lat="46.85624" lon="-0.82132">
        <ele>188</ele>
        <time>2026-04-26T21:33:32.736Z</time>
      </trkpt>
      <trkpt lat="46.85647" lon="-0.82143">
        <ele>186</ele>
        <time>2026-04-26T21:33:35.075Z</time>
      </trkpt>
      <trkpt lat="46.85666" lon="-0.82147">
        <ele>185</ele>
        <time>2026-04-26T21:33:37.110Z</time>
      </trkpt>
      <trkpt lat="46.85708" lon="-0.82145">
        <ele>178</ele>
        <time>2026-04-26T21:33:41.171Z</time>
      </trkpt>
      <trkpt lat="46.85729" lon="-0.82147">
        <ele>175</ele>
        <time>2026-04-26T21:33:43.204Z</time>
      </trkpt>
      <trkpt lat="46.85742" lon="-0.82154">
        <ele>173</ele>
        <time>2026-04-26T21:33:44.543Z</time>
      </trkpt>
      <trkpt lat="46.85756" lon="-0.82171">
        <ele>172</ele>
        <time>2026-04-26T21:33:46.436Z</time>
      </trkpt>
      <trkpt lat="46.85774" lon="-0.82231">
        <ele>171</ele>
        <time>2026-04-26T21:33:52.360Z</time>
      </trkpt>
      <trkpt lat="46.85775" lon="-0.82261">
        <ele>170</ele>
        <time>2026-04-26T21:33:54.588Z</time>
      </trkpt>
      <trkpt lat="46.85768" lon="-0.82308">
        <ele>170</ele>
        <time>2026-04-26T21:33:59.886Z</time>
      </trkpt>
      <trkpt lat="46.85762" lon="-0.82399">
        <ele>171</ele>
        <time>2026-04-26T21:34:11.704Z</time>
      </trkpt>
      <trkpt lat="46.85803" lon="-0.82414">
        <ele>171</ele>
        <time>2026-04-26T21:34:18.511Z</time>
      </trkpt>
      <trkpt lat="46.85822" lon="-0.82426">
        <ele>172</ele>
        <time>2026-04-26T21:34:24.203Z</time>
      </trkpt>
      <trkpt lat="46.85834" lon="-0.82433">
        <ele>172</ele>
        <time>2026-04-26T21:34:26.284Z</time>
      </trkpt>
      <trkpt lat="46.8586" lon="-0.82461">
        <ele>172</ele>
        <time>2026-04-26T21:34:31.484Z</time>
      </trkpt>
      <trkpt lat="46.8588" lon="-0.8249">
        <ele>172</ele>
        <time>2026-04-26T21:34:36.020Z</time>
      </trkpt>
      <trkpt lat="46.859" lon="-0.82528">
        <ele>172</ele>
        <time>2026-04-26T21:34:41.302Z</time>
      </trkpt>
      <trkpt lat="46.8592" lon="-0.82573">
        <ele>173</ele>
        <time>2026-04-26T21:34:49.145Z</time>
      </trkpt>
      <trkpt lat="46.85938" lon="-0.82608">
        <ele>173</ele>
        <time>2026-04-26T21:34:53.968Z</time>
      </trkpt>
      <trkpt lat="46.86008" lon="-0.82711">
        <ele>169</ele>
        <time>2026-04-26T21:35:05.398Z</time>
      </trkpt>
      <trkpt lat="46.86096" lon="-0.82853">
        <ele>168</ele>
        <time>2026-04-26T21:35:25.061Z</time>
      </trkpt>
      <trkpt lat="46.86132" lon="-0.82935">
        <ele>166</ele>
        <time>2026-04-26T21:35:33.346Z</time>
      </trkpt>
      <trkpt lat="46.86167" lon="-0.83007">
        <ele>165</ele>
        <time>2026-04-26T21:35:41.726Z</time>
      </trkpt>
      <trkpt lat="46.86187" lon="-0.83077">
        <ele>167</ele>
        <time>2026-04-26T21:35:54.374Z</time>
      </trkpt>
      <trkpt lat="46.86218" lon="-0.83213">
        <ele>169</ele>
        <time>2026-04-26T21:36:13.798Z</time>
      </trkpt>
      <trkpt lat="46.86238" lon="-0.83278">
        <ele>170</ele>
        <time>2026-04-26T21:36:23.467Z</time>
      </trkpt>
      <trkpt lat="46.86261" lon="-0.83345">
        <ele>173</ele>
        <time>2026-04-26T21:36:39.553Z</time>
      </trkpt>
      <trkpt lat="46.86279" lon="-0.83441">
        <ele>174</ele>
        <time>2026-04-26T21:36:52.245Z</time>
      </trkpt>
      <trkpt lat="46.86294" lon="-0.83545">
        <ele>175</ele>
        <time>2026-04-26T21:37:05.666Z</time>
      </trkpt>
      <trkpt lat="46.86308" lon="-0.836">
        <ele>175</ele>
        <time>2026-04-26T21:37:12.129Z</time>
      </trkpt>
      <trkpt lat="46.86357" lon="-0.83716">
        <ele>174</ele>
        <time>2026-04-26T21:37:25.736Z</time>
      </trkpt>
      <trkpt lat="46.86368" lon="-0.83758">
        <ele>174</ele>
        <time>2026-04-26T21:37:30.689Z</time>
      </trkpt>
      <trkpt lat="46.86373" lon="-0.83959">
        <ele>177</ele>
        <time>2026-04-26T21:37:58.361Z</time>
      </trkpt>
      <trkpt lat="46.8638" lon="-0.84032">
        <ele>176</ele>
        <time>2026-04-26T21:38:05.163Z</time>
      </trkpt>
      <trkpt lat="46.86382" lon="-0.84128">
        <ele>173</ele>
        <time>2026-04-26T21:38:12.436Z</time>
      </trkpt>
      <trkpt lat="46.86376" lon="-0.84394">
        <ele>167</ele>
        <time>2026-04-26T21:38:34.552Z</time>
      </trkpt>
      <trkpt lat="46.86378" lon="-0.84451">
        <ele>166</ele>
        <time>2026-04-26T21:38:39.575Z</time>
      </trkpt>
      <trkpt lat="46.86386" lon="-0.84501">
        <ele>165</ele>
        <time>2026-04-26T21:38:43.993Z</time>
      </trkpt>
      <trkpt lat="46.86502" lon="-0.84817">
        <ele>152</ele>
        <time>2026-04-26T21:39:09.833Z</time>
      </trkpt>
      <trkpt lat="46.86734" lon="-0.85428">
        <ele>163</ele>
        <time>2026-04-26T21:40:47.261Z</time>
      </trkpt>
      <trkpt lat="46.87097" lon="-0.86397">
        <ele>157</ele>
        <time>2026-04-26T21:42:40.295Z</time>
      </trkpt>
      <trkpt lat="46.87251" lon="-0.8682">
        <ele>155</ele>
        <time>2026-04-26T21:43:30.144Z</time>
      </trkpt>
      <trkpt lat="46.87278" lon="-0.86908">
        <ele>155</ele>
        <time>2026-04-26T21:43:40.764Z</time>
      </trkpt>
      <trkpt lat="46.87346" lon="-0.87093">
        <ele>155</ele>
        <time>2026-04-26T21:44:03.891Z</time>
      </trkpt>
      <trkpt lat="46.87432" lon="-0.87347">
        <ele>156</ele>
        <time>2026-04-26T21:44:36.696Z</time>
      </trkpt>
      <trkpt lat="46.87672" lon="-0.88079">
        <ele>164</ele>
        <time>2026-04-26T21:46:19.885Z</time>
      </trkpt>
      <trkpt lat="46.87939" lon="-0.88916">
        <ele>157</ele>
        <time>2026-04-26T21:47:51.742Z</time>
      </trkpt>
      <trkpt lat="46.87947" lon="-0.88933">
        <ele>157</ele>
        <time>2026-04-26T21:47:54.014Z</time>
      </trkpt>
      <trkpt lat="46.88021" lon="-0.89052">
        <ele>159</ele>
        <time>2026-04-26T21:48:15.291Z</time>
      </trkpt>
      <trkpt lat="46.88086" lon="-0.89162">
        <ele>162</ele>
        <time>2026-04-26T21:48:37.254Z</time>
      </trkpt>
      <trkpt lat="46.88094" lon="-0.89193">
        <ele>162</ele>
        <time>2026-04-26T21:48:40.902Z</time>
      </trkpt>
      <trkpt lat="46.88118" lon="-0.89388">
        <ele>166</ele>
        <time>2026-04-26T21:49:10.608Z</time>
      </trkpt>
      <trkpt lat="46.88145" lon="-0.89381">
        <ele>165</ele>
        <time>2026-04-26T21:49:13.854Z</time>
      </trkpt>
      <trkpt lat="46.88157" lon="-0.8938">
        <ele>164</ele>
        <time>2026-04-26T21:49:15.015Z</time>
      </trkpt>
      <trkpt lat="46.8817" lon="-0.89384">
        <ele>164</ele>
        <time>2026-04-26T21:49:17.155Z</time>
      </trkpt>
      <trkpt lat="46.88185" lon="-0.89394">
        <ele>164</ele>
        <time>2026-04-26T21:49:19.810Z</time>
      </trkpt>
      <trkpt lat="46.88241" lon="-0.89385">
        <ele>164</ele>
        <time>2026-04-26T21:49:28.883Z</time>
      </trkpt>
      <trkpt lat="46.88242" lon="-0.89381">
        <ele>164</ele>
        <time>2026-04-26T21:49:29.352Z</time>
      </trkpt>
      <trkpt lat="46.88245" lon="-0.89399">
        <ele>164</ele>
        <time>2026-04-26T21:49:31.392Z</time>
      </trkpt>
      <trkpt lat="46.88313" lon="-0.89378">
        <ele>168</ele>
        <time>2026-04-26T21:49:52.924Z</time>
      </trkpt>
      <trkpt lat="46.88321" lon="-0.89357">
        <ele>168</ele>
        <time>2026-04-26T21:49:55.571Z</time>
      </trkpt>
      <trkpt lat="46.88344" lon="-0.89363">
        <ele>169</ele>
        <time>2026-04-26T21:50:01.569Z</time>
      </trkpt>
      <trkpt lat="46.88351" lon="-0.89376">
        <ele>170</ele>
        <time>2026-04-26T21:50:06.881Z</time>
      </trkpt>
      <trkpt lat="46.88355" lon="-0.89422">
        <ele>171</ele>
        <time>2026-04-26T21:50:13.996Z</time>
      </trkpt>
      <trkpt lat="46.88363" lon="-0.89465">
        <ele>172</ele>
        <time>2026-04-26T21:50:20.936Z</time>
      </trkpt>
      <trkpt lat="46.88366" lon="-0.89521">
        <ele>173</ele>
        <time>2026-04-26T21:50:29.031Z</time>
      </trkpt>
      <trkpt lat="46.88362" lon="-0.89566">
        <ele>174</ele>
        <time>2026-04-26T21:50:36.050Z</time>
      </trkpt>
      <trkpt lat="46.88363" lon="-0.89604">
        <ele>175</ele>
        <time>2026-04-26T21:50:42.381Z</time>
      </trkpt>
      <trkpt lat="46.88368" lon="-0.89632">
        <ele>176</ele>
        <time>2026-04-26T21:50:47.978Z</time>
      </trkpt>
      <trkpt lat="46.8837" lon="-0.89683">
        <ele>177</ele>
        <time>2026-04-26T21:50:55.559Z</time>
      </trkpt>
      <trkpt lat="46.88369" lon="-0.89722">
        <ele>179</ele>
        <time>2026-04-26T21:51:06.007Z</time>
      </trkpt>
      <trkpt lat="46.88365" lon="-0.89753">
        <ele>180</ele>
        <time>2026-04-26T21:51:11.794Z</time>
      </trkpt>
      <trkpt lat="46.88358" lon="-0.8978">
        <ele>181</ele>
        <time>2026-04-26T21:51:17.387Z</time>
      </trkpt>
      <trkpt lat="46.88358" lon="-0.8983">
        <ele>184</ele>
        <time>2026-04-26T21:51:33.304Z</time>
      </trkpt>
      <trkpt lat="46.88353" lon="-0.89876">
        <ele>185</ele>
        <time>2026-04-26T21:51:40.439Z</time>
      </trkpt>
      <trkpt lat="46.88359" lon="-0.89913">
        <ele>186</ele>
        <time>2026-04-26T21:51:46.770Z</time>
      </trkpt>
      <trkpt lat="46.88365" lon="-0.89925">
        <ele>187</ele>
        <time>2026-04-26T21:51:52.192Z</time>
      </trkpt>
      <trkpt lat="46.88361" lon="-0.8995">
        <ele>188</ele>
        <time>2026-04-26T21:51:57.588Z</time>
      </trkpt>
      <trkpt lat="46.8836" lon="-0.89965">
        <ele>189</ele>
        <time>2026-04-26T21:52:02.995Z</time>
      </trkpt>
      <trkpt lat="46.88362" lon="-0.8999">
        <ele>190</ele>
        <time>2026-04-26T21:52:08.365Z</time>
      </trkpt>
      <trkpt lat="46.88368" lon="-0.90024">
        <ele>192</ele>
        <time>2026-04-26T21:52:18.896Z</time>
      </trkpt>
      <trkpt lat="46.88363" lon="-0.90105">
        <ele>195</ele>
        <time>2026-04-26T21:52:35.331Z</time>
      </trkpt>
      <trkpt lat="46.88357" lon="-0.90176">
        <ele>196</ele>
        <time>2026-04-26T21:52:45.025Z</time>
      </trkpt>
      <trkpt lat="46.88335" lon="-0.90323">
        <ele>200</ele>
        <time>2026-04-26T21:53:10.205Z</time>
      </trkpt>
      <trkpt lat="46.88312" lon="-0.90443">
        <ele>199</ele>
        <time>2026-04-26T21:53:22.527Z</time>
      </trkpt>
      <trkpt lat="46.88309" lon="-0.90479">
        <ele>200</ele>
        <time>2026-04-26T21:53:28.703Z</time>
      </trkpt>
      <trkpt lat="46.88307" lon="-0.90507">
        <ele>200</ele>
        <time>2026-04-26T21:53:31.802Z</time>
      </trkpt>
      <trkpt lat="46.88315" lon="-0.90557">
        <ele>202</ele>
        <time>2026-04-26T21:53:42.595Z</time>
      </trkpt>
      <trkpt lat="46.8833" lon="-0.90625">
        <ele>204</ele>
        <time>2026-04-26T21:53:54.853Z</time>
      </trkpt>
      <trkpt lat="46.88362" lon="-0.90745">
        <ele>208</ele>
        <time>2026-04-26T21:54:18.206Z</time>
      </trkpt>
      <trkpt lat="46.88367" lon="-0.90788">
        <ele>208</ele>
        <time>2026-04-26T21:54:23.008Z</time>
      </trkpt>
      <trkpt lat="46.88367" lon="-0.90812">
        <ele>208</ele>
        <time>2026-04-26T21:54:25.650Z</time>
      </trkpt>
      <trkpt lat="46.88362" lon="-0.90863">
        <ele>208</ele>
        <time>2026-04-26T21:54:31.321Z</time>
      </trkpt>
      <trkpt lat="46.88349" lon="-0.90911">
        <ele>207</ele>
        <time>2026-04-26T21:54:35.767Z</time>
      </trkpt>
      <trkpt lat="46.88339" lon="-0.90958">
        <ele>206</ele>
        <time>2026-04-26T21:54:39.959Z</time>
      </trkpt>
      <trkpt lat="46.88336" lon="-0.90998">
        <ele>205</ele>
        <time>2026-04-26T21:54:43.218Z</time>
      </trkpt>
      <trkpt lat="46.88339" lon="-0.91018">
        <ele>205</ele>
        <time>2026-04-26T21:54:45.472Z</time>
      </trkpt>
      <trkpt lat="46.88342" lon="-0.91026">
        <ele>206</ele>
        <time>2026-04-26T21:54:49.777Z</time>
        <extensions>
          <visugpx:TrkExtension xmlns:visugpx="https://www.visugpx.com/editgpx/">
            <visugpx:node>4</visugpx:node>
            </visugpx:TrkExtension>
        </extensions>
      </trkpt>
      <trkpt lat="46.88344" lon="-0.91029">
        <ele>209</ele>
        <time>2026-04-26T21:54:51.689Z</time>
      </trkpt>
      <trkpt lat="46.88345" lon="-0.91037">
        <ele>208.9</ele>
        <time>2026-04-26T21:54:52.448Z</time>
      </trkpt>
      <trkpt lat="46.88344" lon="-0.91045">
        <ele>208.8</ele>
        <time>2026-04-26T21:54:53.198Z</time>
      </trkpt>
      <trkpt lat="46.88343" lon="-0.91053">
        <ele>208.7</ele>
        <time>2026-04-26T21:54:53.945Z</time>
      </trkpt>
      <trkpt lat="46.8834" lon="-0.9106">
        <ele>208.8</ele>
        <time>2026-04-26T21:54:55.006Z</time>
      </trkpt>
      <trkpt lat="46.88336" lon="-0.91065">
        <ele>208.9</ele>
        <time>2026-04-26T21:54:56.068Z</time>
      </trkpt>
      <trkpt lat="46.88331" lon="-0.91069">
        <ele>209</ele>
        <time>2026-04-26T21:54:57.136Z</time>
      </trkpt>
      <trkpt lat="46.88334" lon="-0.91081">
        <ele>209</ele>
        <time>2026-04-26T21:54:58.522Z</time>
      </trkpt>
      <trkpt lat="46.88336" lon="-0.91099">
        <ele>208.9</ele>
        <time>2026-04-26T21:55:00.413Z</time>
      </trkpt>
      <trkpt lat="46.88336" lon="-0.91112">
        <ele>208.9</ele>
        <time>2026-04-26T21:55:01.855Z</time>
      </trkpt>
      <trkpt lat="46.88335" lon="-0.91123">
        <ele>209.3</ele>
        <time>2026-04-26T21:55:04.031Z</time>
      </trkpt>
      <trkpt lat="46.88331" lon="-0.91141">
        <ele>210.2</ele>
        <time>2026-04-26T21:55:08.738Z</time>
      </trkpt>
      <trkpt lat="46.88325" lon="-0.91156">
        <ele>211.5</ele>
        <time>2026-04-26T21:55:15.878Z</time>
      </trkpt>
      <trkpt lat="46.88317" lon="-0.91169">
        <ele>212.8</ele>
        <time>2026-04-26T21:55:23.046Z</time>
      </trkpt>
      <trkpt lat="46.88307" lon="-0.91179">
        <ele>213.9</ele>
        <time>2026-04-26T21:55:28.890Z</time>
      </trkpt>
      <trkpt lat="46.88292" lon="-0.91188">
        <ele>213.1</ele>
        <time>2026-04-26T21:55:30.556Z</time>
      </trkpt>
      <trkpt lat="46.88281" lon="-0.91191">
        <ele>212.1</ele>
        <time>2026-04-26T21:55:31.643Z</time>
      </trkpt>
      <trkpt lat="46.88265" lon="-0.91197">
        <ele>211.7</ele>
        <time>2026-04-26T21:55:33.849Z</time>
      </trkpt>
      <trkpt lat="46.8825" lon="-0.91219">
        <ele>210.1</ele>
        <time>2026-04-26T21:55:35.903Z</time>
      </trkpt>
      <trkpt lat="46.88234" lon="-0.91247">
        <ele>210.2</ele>
        <time>2026-04-26T21:55:40.026Z</time>
      </trkpt>
      <trkpt lat="46.88217" lon="-0.91275">
        <ele>209.4</ele>
        <time>2026-04-26T21:55:43.160Z</time>
      </trkpt>
      <trkpt lat="46.88204" lon="-0.91293">
        <ele>209.1</ele>
        <time>2026-04-26T21:55:45.640Z</time>
      </trkpt>
      <trkpt lat="46.88188" lon="-0.91312">
        <ele>208.4</ele>
        <time>2026-04-26T21:55:48.214Z</time>
      </trkpt>
      <trkpt lat="46.88168" lon="-0.91335">
        <ele>208.2</ele>
        <time>2026-04-26T21:55:51.979Z</time>
      </trkpt>
      <trkpt lat="46.88148" lon="-0.91358">
        <ele>207.5</ele>
        <time>2026-04-26T21:55:55.166Z</time>
      </trkpt>
      <trkpt lat="46.88118" lon="-0.91392">
        <ele>207.7</ele>
        <time>2026-04-26T21:56:01.649Z</time>
        <extensions>
          <visugpx:TrkExtension xmlns:visugpx="https://www.visugpx.com/editgpx/">
            <visugpx:node>5</visugpx:node>
            </visugpx:TrkExtension>
        </extensions>
      </trkpt>
      <trkpt lat="46.88102" lon="-0.91411">
        <ele>208</ele>
        <time>2026-04-26T21:56:05.490Z</time>
      </trkpt>
      <trkpt lat="46.88082" lon="-0.91439">
        <ele>208.5</ele>
        <time>2026-04-26T21:56:10.857Z</time>
      </trkpt>
      <trkpt lat="46.88065" lon="-0.91466">
        <ele>208.6</ele>
        <time>2026-04-26T21:56:15.060Z</time>
      </trkpt>
      <trkpt lat="46.88046" lon="-0.91505">
        <ele>208.1</ele>
        <time>2026-04-26T21:56:19.644Z</time>
      </trkpt>
      <trkpt lat="46.8802" lon="-0.91562">
        <ele>206.2</ele>
        <time>2026-04-26T21:56:24.966Z</time>
      </trkpt>
      <trkpt lat="46.87999" lon="-0.91619">
        <ele>206.2</ele>
        <time>2026-04-26T21:56:32.132Z</time>
      </trkpt>
      <trkpt lat="46.87956" lon="-0.91745">
        <ele>206.1</ele>
        <time>2026-04-26T21:56:47.518Z</time>
      </trkpt>
      <trkpt lat="46.87915" lon="-0.91868">
        <ele>203.8</ele>
        <time>2026-04-26T21:56:59.628Z</time>
      </trkpt>
      <trkpt lat="46.87854" lon="-0.92047">
        <ele>198.9</ele>
        <time>2026-04-26T21:57:15.887Z</time>
      </trkpt>
      <trkpt lat="46.87803" lon="-0.92198">
        <ele>198.4</ele>
        <time>2026-04-26T21:57:33.706Z</time>
      </trkpt>
      <trkpt lat="46.87788" lon="-0.92243">
        <ele>196.5</ele>
        <time>2026-04-26T21:57:37.262Z</time>
        <extensions>
          <visugpx:TrkExtension xmlns:visugpx="https://www.visugpx.com/editgpx/">
            <visugpx:node>6</visugpx:node>
            </visugpx:TrkExtension>
        </extensions>
      </trkpt>
      <trkpt lat="46.87787" lon="-0.92243">
        <ele>196.5</ele>
        <time>2026-04-26T21:57:37.299Z</time>
      </trkpt>
      <trkpt lat="46.87777" lon="-0.92276">
        <ele>195.9</ele>
        <time>2026-04-26T21:57:40.505Z</time>
      </trkpt>
      <trkpt lat="46.8777" lon="-0.92308">
        <ele>195.9</ele>
        <time>2026-04-26T21:57:44.219Z</time>
      </trkpt>
      <trkpt lat="46.87763" lon="-0.92346">
        <ele>194.6</ele>
        <time>2026-04-26T21:57:47.164Z</time>
      </trkpt>
      <trkpt lat="46.87753" lon="-0.92386">
        <ele>192.4</ele>
        <time>2026-04-26T21:57:49.947Z</time>
      </trkpt>
      <trkpt lat="46.8774" lon="-0.9242">
        <ele>192.7</ele>
        <time>2026-04-26T21:57:54.739Z</time>
      </trkpt>
      <trkpt lat="46.87721" lon="-0.92455">
        <ele>192.5</ele>
        <time>2026-04-26T21:57:59.388Z</time>
      </trkpt>
      <trkpt lat="46.87713" lon="-0.92472">
        <ele>192.6</ele>
        <time>2026-04-26T21:58:01.779Z</time>
      </trkpt>
      <trkpt lat="46.87708" lon="-0.92489">
        <ele>192</ele>
        <time>2026-04-26T21:58:03.164Z</time>
      </trkpt>
      <trkpt lat="46.87706" lon="-0.92509">
        <ele>191.9</ele>
        <time>2026-04-26T21:58:05.304Z</time>
      </trkpt>
      <trkpt lat="46.87701" lon="-0.92623">
        <ele>195.3</ele>
        <time>2026-04-26T21:58:25.508Z</time>
      </trkpt>
      <trkpt lat="46.87698" lon="-0.92641">
        <ele>195.7</ele>
        <time>2026-04-26T21:58:28.303Z</time>
      </trkpt>
      <trkpt lat="46.87694" lon="-0.92656">
        <ele>196.1</ele>
        <time>2026-04-26T21:58:30.970Z</time>
      </trkpt>
      <trkpt lat="46.8768" lon="-0.92688">
        <ele>194.1</ele>
        <time>2026-04-26T21:58:33.449Z</time>
      </trkpt>
      <trkpt lat="46.87678" lon="-0.92693">
        <ele>193.6</ele>
        <time>2026-04-26T21:58:33.897Z</time>
      </trkpt>
      <trkpt lat="46.87674" lon="-0.927">
        <ele>193.4</ele>
        <time>2026-04-26T21:58:34.521Z</time>
      </trkpt>
      <trkpt lat="46.87658" lon="-0.92729">
        <ele>194.4</ele>
        <time>2026-04-26T21:58:40.819Z</time>
      </trkpt>
      <trkpt lat="46.87641" lon="-0.9276">
        <ele>193.2</ele>
        <time>2026-04-26T21:58:43.910Z</time>
      </trkpt>
      <trkpt lat="46.8762" lon="-0.92796">
        <ele>189.6</ele>
        <time>2026-04-26T21:58:47.021Z</time>
      </trkpt>
      <trkpt lat="46.87614" lon="-0.92814">
        <ele>188.4</ele>
        <time>2026-04-26T21:58:48.344Z</time>
      </trkpt>
      <trkpt lat="46.8759" lon="-0.92957">
        <ele>181.4</ele>
        <time>2026-04-26T21:58:58.068Z</time>
      </trkpt>
      <trkpt lat="46.87587" lon="-0.92974">
        <ele>180.4</ele>
        <time>2026-04-26T21:58:59.222Z</time>
      </trkpt>
      <trkpt lat="46.87578" lon="-0.93016">
        <ele>177.4</ele>
        <time>2026-04-26T21:59:02.124Z</time>
      </trkpt>
      <trkpt lat="46.87567" lon="-0.93065">
        <ele>173.5</ele>
        <time>2026-04-26T21:59:05.534Z</time>
      </trkpt>
      <trkpt lat="46.87557" lon="-0.931">
        <ele>172.2</ele>
        <time>2026-04-26T21:59:08.345Z</time>
      </trkpt>
      <trkpt lat="46.87551" lon="-0.93117">
        <ele>171.2</ele>
        <time>2026-04-26T21:59:09.568Z</time>
      </trkpt>
      <trkpt lat="46.87544" lon="-0.93135">
        <ele>170.3</ele>
        <time>2026-04-26T21:59:11.007Z</time>
      </trkpt>
      <trkpt lat="46.87538" lon="-0.93146">
        <ele>169.7</ele>
        <time>2026-04-26T21:59:11.967Z</time>
      </trkpt>
      <trkpt lat="46.87532" lon="-0.93158">
        <ele>169.1</ele>
        <time>2026-04-26T21:59:13.040Z</time>
      </trkpt>
      <trkpt lat="46.87525" lon="-0.93167">
        <ele>168.6</ele>
        <time>2026-04-26T21:59:13.949Z</time>
      </trkpt>
      <trkpt lat="46.87499" lon="-0.932">
        <ele>166.1</ele>
        <time>2026-04-26T21:59:17.315Z</time>
      </trkpt>
      <trkpt lat="46.87492" lon="-0.9321">
        <ele>165.5</ele>
        <time>2026-04-26T21:59:18.253Z</time>
        <extensions>
          <visugpx:TrkExtension xmlns:visugpx="https://www.visugpx.com/editgpx/">
            <visugpx:node>7</visugpx:node>
            </visugpx:TrkExtension>
        </extensions>
      </trkpt>
      <trkpt lat="46.87488" lon="-0.93218">
        <ele>165</ele>
        <time>2026-04-26T21:59:18.918Z</time>
      </trkpt>
      <trkpt lat="46.87477" lon="-0.93235">
        <ele>163.7</ele>
        <time>2026-04-26T21:59:20.405Z</time>
      </trkpt>
      <trkpt lat="46.8747" lon="-0.93251">
        <ele>162.7</ele>
        <time>2026-04-26T21:59:21.682Z</time>
      </trkpt>
      <trkpt lat="46.87467" lon="-0.93257">
        <ele>162.3</ele>
        <time>2026-04-26T21:59:22.184Z</time>
      </trkpt>
      <trkpt lat="46.87461" lon="-0.93278">
        <ele>161.3</ele>
        <time>2026-04-26T21:59:23.735Z</time>
      </trkpt>
      <trkpt lat="46.87456" lon="-0.93299">
        <ele>161.4</ele>
        <time>2026-04-26T21:59:26.309Z</time>
      </trkpt>
      <trkpt lat="46.87452" lon="-0.93323">
        <ele>160.4</ele>
        <time>2026-04-26T21:59:28.022Z</time>
      </trkpt>
      <trkpt lat="46.87449" lon="-0.93351">
        <ele>159.6</ele>
        <time>2026-04-26T21:59:30.289Z</time>
      </trkpt>
      <trkpt lat="46.87444" lon="-0.93435">
        <ele>157.3</ele>
        <time>2026-04-26T21:59:36.880Z</time>
      </trkpt>
      <trkpt lat="46.87441" lon="-0.93491">
        <ele>155.4</ele>
        <time>2026-04-26T21:59:41.079Z</time>
      </trkpt>
      <trkpt lat="46.87439" lon="-0.93533">
        <ele>154.8</ele>
        <time>2026-04-26T21:59:44.882Z</time>
      </trkpt>
      <trkpt lat="46.8743" lon="-0.9368">
        <ele>151.5</ele>
        <time>2026-04-26T21:59:57.212Z</time>
      </trkpt>
      <trkpt lat="46.87427" lon="-0.93716">
        <ele>150.6</ele>
        <time>2026-04-26T22:00:00.110Z</time>
        <extensions>
          <visugpx:TrkExtension xmlns:visugpx="https://www.visugpx.com/editgpx/">
            <visugpx:node>8</visugpx:node>
            </visugpx:TrkExtension>
        </extensions>
      </trkpt>
      <trkpt lat="46.87427" lon="-0.93717">
        <ele>150.6</ele>
        <time>2026-04-26T22:00:00.243Z</time>
      </trkpt>
      <trkpt lat="46.87415" lon="-0.93785">
        <ele>149.6</ele>
        <time>2026-04-26T22:00:06.712Z</time>
      </trkpt>
      <trkpt lat="46.87284" lon="-0.94462">
        <ele>127.9</ele>
        <time>2026-04-26T22:01:00.199Z</time>
      </trkpt>
      <trkpt lat="46.87263" lon="-0.94568">
        <ele>120.7</ele>
        <time>2026-04-26T22:01:07.493Z</time>
      </trkpt>
      <trkpt lat="46.87255" lon="-0.94604">
        <ele>122</ele>
        <time>2026-04-26T22:01:14.744Z</time>
      </trkpt>
      <trkpt lat="46.8725" lon="-0.9463">
        <ele>123</ele>
        <time>2026-04-26T22:01:20.205Z</time>
      </trkpt>
      <trkpt lat="46.8722" lon="-0.94786">
        <ele>129.4</ele>
        <time>2026-04-26T22:01:54.639Z</time>
      </trkpt>
      <trkpt lat="46.8721" lon="-0.94836">
        <ele>130.8</ele>
        <time>2026-04-26T22:02:03.383Z</time>
      </trkpt>
      <trkpt lat="46.87202" lon="-0.94878">
        <ele>132.6</ele>
        <time>2026-04-26T22:02:12.987Z</time>
      </trkpt>
      <trkpt lat="46.87199" lon="-0.94912">
        <ele>134.9</ele>
        <time>2026-04-26T22:02:25.440Z</time>
      </trkpt>
      <trkpt lat="46.87197" lon="-0.94946">
        <ele>136.1</ele>
        <time>2026-04-26T22:02:32.074Z</time>
      </trkpt>
      <trkpt lat="46.87197" lon="-0.94969">
        <ele>137</ele>
        <time>2026-04-26T22:02:36.936Z</time>
      </trkpt>
      <trkpt lat="46.87197" lon="-0.95003">
        <ele>139.1</ele>
        <time>2026-04-26T22:02:48.139Z</time>
      </trkpt>
      <trkpt lat="46.87201" lon="-0.95051">
        <ele>141.1</ele>
        <time>2026-04-26T22:02:58.797Z</time>
      </trkpt>
      <trkpt lat="46.87206" lon="-0.9509">
        <ele>143.1</ele>
        <time>2026-04-26T22:03:09.242Z</time>
      </trkpt>
      <trkpt lat="46.87208" lon="-0.95097">
        <ele>143.4</ele>
        <time>2026-04-26T22:03:10.837Z</time>
        <extensions>
          <visugpx:TrkExtension xmlns:visugpx="https://www.visugpx.com/editgpx/">
            <visugpx:node>9</visugpx:node>
            </visugpx:TrkExtension>
        </extensions>
      </trkpt>
      <trkpt lat="46.87213" lon="-0.95126">
        <ele>144.9</ele>
        <time>2026-04-26T22:03:18.671Z</time>
      </trkpt>
      <trkpt lat="46.87222" lon="-0.9516">
        <ele>146.8</ele>
        <time>2026-04-26T22:03:28.609Z</time>
      </trkpt>
      <trkpt lat="46.87229" lon="-0.95185">
        <ele>147.7</ele>
        <time>2026-04-26T22:03:33.704Z</time>
      </trkpt>
      <trkpt lat="46.8724" lon="-0.95214">
        <ele>148.2</ele>
        <time>2026-04-26T22:03:38.308Z</time>
      </trkpt>
      <trkpt lat="46.87273" lon="-0.953">
        <ele>151.3</ele>
        <time>2026-04-26T22:03:56.332Z</time>
      </trkpt>
      <trkpt lat="46.87284" lon="-0.95332">
        <ele>152.4</ele>
        <time>2026-04-26T22:04:02.749Z</time>
      </trkpt>
      <trkpt lat="46.87293" lon="-0.95362">
        <ele>153.1</ele>
        <time>2026-04-26T22:04:07.757Z</time>
      </trkpt>
      <trkpt lat="46.87296" lon="-0.95376">
        <ele>153.6</ele>
        <time>2026-04-26T22:04:10.576Z</time>
      </trkpt>
      <trkpt lat="46.87302" lon="-0.95405">
        <ele>154.1</ele>
        <time>2026-04-26T22:04:14.875Z</time>
      </trkpt>
      <trkpt lat="46.87303" lon="-0.9541">
        <ele>154</ele>
        <time>2026-04-26T22:04:15.250Z</time>
      </trkpt>
      <trkpt lat="46.87308" lon="-0.95449">
        <ele>154.2</ele>
        <time>2026-04-26T22:04:20.010Z</time>
      </trkpt>
      <trkpt lat="46.8732" lon="-0.95478">
        <ele>155</ele>
        <time>2026-04-26T22:04:25.323Z</time>
      </trkpt>
      <trkpt lat="46.87336" lon="-0.9551">
        <ele>155.2</ele>
        <time>2026-04-26T22:04:30.045Z</time>
      </trkpt>
      <trkpt lat="46.87341" lon="-0.95529">
        <ele>153.9</ele>
        <time>2026-04-26T22:04:31.405Z</time>
      </trkpt>
      <trkpt lat="46.87341" lon="-0.95557">
        <ele>152.2</ele>
        <time>2026-04-26T22:04:33.235Z</time>
      </trkpt>
      <trkpt lat="46.87334" lon="-0.9557">
        <ele>151.5</ele>
        <time>2026-04-26T22:04:34.432Z</time>
      </trkpt>
      <trkpt lat="46.8734" lon="-0.95588">
        <ele>151.1</ele>
        <time>2026-04-26T22:04:36.145Z</time>
      </trkpt>
      <trkpt lat="46.87331" lon="-0.95763">
        <ele>152.8</ele>
        <time>2026-04-26T22:04:58.339Z</time>
      </trkpt>
      <trkpt lat="46.8733" lon="-0.95815">
        <ele>155.6</ele>
        <time>2026-04-26T22:05:12.996Z</time>
      </trkpt>
      <trkpt lat="46.87326" lon="-0.95844">
        <ele>154.5</ele>
        <time>2026-04-26T22:05:15.161Z</time>
      </trkpt>
      <trkpt lat="46.87319" lon="-0.9587">
        <ele>152.1</ele>
        <time>2026-04-26T22:05:17.025Z</time>
        <extensions>
          <visugpx:TrkExtension xmlns:visugpx="https://www.visugpx.com/editgpx/">
            <visugpx:node>10</visugpx:node>
            </visugpx:TrkExtension>
        </extensions>
      </trkpt>
      <trkpt lat="46.8731" lon="-0.9589">
        <ele>150.2</ele>
        <time>2026-04-26T22:05:18.549Z</time>
      </trkpt>
      <trkpt lat="46.87294" lon="-0.95921">
        <ele>150.1</ele>
        <time>2026-04-26T22:05:22.670Z</time>
      </trkpt>
      <trkpt lat="46.87289" lon="-0.95935">
        <ele>149.4</ele>
        <time>2026-04-26T22:05:23.729Z</time>
      </trkpt>
      <trkpt lat="46.87284" lon="-0.95951">
        <ele>148.7</ele>
        <time>2026-04-26T22:05:25.019Z</time>
      </trkpt>
      <trkpt lat="46.87277" lon="-0.95988">
        <ele>149.1</ele>
        <time>2026-04-26T22:05:29.932Z</time>
      </trkpt>
      <trkpt lat="46.87265" lon="-0.96038">
        <ele>148.1</ele>
        <time>2026-04-26T22:05:34.485Z</time>
      </trkpt>
      <trkpt lat="46.87254" lon="-0.96073">
        <ele>146.9</ele>
        <time>2026-04-26T22:05:37.440Z</time>
      </trkpt>
      <trkpt lat="46.87245" lon="-0.96117">
        <ele>145.8</ele>
        <time>2026-04-26T22:05:41.208Z</time>
      </trkpt>
      <trkpt lat="46.87239" lon="-0.96134">
        <ele>145.7</ele>
        <time>2026-04-26T22:05:43.132Z</time>
      </trkpt>
      <trkpt lat="46.87187" lon="-0.96263">
        <ele>143.7</ele>
        <time>2026-04-26T22:05:56.920Z</time>
      </trkpt>
      <trkpt lat="46.87172" lon="-0.96303">
        <ele>143.2</ele>
        <time>2026-04-26T22:06:01.330Z</time>
        <extensions>
          <visugpx:TrkExtension xmlns:visugpx="https://www.visugpx.com/editgpx/">
            <visugpx:node>11</visugpx:node>
            </visugpx:TrkExtension>
        </extensions>
      </trkpt>
      <trkpt lat="46.87073" lon="-0.96556">
        <ele>144.2</ele>
        <time>2026-04-26T22:06:34.988Z</time>
      </trkpt>
      <trkpt lat="46.87041" lon="-0.96675">
        <ele>145</ele>
        <time>2026-04-26T22:06:50.384Z</time>
      </trkpt>
      <trkpt lat="46.87027" lon="-0.96747">
        <ele>145</ele>
        <time>2026-04-26T22:06:58.680Z</time>
      </trkpt>
      <trkpt lat="46.87015" lon="-0.96876">
        <ele>146.1</ele>
        <time>2026-04-26T22:07:14.873Z</time>
      </trkpt>
      <trkpt lat="46.87003" lon="-0.97131">
        <ele>145.9</ele>
        <time>2026-04-26T22:07:42.666Z</time>
      </trkpt>
      <trkpt lat="46.86998" lon="-0.97184">
        <ele>145.1</ele>
        <time>2026-04-26T22:07:47.571Z</time>
      </trkpt>
      <trkpt lat="46.86993" lon="-0.97251">
        <ele>145</ele>
        <time>2026-04-26T22:07:54.758Z</time>
      </trkpt>
      <trkpt lat="46.86994" lon="-0.97267">
        <ele>144.4</ele>
        <time>2026-04-26T22:07:55.942Z</time>
      </trkpt>
      <trkpt lat="46.86997" lon="-0.97279">
        <ele>144</ele>
        <time>2026-04-26T22:07:56.919Z</time>
      </trkpt>
      <trkpt lat="46.87002" lon="-0.97293">
        <ele>143.9</ele>
        <time>2026-04-26T22:07:58.488Z</time>
      </trkpt>
      <trkpt lat="46.87009" lon="-0.97312">
        <ele>143.2</ele>
        <time>2026-04-26T22:08:00.178Z</time>
      </trkpt>
      <trkpt lat="46.8701" lon="-0.97322">
        <ele>142.9</ele>
        <time>2026-04-26T22:08:00.899Z</time>
      </trkpt>
      <trkpt lat="46.87006" lon="-0.9733">
        <ele>142.9</ele>
        <time>2026-04-26T22:08:02.009Z</time>
      </trkpt>
      <trkpt lat="46.87002" lon="-0.97333">
        <ele>142.9</ele>
        <time>2026-04-26T22:08:02.729Z</time>
      </trkpt>
      <trkpt lat="46.86996" lon="-0.97337">
        <ele>142.9</ele>
        <time>2026-04-26T22:08:03.805Z</time>
      </trkpt>
      <trkpt lat="46.86989" lon="-0.97339">
        <ele>143.1</ele>
        <time>2026-04-26T22:08:05.372Z</time>
      </trkpt>
      <trkpt lat="46.86989" lon="-0.97347">
        <ele>142.6</ele>
        <time>2026-04-26T22:08:05.894Z</time>
      </trkpt>
      <trkpt lat="46.86988" lon="-0.97354">
        <ele>142.3</ele>
        <time>2026-04-26T22:08:06.442Z</time>
      </trkpt>
      <trkpt lat="46.86985" lon="-0.97361">
        <ele>142.1</ele>
        <time>2026-04-26T22:08:07.082Z</time>
      </trkpt>
      <trkpt lat="46.86981" lon="-0.97366">
        <ele>142.2</ele>
        <time>2026-04-26T22:08:08.118Z</time>
      </trkpt>
      <trkpt lat="46.86976" lon="-0.9737">
        <ele>142.4</ele>
        <time>2026-04-26T22:08:09.402Z</time>
      </trkpt>
      <trkpt lat="46.86971" lon="-0.97371">
        <ele>142.7</ele>
        <time>2026-04-26T22:08:11.031Z</time>
      </trkpt>
      <trkpt lat="46.86965" lon="-0.97376">
        <ele>142.6</ele>
        <time>2026-04-26T22:08:11.929Z</time>
      </trkpt>
      <trkpt lat="46.8696" lon="-0.97383">
        <ele>142.6</ele>
        <time>2026-04-26T22:08:12.990Z</time>
      </trkpt>
      <trkpt lat="46.86946" lon="-0.97416">
        <ele>142</ele>
        <time>2026-04-26T22:08:16.561Z</time>
      </trkpt>
      <trkpt lat="46.8694" lon="-0.9743">
        <ele>141.6</ele>
        <time>2026-04-26T22:08:17.901Z</time>
        <extensions>
          <visugpx:TrkExtension xmlns:visugpx="https://www.visugpx.com/editgpx/">
            <visugpx:node>12</visugpx:node>
            </visugpx:TrkExtension>
        </extensions>
      </trkpt>
      <trkpt lat="46.86918" lon="-0.97487">
        <ele>140.9</ele>
        <time>2026-04-26T22:08:24.168Z</time>
      </trkpt>
      <trkpt lat="46.86837" lon="-0.97682">
        <ele>140.8</ele>
        <time>2026-04-26T22:08:49.087Z</time>
      </trkpt>
      <trkpt lat="46.86758" lon="-0.97872">
        <ele>143.7</ele>
        <time>2026-04-26T22:09:18.833Z</time>
      </trkpt>
      <trkpt lat="46.86738" lon="-0.97922">
        <ele>143.6</ele>
        <time>2026-04-26T22:09:25.021Z</time>
      </trkpt>
      <trkpt lat="46.86693" lon="-0.98032">
        <ele>144.2</ele>
        <time>2026-04-26T22:09:40.152Z</time>
      </trkpt>
      <trkpt lat="46.86677" lon="-0.98081">
        <ele>145.3</ele>
        <time>2026-04-26T22:09:48.355Z</time>
      </trkpt>
      <trkpt lat="46.86668" lon="-0.98105">
        <ele>146.6</ele>
        <time>2026-04-26T22:09:55.150Z</time>
      </trkpt>
      <trkpt lat="46.86661" lon="-0.98125">
        <ele>147</ele>
        <time>2026-04-26T22:09:58.396Z</time>
      </trkpt>
      <trkpt lat="46.86655" lon="-0.98135">
        <ele>147.3</ele>
        <time>2026-04-26T22:10:00.409Z</time>
      </trkpt>
      <trkpt lat="46.86649" lon="-0.98144">
        <ele>147.6</ele>
        <time>2026-04-26T22:10:02.429Z</time>
      </trkpt>
      <trkpt lat="46.86639" lon="-0.98154">
        <ele>148.4</ele>
        <time>2026-04-26T22:10:06.632Z</time>
      </trkpt>
      <trkpt lat="46.86631" lon="-0.98158">
        <ele>149.1</ele>
        <time>2026-04-26T22:10:10.311Z</time>
      </trkpt>
      <trkpt lat="46.86629" lon="-0.98159">
        <ele>149.3</ele>
        <time>2026-04-26T22:10:11.385Z</time>
      </trkpt>
      <trkpt lat="46.86632" lon="-0.9823">
        <ele>145.9</ele>
        <time>2026-04-26T22:10:16.090Z</time>
      </trkpt>
      <trkpt lat="46.86634" lon="-0.98421">
        <ele>141.6</ele>
        <time>2026-04-26T22:10:31.968Z</time>
      </trkpt>
      <trkpt lat="46.86634" lon="-0.98433">
        <ele>141.5</ele>
        <time>2026-04-26T22:10:33.216Z</time>
        <extensions>
          <visugpx:TrkExtension xmlns:visugpx="https://www.visugpx.com/editgpx/">
            <visugpx:node>13</visugpx:node>
            </visugpx:TrkExtension>
        </extensions>
      </trkpt>
      <trkpt lat="46.86634" lon="-0.98452">
        <ele>141.6</ele>
        <time>2026-04-26T22:10:35.428Z</time>
      </trkpt>
      <trkpt lat="46.86634" lon="-0.98461">
        <ele>141.6</ele>
        <time>2026-04-26T22:10:36.375Z</time>
      </trkpt>
      <trkpt lat="46.86634" lon="-0.98473">
        <ele>141.7</ele>
        <time>2026-04-26T22:10:37.898Z</time>
      </trkpt>
      <trkpt lat="46.86635" lon="-0.98532">
        <ele>141.1</ele>
        <time>2026-04-26T22:10:43.555Z</time>
      </trkpt>
      <trkpt lat="46.86637" lon="-0.98555">
        <ele>140.5</ele>
        <time>2026-04-26T22:10:45.484Z</time>
      </trkpt>
      <trkpt lat="46.86642" lon="-0.98591">
        <ele>138.9</ele>
        <time>2026-04-26T22:10:47.899Z</time>
      </trkpt>
      <trkpt lat="46.86645" lon="-0.98615">
        <ele>138.9</ele>
        <time>2026-04-26T22:10:50.630Z</time>
      </trkpt>
      <trkpt lat="46.86651" lon="-0.98656">
        <ele>137.7</ele>
        <time>2026-04-26T22:10:53.844Z</time>
      </trkpt>
      <trkpt lat="46.86664" lon="-0.98742">
        <ele>137.2</ele>
        <time>2026-04-26T22:11:02.800Z</time>
      </trkpt>
      <trkpt lat="46.86673" lon="-0.98802">
        <ele>135.3</ele>
        <time>2026-04-26T22:11:07.554Z</time>
      </trkpt>
      <trkpt lat="46.86676" lon="-0.98827">
        <ele>134.5</ele>
        <time>2026-04-26T22:11:09.426Z</time>
      </trkpt>
      <trkpt lat="46.86677" lon="-0.98834">
        <ele>134.3</ele>
        <time>2026-04-26T22:11:09.961Z</time>
      </trkpt>
      <trkpt lat="46.86677" lon="-0.98841">
        <ele>134</ele>
        <time>2026-04-26T22:11:10.492Z</time>
      </trkpt>
      <trkpt lat="46.86679" lon="-0.98853">
        <ele>133.4</ele>
        <time>2026-04-26T22:11:11.287Z</time>
      </trkpt>
      <trkpt lat="46.86681" lon="-0.9887">
        <ele>133</ele>
        <time>2026-04-26T22:11:12.768Z</time>
      </trkpt>
      <trkpt lat="46.86684" lon="-0.98883">
        <ele>132.7</ele>
        <time>2026-04-26T22:11:13.844Z</time>
      </trkpt>
      <trkpt lat="46.86686" lon="-0.98893">
        <ele>132.6</ele>
        <time>2026-04-26T22:11:14.906Z</time>
      </trkpt>
      <trkpt lat="46.86696" lon="-0.98962">
        <ele>129.2</ele>
        <time>2026-04-26T22:11:19.576Z</time>
      </trkpt>
      <trkpt lat="46.8671" lon="-0.99051">
        <ele>126.5</ele>
        <time>2026-04-26T22:11:26.544Z</time>
      </trkpt>
      <trkpt lat="46.86713" lon="-0.99073">
        <ele>126.2</ele>
        <time>2026-04-26T22:11:28.621Z</time>
      </trkpt>
      <trkpt lat="46.86715" lon="-0.99086">
        <ele>126.3</ele>
        <time>2026-04-26T22:11:30.288Z</time>
      </trkpt>
      <trkpt lat="46.86723" lon="-0.99141">
        <ele>127</ele>
        <time>2026-04-26T22:11:37.687Z</time>
      </trkpt>
      <trkpt lat="46.86725" lon="-0.99155">
        <ele>127.3</ele>
        <time>2026-04-26T22:11:39.912Z</time>
      </trkpt>
      <trkpt lat="46.8673" lon="-0.99182">
        <ele>127.1</ele>
        <time>2026-04-26T22:11:42.716Z</time>
      </trkpt>
      <trkpt lat="46.86736" lon="-0.99219">
        <ele>127.4</ele>
        <time>2026-04-26T22:11:47.419Z</time>
      </trkpt>
      <trkpt lat="46.86749" lon="-0.99304">
        <ele>127.2</ele>
        <time>2026-04-26T22:11:56.669Z</time>
      </trkpt>
      <trkpt lat="46.86752" lon="-0.99335">
        <ele>126.8</ele>
        <time>2026-04-26T22:11:59.622Z</time>
      </trkpt>
      <trkpt lat="46.86755" lon="-0.99359">
        <ele>126.4</ele>
        <time>2026-04-26T22:12:01.772Z</time>
      </trkpt>
      <trkpt lat="46.86771" lon="-0.99466">
        <ele>125.9</ele>
        <time>2026-04-26T22:12:13.142Z</time>
        <extensions>
          <visugpx:TrkExtension xmlns:visugpx="https://www.visugpx.com/editgpx/">
            <visugpx:node>14</visugpx:node>
            </visugpx:TrkExtension>
        </extensions>
      </trkpt>
      <trkpt lat="46.86794" lon="-0.99621">
        <ele>125.2</ele>
        <time>2026-04-26T22:12:29.557Z</time>
      </trkpt>
      <trkpt lat="46.86805" lon="-0.99694">
        <ele>124.1</ele>
        <time>2026-04-26T22:12:36.337Z</time>
      </trkpt>
      <trkpt lat="46.86821" lon="-0.99809">
        <ele>122.1</ele>
        <time>2026-04-26T22:12:46.725Z</time>
      </trkpt>
      <trkpt lat="46.8683" lon="-0.99868">
        <ele>121.7</ele>
        <time>2026-04-26T22:12:52.844Z</time>
      </trkpt>
      <trkpt lat="46.86831" lon="-0.99902">
        <ele>121.5</ele>
        <time>2026-04-26T22:12:56.337Z</time>
      </trkpt>
      <trkpt lat="46.86831" lon="-0.9992">
        <ele>121.4</ele>
        <time>2026-04-26T22:12:58.091Z</time>
      </trkpt>
      <trkpt lat="46.86834" lon="-0.99921">
        <ele>120.9</ele>
        <time>2026-04-26T22:12:58.379Z</time>
      </trkpt>
      <trkpt lat="46.86837" lon="-0.99923">
        <ele>120.8</ele>
        <time>2026-04-26T22:12:58.730Z</time>
      </trkpt>
      <trkpt lat="46.86839" lon="-0.99926">
        <ele>120.6</ele>
        <time>2026-04-26T22:12:59.010Z</time>
      </trkpt>
      <trkpt lat="46.8684" lon="-0.9993">
        <ele>120.5</ele>
        <time>2026-04-26T22:12:59.372Z</time>
      </trkpt>
      <trkpt lat="46.8684" lon="-0.99934">
        <ele>120.5</ele>
        <time>2026-04-26T22:12:59.815Z</time>
      </trkpt>
      <trkpt lat="46.86839" lon="-0.99938">
        <ele>120.6</ele>
        <time>2026-04-26T22:13:00.475Z</time>
      </trkpt>
      <trkpt lat="46.86838" lon="-0.99942">
        <ele>120.7</ele>
        <time>2026-04-26T22:13:01.124Z</time>
      </trkpt>
      <trkpt lat="46.86836" lon="-0.99944">
        <ele>120.8</ele>
        <time>2026-04-26T22:13:01.787Z</time>
      </trkpt>
      <trkpt lat="46.86834" lon="-0.99946">
        <ele>120.9</ele>
        <time>2026-04-26T22:13:02.437Z</time>
      </trkpt>
      <trkpt lat="46.86839" lon="-0.99963">
        <ele>120.1</ele>
        <time>2026-04-26T22:13:03.680Z</time>
      </trkpt>
      <trkpt lat="46.86844" lon="-0.9998">
        <ele>119.8</ele>
        <time>2026-04-26T22:13:05.330Z</time>
      </trkpt>
      <trkpt lat="46.86848" lon="-0.99999">
        <ele>119.9</ele>
        <time>2026-04-26T22:13:07.671Z</time>
      </trkpt>
      <trkpt lat="46.8686" lon="-1.0007">
        <ele>118.3</ele>
        <time>2026-04-26T22:13:13.766Z</time>
      </trkpt>
      <trkpt lat="46.86894" lon="-1.00304">
        <ele>115.3</ele>
        <time>2026-04-26T22:13:36.138Z</time>
      </trkpt>
      <trkpt lat="46.86902" lon="-1.00363">
        <ele>114.1</ele>
        <time>2026-04-26T22:13:41.333Z</time>
      </trkpt>
      <trkpt lat="46.86904" lon="-1.00371">
        <ele>114.1</ele>
        <time>2026-04-26T22:13:42.222Z</time>
      </trkpt>
      <trkpt lat="46.86906" lon="-1.0038">
        <ele>114.2</ele>
        <time>2026-04-26T22:13:43.431Z</time>
      </trkpt>
      <trkpt lat="46.86906" lon="-1.00384">
        <ele>114.3</ele>
        <time>2026-04-26T22:13:44.131Z</time>
      </trkpt>
      <trkpt lat="46.86914" lon="-1.00438">
        <ele>113.2</ele>
        <time>2026-04-26T22:13:48.783Z</time>
      </trkpt>
      <trkpt lat="46.86914" lon="-1.00443">
        <ele>113.2</ele>
        <time>2026-04-26T22:13:49.323Z</time>
      </trkpt>
      <trkpt lat="46.86914" lon="-1.00447">
        <ele>113.1</ele>
        <time>2026-04-26T22:13:49.678Z</time>
      </trkpt>
      <trkpt lat="46.86919" lon="-1.00481">
        <ele>111.8</ele>
        <time>2026-04-26T22:13:52.134Z</time>
      </trkpt>
      <trkpt lat="46.86937" lon="-1.00598">
        <ele>110.5</ele>
        <time>2026-04-26T22:14:03.613Z</time>
        <extensions>
          <visugpx:TrkExtension xmlns:visugpx="https://www.visugpx.com/editgpx/">
            <visugpx:node>15</visugpx:node>
            </visugpx:TrkExtension>
        </extensions>
      </trkpt>
      <trkpt lat="46.86942" lon="-1.00631">
        <ele>109.5</ele>
        <time>2026-04-26T22:14:06.167Z</time>
      </trkpt>
      <trkpt lat="46.86943" lon="-1.00633">
        <ele>109.4</ele>
        <time>2026-04-26T22:14:06.366Z</time>
      </trkpt>
      <trkpt lat="46.86946" lon="-1.00656">
        <ele>108.9</ele>
        <time>2026-04-26T22:14:08.346Z</time>
      </trkpt>
      <trkpt lat="46.86937" lon="-1.00659">
        <ele>109.4</ele>
        <time>2026-04-26T22:14:11.078Z</time>
      </trkpt>
      <trkpt lat="46.86928" lon="-1.00658">
        <ele>109.9</ele>
        <time>2026-04-26T22:14:13.789Z</time>
      </trkpt>
      <trkpt lat="46.869" lon="-1.0065">
        <ele>111.1</ele>
        <time>2026-04-26T22:14:21.058Z</time>
      </trkpt>
      <trkpt lat="46.86854" lon="-1.00633">
        <ele>111.2</ele>
        <time>2026-04-26T22:14:28.980Z</time>
      </trkpt>
      <trkpt lat="46.86845" lon="-1.00632">
        <ele>111.2</ele>
        <time>2026-04-26T22:14:30.285Z</time>
      </trkpt>
      <trkpt lat="46.86837" lon="-1.00634">
        <ele>111.2</ele>
        <time>2026-04-26T22:14:31.695Z</time>
      </trkpt>
      <trkpt lat="46.86766" lon="-1.00655">
        <ele>110</ele>
        <time>2026-04-26T22:14:41.711Z</time>
      </trkpt>
      <trkpt lat="46.86751" lon="-1.0066">
        <ele>110</ele>
        <time>2026-04-26T22:14:44.250Z</time>
      </trkpt>
      <trkpt lat="46.86732" lon="-1.00665">
        <ele>110</ele>
        <time>2026-04-26T22:14:47.315Z</time>
      </trkpt>
      <trkpt lat="46.86724" lon="-1.00668">
        <ele>110</ele>
        <time>2026-04-26T22:14:48.571Z</time>
      </trkpt>
      <trkpt lat="46.86716" lon="-1.00673">
        <ele>110</ele>
        <time>2026-04-26T22:14:50.062Z</time>
      </trkpt>
      <trkpt lat="46.86714" lon="-1.00668">
        <ele>110</ele>
        <time>2026-04-26T22:14:50.633Z</time>
      </trkpt>
      <trkpt lat="46.86704" lon="-1.00658">
        <ele>110</ele>
        <time>2026-04-26T22:14:52.623Z</time>
      </trkpt>
      <trkpt lat="46.86685" lon="-1.00653">
        <ele>110.3</ele>
        <time>2026-04-26T22:14:56.267Z</time>
      </trkpt>
      <trkpt lat="46.86664" lon="-1.00646">
        <ele>111</ele>
        <time>2026-04-26T22:15:01.182Z</time>
        <extensions>
          <visugpx:TrkExtension xmlns:visugpx="https://www.visugpx.com/editgpx/">
            <visugpx:node>16</visugpx:node>
            </visugpx:TrkExtension>
        </extensions>
      </trkpt>
      <trkpt lat="46.86637" lon="-1.00639">
        <ele>111.1</ele>
        <time>2026-04-26T22:15:05.743Z</time>
      </trkpt>
      <trkpt lat="46.86608" lon="-1.00631">
        <ele>112.2</ele>
        <time>2026-04-26T22:15:12.766Z</time>
      </trkpt>
      <trkpt lat="46.8659" lon="-1.00625">
        <ele>113.2</ele>
        <time>2026-04-26T22:15:18.280Z</time>
      </trkpt>
      <trkpt lat="46.86579" lon="-1.00619">
        <ele>113.6</ele>
        <time>2026-04-26T22:15:21.051Z</time>
      </trkpt>
      <trkpt lat="46.86569" lon="-1.00612">
        <ele>114</ele>
        <time>2026-04-26T22:15:23.538Z</time>
      </trkpt>
      <trkpt lat="46.86556" lon="-1.00602">
        <ele>114.7</ele>
        <time>2026-04-26T22:15:27.641Z</time>
      </trkpt>
      <trkpt lat="46.86535" lon="-1.00588">
        <ele>114.4</ele>
        <time>2026-04-26T22:15:30.909Z</time>
      </trkpt>
      <trkpt lat="46.8652" lon="-1.00578">
        <ele>115</ele>
        <time>2026-04-26T22:15:34.825Z</time>
      </trkpt>
      <trkpt lat="46.86496" lon="-1.00567">
        <ele>117.2</ele>
        <time>2026-04-26T22:15:46.467Z</time>
      </trkpt>
      <trkpt lat="46.86481" lon="-1.00563">
        <ele>117.3</ele>
        <time>2026-04-26T22:15:49.051Z</time>
      </trkpt>
      <trkpt lat="46.8647" lon="-1.00561">
        <ele>117.3</ele>
        <time>2026-04-26T22:15:50.722Z</time>
      </trkpt>
      <trkpt lat="46.86453" lon="-1.00561">
        <ele>117.9</ele>
        <time>2026-04-26T22:15:54.722Z</time>
      </trkpt>
      <trkpt lat="46.86422" lon="-1.00563">
        <ele>119.1</ele>
        <time>2026-04-26T22:16:02.336Z</time>
      </trkpt>
      <trkpt lat="46.86414" lon="-1.00561">
        <ele>119.2</ele>
        <time>2026-04-26T22:16:03.739Z</time>
      </trkpt>
      <trkpt lat="46.86407" lon="-1.00559">
        <ele>119.1</ele>
        <time>2026-04-26T22:16:04.894Z</time>
      </trkpt>
      <trkpt lat="46.86396" lon="-1.00556">
        <ele>119</ele>
        <time>2026-04-26T22:16:06.476Z</time>
      </trkpt>
      <trkpt lat="46.86387" lon="-1.00558">
        <ele>119.1</ele>
        <time>2026-04-26T22:16:08.055Z</time>
      </trkpt>
      <trkpt lat="46.86382" lon="-1.00563">
        <ele>119.2</ele>
        <time>2026-04-26T22:16:09.183Z</time>
        <extensions>
          <visugpx:TrkExtension xmlns:visugpx="https://www.visugpx.com/editgpx/">
            <visugpx:node>17</visugpx:node>
            </visugpx:TrkExtension>
        </extensions>
      </trkpt>
    </trkseg>
  </trk>
</gpx>